Provisional Data: Hunts Run near Cameron, PA


Please select a monitoring station.
Please select start date.
Please select start date.

Toggle Unit: C/F Toggle Unit: C/F
Sample Time Temperature (C) Temperature (F) Specific Conductivity (mS/cm) pH   Turbidity (NTU+) DO (mg/L)
12/4/2020 12:00:00 AM 3.57 38.426 0.034 6.52 2.7 12.95
12/4/2020 12:15:00 AM 3.57 38.426 0.034 6.63 3.24 12.96
12/4/2020 12:30:00 AM 3.57 38.426 0.034 6.6 2.95 12.95
12/4/2020 12:45:00 AM 3.57 38.426 0.034 6.62 2.38 12.95
12/4/2020 1:00:00 AM 3.57 38.426 0.034 6.62 2.48 12.95
12/4/2020 1:15:00 AM 3.57 38.426 0.034 6.63 2.43 12.95
12/4/2020 1:30:00 AM 3.58 38.444 0.034 6.61 2.45 12.94
12/4/2020 1:45:00 AM 3.58 38.444 0.034 6.6 2.75 12.94
12/4/2020 2:00:00 AM 3.58 38.444 0.034 6.53 2.4 12.94
12/4/2020 2:15:00 AM 3.58 38.444 0.034 6.64 2.41 12.93
12/4/2020 2:30:00 AM 3.57 38.426 0.034 6.63 2.63 12.94
12/4/2020 2:45:00 AM 3.57 38.426 0.034 6.58 2.72 12.93
12/4/2020 3:00:00 AM 3.57 38.426 0.034 6.61 3 12.93
12/4/2020 3:15:00 AM 3.56 38.408 0.034 6.53 2.76 12.94
12/4/2020 3:30:00 AM 3.57 38.426 0.034 6.61 2.43 12.93
12/4/2020 3:45:00 AM 3.56 38.408 0.034 6.62 2.69 12.93
12/4/2020 4:00:00 AM 3.56 38.408 0.034 6.61 2.54 12.94
12/4/2020 4:15:00 AM 3.57 38.426 0.034 6.59 2.67 12.93
12/4/2020 4:30:00 AM 3.57 38.426 0.034 6.56 3.07 12.93
12/4/2020 4:45:00 AM 3.56 38.408 0.034 6.6 2.5 12.93
12/4/2020 5:00:00 AM 3.54 38.372 0.034 6.47 2.57 12.94
12/4/2020 5:15:00 AM 3.53 38.354 0.034 6.63 4.13 12.94
12/4/2020 5:30:00 AM 3.52 38.336 0.034 6.59 2.28 12.94
12/4/2020 5:45:00 AM 3.52 38.336 0.034 6.52 2.36 12.94
12/4/2020 6:00:00 AM 3.53 38.354 0.034 6.53 2.85 12.94
12/4/2020 6:15:00 AM 3.53 38.354 0.034 6.62 2.85 12.94
12/4/2020 6:30:00 AM 3.54 38.372 0.034 6.55 2.76 12.94
12/4/2020 6:45:00 AM 3.53 38.354 0.034 6.57 2.26 12.94
12/4/2020 7:00:00 AM 3.54 38.372 0.034 6.63 2.36 12.94
12/4/2020 7:15:00 AM 3.54 38.372 0.034 6.61 2.5 12.93
12/4/2020 7:30:00 AM 3.55 38.39 0.034 6.62 2.34 12.94
12/4/2020 7:45:00 AM 3.55 38.39 0.034 6.62 2.33 12.97
12/4/2020 8:00:00 AM 3.57 38.426 0.034 6.5 2.7 13
12/4/2020 8:15:00 AM 3.59 38.462 0.034 6.64 2.24 13.05
12/4/2020 8:30:00 AM 3.61 38.498 0.034 6.51 2.22 13.06
12/4/2020 8:45:00 AM 3.62 38.516 0.034 6.66 2.35 13.07
12/4/2020 9:00:00 AM 3.62 38.516 0.034 6.66 2.32 13.09
12/4/2020 9:15:00 AM 3.63 38.534 0.034 6.67 7.76 13.1
12/4/2020 9:30:00 AM 3.67 38.606 0.034 6.69 2.48 13.12
12/4/2020 9:45:00 AM 3.71 38.678 0.034 6.65 2.22 13.11
12/4/2020 10:00:00 AM 3.75 38.75 0.034 6.71 2.2 13.11
12/4/2020 10:15:00 AM 3.78 38.804 0.034 6.53 2.42 13.1
12/4/2020 10:30:00 AM 3.83 38.894 0.034 6.73 2.42 13.09
12/4/2020 10:45:00 AM 3.88 38.984 0.034 6.62 2.64 13.08
12/4/2020 11:00:00 AM 3.99 39.182 0.034 6.73 2.35 13.07
12/4/2020 11:15:00 AM 4.09 39.362 0.034 6.72 2.25 13.04
12/4/2020 11:30:00 AM 4.19 39.542 0.034 6.58 2.24 13.01
12/4/2020 11:45:00 AM 4.29 39.722 0.034 6.76 2.2 13
12/4/2020 12:00:00 PM 4.37 39.866 0.033 6.71 2.72 12.98
12/4/2020 12:15:00 PM 4.45 40.01 0.033 6.74 2.21 12.95
12/4/2020 12:30:00 PM 4.5 40.1 0.033 6.73 2.56 12.92
12/4/2020 12:45:00 PM 4.53 40.154 0.033 6.76 2.09 12.88
12/4/2020 1:00:00 PM 4.55 40.19 0.033 6.7 2.23 12.86
12/4/2020 1:15:00 PM 4.57 40.226 0.033 6.72 2.04 12.83
12/4/2020 1:30:00 PM 4.6 40.28 0.033 6.73 2.25 12.81
12/4/2020 1:45:00 PM 4.63 40.334 0.033 6.72 2.66 12.79
12/4/2020 2:00:00 PM 4.65 40.37 0.033 6.59 2.65 12.76
12/4/2020 2:15:00 PM 4.67 40.406 0.033 6.76 2.36 12.75
12/4/2020 2:30:00 PM 4.69 40.442 0.033 6.69 3.23 12.74
12/4/2020 2:45:00 PM 4.73 40.514 0.033 6.74 2.09 12.74
12/4/2020 3:00:00 PM 4.74 40.532 0.034 6.74 2.71 12.71
12/4/2020 3:15:00 PM 4.76 40.568 0.034 6.72 6.23 12.69
12/4/2020 3:30:00 PM 4.75 40.55 0.034 6.72 3.21 12.68
12/4/2020 3:45:00 PM 4.73 40.514 0.034 6.6 2.26 12.67
12/4/2020 4:00:00 PM 4.7 40.46 0.034 6.71 5.36 12.65
12/4/2020 4:15:00 PM 4.69 40.442 0.034 6.69 12.64 12.64
12/4/2020 4:30:00 PM 4.66 40.388 0.034 6.69 2.69 12.61
12/4/2020 4:45:00 PM 4.63 40.334 0.034 6.68 2.78 12.59
12/4/2020 5:00:00 PM 4.59 40.262 0.034 6.52 2.31 12.56
12/4/2020 5:15:00 PM 4.55 40.19 0.034 6.67 2.44 12.55
12/4/2020 5:30:00 PM 4.51 40.118 0.034 6.63 2.52 12.55
12/4/2020 5:45:00 PM 4.48 40.064 0.034 6.66 2.56 12.55
12/4/2020 6:00:00 PM 4.45 40.01 0.034 6.64 2.25 12.55
12/4/2020 6:15:00 PM 4.43 39.974 0.034 6.53 4.65 12.57
12/4/2020 6:30:00 PM 4.4 39.92 0.034 6.65 3.45 12.57
12/4/2020 6:45:00 PM 4.36 39.848 0.034 6.48 2.44 12.58
12/4/2020 7:00:00 PM 4.33 39.794 0.034 6.62 2.74 12.59
12/4/2020 7:15:00 PM 4.3 39.74 0.034 6.61 7.69 12.6
12/4/2020 7:30:00 PM 4.29 39.722 0.034 6.65 4.71 12.61
12/4/2020 7:45:00 PM 4.28 39.704 0.034 6.62 2.8 12.61
12/4/2020 8:00:00 PM 4.27 39.686 0.034 6.63 2.33 12.62
12/4/2020 8:15:00 PM 4.27 39.686 0.034 6.59 5.67 12.62
12/4/2020 8:30:00 PM 4.27 39.686 0.034 6.64 2.2 12.63
12/4/2020 8:45:00 PM 4.27 39.686 0.034 6.43 4.27 12.63
12/4/2020 9:00:00 PM 4.26 39.668 0.034 6.61 2.33 12.63
12/4/2020 9:15:00 PM 4.25 39.65 0.034 6.61 2.91 12.63
12/4/2020 9:30:00 PM 4.25 39.65 0.034 6.6 2.72 12.64
12/4/2020 9:45:00 PM 4.25 39.65 0.034 6.62 2.69 12.64
12/4/2020 10:00:00 PM 4.26 39.668 0.034 6.58 2.66 12.64
12/4/2020 10:15:00 PM 4.24 39.632 0.034 6.63 2.7 12.64
12/4/2020 10:30:00 PM 4.24 39.632 0.034 6.5 2.56 12.65
12/4/2020 10:45:00 PM 4.23 39.614 0.034 6.51 2.79 12.64
12/4/2020 11:00:00 PM 4.22 39.596 0.034 6.62 2.49 12.64
12/4/2020 11:15:00 PM 4.21 39.578 0.034 6.61 2.69 12.65
12/4/2020 11:30:00 PM 4.19 39.542 0.034 6.62 2.34 12.65
12/4/2020 11:45:00 PM 4.17 39.506 0.034 6.61 2.39 12.66
12/5/2020 12:00:00 AM 4.16 39.488 0.034 6.61 3.02 12.66
12/5/2020 12:15:00 AM 4.16 39.488 0.034 6.6 2.39 12.65
12/5/2020 12:30:00 AM 4.16 39.488 0.034 6.54 2.82 12.66
12/5/2020 12:45:00 AM 4.16 39.488 0.034 6.62 2.69 12.66
12/5/2020 1:00:00 AM 4.15 39.47 0.034 6.6 3.32 12.65
12/5/2020 1:15:00 AM 4.15 39.47 0.034 6.56 2.91 12.66
12/5/2020 1:30:00 AM 4.15 39.47 0.034 6.62 2.31 12.66
12/5/2020 1:45:00 AM 4.15 39.47 0.034 6.6 2.75 12.66
12/5/2020 2:00:00 AM 4.15 39.47 0.034 6.59 2.83 12.66
12/5/2020 2:15:00 AM 4.15 39.47 0.034 6.59 3.29 12.66
12/5/2020 2:30:00 AM 4.16 39.488 0.034 6.59 2.75 12.65
12/5/2020 2:45:00 AM 4.16 39.488 0.034 6.63 3.3 12.65
12/5/2020 3:00:00 AM 4.16 39.488 0.034 6.61 2.98 12.65
12/5/2020 3:15:00 AM 4.16 39.488 0.034 6.43 2.67 12.65
12/5/2020 3:30:00 AM 4.17 39.506 0.034 6.62 2.97 12.64
12/5/2020 3:45:00 AM 4.17 39.506 0.034 6.61 2.65 12.64
12/5/2020 4:00:00 AM 4.18 39.524 0.034 6.58 2.41 12.64
12/5/2020 4:15:00 AM 4.18 39.524 0.034 6.46 2.83 12.64
12/5/2020 4:30:00 AM 4.19 39.542 0.034 6.6 3 12.64
12/5/2020 4:45:00 AM 4.19 39.542 0.034 6.61 3.53 12.64
12/5/2020 5:00:00 AM 4.2 39.56 0.034 6.58 2.77 12.64
12/5/2020 5:15:00 AM 4.2 39.56 0.034 6.62 3.24 12.64
12/5/2020 5:30:00 AM 4.21 39.578 0.034 6.61 4.4 12.63
12/5/2020 5:45:00 AM 4.21 39.578 0.034 6.54 2.29 12.63
12/5/2020 6:00:00 AM 4.22 39.596 0.034 6.5 2.5 12.63
12/5/2020 6:15:00 AM 4.22 39.596 0.034 6.61 4.94 12.64
12/5/2020 6:30:00 AM 4.22 39.596 0.034 6.61 2.68 12.63
12/5/2020 6:45:00 AM 4.23 39.614 0.034 6.6 2.73 12.63
12/5/2020 7:00:00 AM 4.23 39.614 0.034 6.6 2.59 12.63
12/5/2020 7:15:00 AM 4.23 39.614 0.034 6.53 2.13 12.63
12/5/2020 7:30:00 AM 4.24 39.632 0.034 6.6 2.74 12.63
12/5/2020 7:45:00 AM 4.24 39.632 0.034 6.62 2.25 12.64
12/5/2020 8:00:00 AM 4.24 39.632 0.034 6.57 3.98 12.67
12/5/2020 8:15:00 AM 4.25 39.65 0.034 6.52 2.89 12.72
12/5/2020 8:30:00 AM 4.27 39.686 0.034 6.65 4.99 12.76
12/5/2020 8:45:00 AM 4.29 39.722 0.034 6.66 2.35 12.78
12/5/2020 9:00:00 AM 4.31 39.758 0.034 6.65 3.43 12.79
12/5/2020 9:15:00 AM 4.33 39.794 0.034 6.66 3.09 12.8
12/5/2020 9:30:00 AM 4.35 39.83 0.033 6.68 2.52 12.82
12/5/2020 9:45:00 AM 4.37 39.866 0.033 6.69 2.48 12.82
12/5/2020 10:00:00 AM 4.4 39.92 0.033 6.7 2.57 12.84
12/5/2020 10:15:00 AM 4.42 39.956 0.033 6.62 13.52 12.85
12/5/2020 10:30:00 AM 4.45 40.01 0.033 6.71 2.32 12.83
12/5/2020 10:45:00 AM 4.47 40.046 0.033 6.71 2.19 12.82
12/5/2020 11:00:00 AM 4.49 40.082 0.033 6.68 2.57 12.82
12/5/2020 11:15:00 AM 4.52 40.136 0.033 6.72 2.63 12.83
12/5/2020 11:30:00 AM 4.57 40.226 0.033 6.73 2.22 12.83
12/5/2020 11:45:00 AM 4.62 40.316 0.033 6.73 2.75 12.83
12/5/2020 12:00:00 PM 4.66 40.388 0.033 6.73 2.32 12.82
12/5/2020 12:15:00 PM 4.65 40.37 0.033 6.74 2.19 12.8
12/5/2020 12:30:00 PM 4.64 40.352 0.033 6.72 3.56 12.77
12/5/2020 12:45:00 PM 4.64 40.352 0.033 6.73 3.64 12.76
12/5/2020 1:00:00 PM 4.64 40.352 0.033 6.72 9.95 12.75
12/5/2020 1:15:00 PM 4.66 40.388 0.033 6.7 9.1 12.75
12/5/2020 1:30:00 PM 4.7 40.46 0.033 6.71 2.36 12.76
12/5/2020 1:45:00 PM 4.73 40.514 0.033 6.65 7.29 12.74
12/5/2020 2:00:00 PM 4.73 40.514 0.033 6.74 2.16 12.72
12/5/2020 2:15:00 PM 4.72 40.496 0.033 6.72 4.88 12.7
12/5/2020 2:30:00 PM 4.71 40.478 0.033 6.55 2.48 12.7
12/5/2020 2:45:00 PM 4.72 40.496 0.033 6.73 2.43 12.7
12/5/2020 3:00:00 PM 4.72 40.496 0.033 6.56 3.07 12.69
12/5/2020 3:15:00 PM 4.71 40.478 0.033 6.72 2.2 12.65
12/5/2020 3:30:00 PM 4.71 40.478 0.033 6.68 2.45 12.63
12/5/2020 3:45:00 PM 4.71 40.478 0.033 6.7 2.35 12.64
12/5/2020 4:00:00 PM 4.7 40.46 0.033 6.68 2.4 12.6
12/5/2020 4:15:00 PM 4.69 40.442 0.033 6.68 2.09 12.57
12/5/2020 4:30:00 PM 4.67 40.406 0.033 6.67 2.12 12.57
12/5/2020 4:45:00 PM 4.66 40.388 0.034 6.64 2.09 12.54
12/5/2020 5:00:00 PM 4.65 40.37 0.034 6.66 2.07 12.55
12/5/2020 5:15:00 PM 4.63 40.334 0.034 6.62 2.05 12.53
12/5/2020 5:30:00 PM 4.62 40.316 0.034 6.52 2.09 12.54
12/5/2020 5:45:00 PM 4.59 40.262 0.034 6.63 2.12 12.54
12/5/2020 6:00:00 PM 4.57 40.226 0.034 6.47 2.05 12.55
12/5/2020 6:15:00 PM 4.55 40.19 0.034 6.63 2.03 12.55
12/5/2020 6:30:00 PM 4.52 40.136 0.034 6.64 2.31 12.56
12/5/2020 6:45:00 PM 4.5 40.1 0.034 6.63 2.17 12.57
12/5/2020 7:00:00 PM 4.5 40.1 0.034 6.55 2.1 12.57
12/5/2020 7:15:00 PM 4.5 40.1 0.034 6.47 2.08 12.58
12/5/2020 7:30:00 PM 4.49 40.082 0.034 6.62 2.25 12.58
12/5/2020 7:45:00 PM 4.48 40.064 0.034 6.62 2.13 12.58
12/5/2020 8:00:00 PM 4.46 40.028 0.034 6.62 2.05 12.59
12/5/2020 8:15:00 PM 4.45 40.01 0.034 6.56 2.06 12.59
12/5/2020 8:30:00 PM 4.44 39.992 0.034 6.56 2.16 12.59
12/5/2020 8:45:00 PM 4.43 39.974 0.034 6.5 2.15 12.59
12/5/2020 9:00:00 PM 4.41 39.938 0.034 6.63 2.13 12.6
12/5/2020 9:15:00 PM 4.39 39.902 0.034 6.6 2.07 12.61
12/5/2020 9:30:00 PM 4.38 39.884 0.034 6.61 2.12 12.61
12/5/2020 9:45:00 PM 4.37 39.866 0.034 6.61 2.11 12.62
12/5/2020 10:00:00 PM 4.35 39.83 0.034 6.62 2.13 12.62
12/5/2020 10:15:00 PM 4.34 39.812 0.034 6.61 2.08 12.62
12/5/2020 10:30:00 PM 4.33 39.794 0.034 6.6 2.09 12.63
12/5/2020 10:45:00 PM 4.31 39.758 0.034 6.6 2.08 12.63
12/5/2020 11:00:00 PM 4.3 39.74 0.034 6.58 2.14 12.63
12/5/2020 11:15:00 PM 4.28 39.704 0.034 6.59 2.12 12.64
12/5/2020 11:30:00 PM 4.27 39.686 0.034 6.63 2.06 12.65
12/5/2020 11:45:00 PM 4.25 39.65 0.034 6.54 2.05 12.65
12/6/2020 12:00:00 AM 4.24 39.632 0.034 6.61 2.09 12.66
12/6/2020 12:15:00 AM 4.22 39.596 0.034 6.57 2.17 12.66
12/6/2020 12:30:00 AM 4.21 39.578 0.034 6.62 2.06 12.67
12/6/2020 12:45:00 AM 4.19 39.542 0.034 6.6 2.04 12.67
12/6/2020 1:00:00 AM 4.18 39.524 0.034 6.55 2.07 12.68
12/6/2020 1:15:00 AM 4.17 39.506 0.034 6.62 2.1 12.68
12/6/2020 1:30:00 AM 4.15 39.47 0.034 6.45 2.15 12.68
12/6/2020 1:45:00 AM 4.14 39.452 0.034 6.52 2.08 12.69
12/6/2020 2:00:00 AM 4.13 39.434 0.034 6.6 2.08 12.7
12/6/2020 2:15:00 AM 4.12 39.416 0.034 6.59 2.07 12.7
12/6/2020 2:30:00 AM 4.1 39.38 0.034 6.44 2.08 12.7
12/6/2020 2:45:00 AM 4.09 39.362 0.034 6.57 2.1 12.71
12/6/2020 3:00:00 AM 4.07 39.326 0.034 6.63 2.12 12.71
12/6/2020 3:15:00 AM 4.05 39.29 0.034 6.42 2.08 12.72
12/6/2020 3:30:00 AM 4.03 39.254 0.034 6.61 2.07 12.73
12/6/2020 3:45:00 AM 4.01 39.218 0.034 6.58 2.08 12.74
12/6/2020 4:00:00 AM 3.99 39.182 0.034 6.45 2.09 12.74
12/6/2020 4:15:00 AM 3.96 39.128 0.034 6.62 2.14 12.76
12/6/2020 4:30:00 AM 3.94 39.092 0.034 6.58 2.13 12.77
12/6/2020 4:45:00 AM 3.91 39.038 0.034 6.6 2.01 12.78
12/6/2020 5:00:00 AM 3.88 38.984 0.034 6.61 2.08 12.79
12/6/2020 5:15:00 AM 3.88 38.984 0.034 6.45 2.06 12.78
12/6/2020 5:30:00 AM 3.85 38.93 0.034 6.61 2.1 12.8
12/6/2020 5:45:00 AM 3.83 38.894 0.034 6.59 2.09 12.8
12/6/2020 6:00:00 AM 3.8 38.84 0.034 6.58 2.15 12.81
12/6/2020 6:15:00 AM 3.78 38.804 0.034 6.62 2.08 12.82
12/6/2020 6:30:00 AM 3.76 38.768 0.034 6.6 2.12 12.82
12/6/2020 6:45:00 AM 3.73 38.714 0.034 6.61 2.02 12.84
12/6/2020 7:00:00 AM 3.71 38.678 0.034 6.6 2.02 12.85
12/6/2020 7:15:00 AM 3.69 38.642 0.034 6.45 2.02 12.85
12/6/2020 7:30:00 AM 3.67 38.606 0.034 6.62 2.03 12.87
12/6/2020 7:45:00 AM 3.64 38.552 0.034 6.61 2.08 12.89
12/6/2020 8:00:00 AM 3.62 38.516 0.034 6.62 2.19 12.93
12/6/2020 8:15:00 AM 3.61 38.498 0.034 6.62 2.07 12.98
12/6/2020 8:30:00 AM 3.61 38.498 0.034 6.61 2.1 13.02
12/6/2020 8:45:00 AM 3.61 38.498 0.034 6.64 2.01 13.07
12/6/2020 9:00:00 AM 3.61 38.498 0.034 6.66 2.03 13.09
12/6/2020 9:15:00 AM 3.61 38.498 0.034 6.67 2.06 13.11
12/6/2020 9:30:00 AM 3.62 38.516 0.034 6.67 2.05 13.14
12/6/2020 9:45:00 AM 3.64 38.552 0.033 6.69 2.07 13.16
12/6/2020 10:00:00 AM 3.67 38.606 0.033 6.7 2.1 13.17
12/6/2020 10:15:00 AM 3.68 38.624 0.033 6.68 2.05 13.17
12/6/2020 10:30:00 AM 3.7 38.66 0.033 6.54 2.14 13.18
12/6/2020 10:45:00 AM 3.71 38.678 0.033 6.73 2.03 13.17
12/6/2020 11:00:00 AM 3.74 38.732 0.033 6.7 1.97 13.17
12/6/2020 11:15:00 AM 3.75 38.75 0.033 6.71 2.01 13.17
12/6/2020 11:30:00 AM 3.77 38.786 0.033 6.7 2.02 13.16
12/6/2020 11:45:00 AM 3.79 38.822 0.033 6.72 2.05 13.16
12/6/2020 12:00:00 PM 3.83 38.894 0.033 6.56 2.03 13.15
12/6/2020 12:15:00 PM 3.87 38.966 0.033 6.74 2.03 13.14
12/6/2020 12:30:00 PM 3.89 39.002 0.033 6.7 1.98 13.12
12/6/2020 12:45:00 PM 3.92 39.056 0.033 6.73 1.96 13.12
12/6/2020 1:00:00 PM 3.94 39.092 0.033 6.72 1.98 13.11
12/6/2020 1:15:00 PM 3.94 39.092 0.033 6.74 2.02 13.11
12/6/2020 1:30:00 PM 3.98 39.164 0.033 6.72 2.05 13.09
12/6/2020 1:45:00 PM 3.99 39.182 0.033 6.71 2.01 13.08
12/6/2020 2:00:00 PM 3.99 39.182 0.033 6.71 2 13.08
12/6/2020 2:15:00 PM 3.98 39.164 0.033 6.74 2.09 13.07
12/6/2020 2:30:00 PM 3.97 39.146 0.033 6.56 2.96 13.06
12/6/2020 2:45:00 PM 3.96 39.128 0.033 6.63 2.03 13.05
12/6/2020 3:00:00 PM 3.94 39.092 0.033 6.75 2.01 13.05
12/6/2020 3:15:00 PM 3.93 39.074 0.033 6.51 1.99 13.04
12/6/2020 3:30:00 PM 3.91 39.038 0.033 6.73 2.02 13.04
12/6/2020 3:45:00 PM 3.88 38.984 0.033 6.71 1.98 13.02
12/6/2020 4:00:00 PM 3.86 38.948 0.033 6.71 1.99 13.01
12/6/2020 4:15:00 PM 3.82 38.876 0.033 6.67 2.08 12.98
12/6/2020 4:30:00 PM 3.77 38.786 0.034 6.68 2 12.95
12/6/2020 4:45:00 PM 3.73 38.714 0.034 6.47 2.01 12.92
12/6/2020 5:00:00 PM 3.7 38.66 0.034 6.67 2.92 12.9
12/6/2020 5:15:00 PM 3.68 38.624 0.034 6.65 2.04 12.88
12/6/2020 5:30:00 PM 3.65 38.57 0.034 6.63 2.04 12.87
12/6/2020 5:45:00 PM 3.62 38.516 0.034 6.61 2.17 12.88
12/6/2020 6:00:00 PM 3.59 38.462 0.034 6.6 3.4 12.88
12/6/2020 6:15:00 PM 3.55 38.39 0.034 6.6 1.97 12.89
12/6/2020 6:30:00 PM 3.52 38.336 0.034 6.55 2.43 12.91
12/6/2020 6:45:00 PM 3.5 38.3 0.034 6.61 3.82 12.91
12/6/2020 7:00:00 PM 3.48 38.264 0.034 6.61 45.93 12.92
12/6/2020 7:15:00 PM 3.46 38.228 0.034 6.61 3.32 12.94
12/6/2020 7:30:00 PM 3.44 38.192 0.034 6.63 2.01 12.94
12/6/2020 7:45:00 PM 3.42 38.156 0.034 6.49 2.08 12.94
12/6/2020 8:00:00 PM 3.4 38.12 0.034 6.64 2.13 12.95
12/6/2020 8:15:00 PM 3.39 38.102 0.034 6.59 2.08 12.97
12/6/2020 8:30:00 PM 3.36 38.048 0.034 6.56 2.04 12.97
12/6/2020 8:45:00 PM 3.35 38.03 0.034 6.58 2.06 12.97
12/6/2020 9:00:00 PM 3.34 38.012 0.034 6.62 2.06 12.98
12/6/2020 9:15:00 PM 3.32 37.976 0.034 6.61 2.13 12.99
12/6/2020 9:30:00 PM 3.31 37.958 0.034 6.48 2 12.99
12/6/2020 9:45:00 PM 3.29 37.922 0.034 6.52 2.1 13
12/6/2020 10:00:00 PM 3.28 37.904 0.034 6.61 2 13
12/6/2020 10:15:00 PM 3.25 37.85 0.034 6.49 2.01 13
12/6/2020 10:30:00 PM 3.24 37.832 0.034 6.62 2.01 13
12/6/2020 10:45:00 PM 3.22 37.796 0.034 6.6 2.05 13.01
12/6/2020 11:00:00 PM 3.21 37.778 0.034 6.63 2.05 13.02
12/6/2020 11:15:00 PM 3.19 37.742 0.034 6.45 2 13.02
12/6/2020 11:30:00 PM 3.18 37.724 0.034 6.63 2 13.03
12/6/2020 11:45:00 PM 3.17 37.706 0.034 6.62 2.05 13.03
12/7/2020 12:00:00 AM 3.16 37.688 0.034 6.58 2.05 13.03
12/7/2020 12:15:00 AM 3.15 37.67 0.034 6.47 2.06 13.04
12/7/2020 12:30:00 AM 3.14 37.652 0.034 6.63 2.03 13.03
12/7/2020 12:45:00 AM 3.13 37.634 0.034 6.45 2.05 13.03
12/7/2020 1:00:00 AM 3.12 37.616 0.034 6.63 2.06 13.04
12/7/2020 1:15:00 AM 3.11 37.598 0.034 6.62 2.02 13.04
12/7/2020 1:30:00 AM 3.1 37.58 0.034 6.6 2.09 13.05
12/7/2020 1:45:00 AM 3.09 37.562 0.034 6.47 2.05 13.05
12/7/2020 2:00:00 AM 3.07 37.526 0.034 6.52 2.05 13.05
12/7/2020 2:15:00 AM 3.06 37.508 0.034 6.62 1.99 13.06
12/7/2020 2:30:00 AM 3.05 37.49 0.034 6.6 2.08 13.05
12/7/2020 2:45:00 AM 3.04 37.472 0.034 6.61 2.05 13.06
12/7/2020 3:00:00 AM 3.03 37.454 0.034 6.45 2.16 13.06
12/7/2020 3:15:00 AM 3.02 37.436 0.034 6.62 2.1 13.06
12/7/2020 3:30:00 AM 3.01 37.418 0.034 6.61 2.01 13.07
12/7/2020 3:45:00 AM 3 37.4 0.034 6.56 2.07 13.08
12/7/2020 4:00:00 AM 2.98 37.364 0.034 6.61 2.06 13.09
12/7/2020 4:15:00 AM 2.97 37.346 0.034 6.6 2.13 13.08
12/7/2020 4:30:00 AM 2.96 37.328 0.034 6.61 2.01 13.09
12/7/2020 4:45:00 AM 2.96 37.328 0.034 6.47 2.1 13.09
12/7/2020 5:00:00 AM 2.95 37.31 0.034 6.52 2.04 13.09
12/7/2020 5:15:00 AM 2.94 37.292 0.034 6.59 2 13.09
12/7/2020 5:30:00 AM 2.93 37.274 0.034 6.62 2.02 13.1
12/7/2020 5:45:00 AM 2.93 37.274 0.034 6.61 2.05 13.1
12/7/2020 6:00:00 AM 2.92 37.256 0.034 6.47 2.03 13.1
12/7/2020 6:15:00 AM 2.91 37.238 0.034 6.57 2.03 13.11
12/7/2020 6:30:00 AM 2.9 37.22 0.034 6.62 2.08 13.11
12/7/2020 6:45:00 AM 2.89 37.202 0.034 6.61 2.02 13.11
12/7/2020 7:00:00 AM 2.87 37.166 0.034 6.49 2.07 13.11
12/7/2020 7:15:00 AM 2.86 37.148 0.034 6.62 2.01 13.12
12/7/2020 7:30:00 AM 2.84 37.112 0.034 6.61 2.08 13.13
12/7/2020 7:45:00 AM 2.83 37.094 0.034 6.62 1.98 13.15
12/7/2020 8:00:00 AM 2.83 37.094 0.034 6.62 1.97 13.17
12/7/2020 8:15:00 AM 2.83 37.094 0.034 6.64 2 13.22
12/7/2020 8:30:00 AM 2.83 37.094 0.034 6.47 2.02 13.25
12/7/2020 8:45:00 AM 2.84 37.112 0.034 6.59 1.97 13.28
12/7/2020 9:00:00 AM 2.84 37.112 0.034 6.58 1.97 13.33
12/7/2020 9:15:00 AM 2.85 37.13 0.034 6.67 1.96 13.36
12/7/2020 9:30:00 AM 2.86 37.148 0.034 6.58 1.98 13.38
12/7/2020 9:45:00 AM 2.88 37.184 0.034 6.72 1.94 13.4
12/7/2020 10:00:00 AM 2.92 37.256 0.034 6.72 1.98 13.41
12/7/2020 10:15:00 AM 2.99 37.382 0.034 6.69 2.02 13.4
12/7/2020 10:30:00 AM 3.03 37.454 0.034 6.59 1.97 13.39
12/7/2020 10:45:00 AM 3.03 37.454 0.034 6.64 1.98 13.39
12/7/2020 11:00:00 AM 3.04 37.472 0.034 6.75 1.93 13.38
12/7/2020 11:15:00 AM 3.05 37.49 0.034 6.7 1.97 13.38
12/7/2020 11:30:00 AM 3.08 37.544 0.034 6.72 2.03 13.37
12/7/2020 11:45:00 AM 3.16 37.688 0.034 6.62 2 13.35
12/7/2020 12:00:00 PM 3.23 37.814 0.034 6.75 1.98 13.33
12/7/2020 12:15:00 PM 3.3 37.94 0.034 6.73 1.94 13.31
12/7/2020 12:30:00 PM 3.36 38.048 0.034 6.73 2.03 13.29
12/7/2020 12:45:00 PM 3.43 38.174 0.034 6.66 2.05 13.26
12/7/2020 1:00:00 PM 3.47 38.246 0.034 6.71 1.95 13.24
12/7/2020 1:15:00 PM 3.51 38.318 0.033 6.61 1.9 13.23
12/7/2020 1:30:00 PM 3.54 38.372 0.033 6.67 1.97 13.22
12/7/2020 1:45:00 PM 3.57 38.426 0.033 6.76 1.91 13.2
12/7/2020 2:00:00 PM 3.55 38.39 0.033 6.75 1.95 13.19
12/7/2020 2:15:00 PM 3.56 38.408 0.033 6.74 1.97 13.18
12/7/2020 2:30:00 PM 3.6 38.48 0.033 6.73 1.99 13.16
12/7/2020 2:45:00 PM 3.61 38.498 0.033 6.59 2 13.15
12/7/2020 3:00:00 PM 3.57 38.426 0.034 6.65 2.02 13.13
12/7/2020 3:15:00 PM 3.53 38.354 0.034 6.75 1.97 13.14
12/7/2020 3:30:00 PM 3.5 38.3 0.034 6.72 1.98 13.13
12/7/2020 3:45:00 PM 3.47 38.246 0.034 6.73 1.94 13.13
12/7/2020 4:00:00 PM 3.43 38.174 0.034 6.59 2.01 13.12
12/7/2020 4:15:00 PM 3.38 38.084 0.034 6.62 1.97 13.09
12/7/2020 4:30:00 PM 3.33 37.994 0.034 6.66 1.93 13.07
12/7/2020 4:45:00 PM 3.29 37.922 0.034 6.69 1.97 13.04
12/7/2020 5:00:00 PM 3.26 37.868 0.034 6.66 2.06 13.01
12/7/2020 5:15:00 PM 3.24 37.832 0.034 6.64 1.99 12.98
12/7/2020 5:30:00 PM 3.21 37.778 0.034 6.66 2.01 12.98
12/7/2020 5:45:00 PM 3.18 37.724 0.034 6.63 2.08 12.98
12/7/2020 6:00:00 PM 3.12 37.616 0.034 6.64 2.06 13
12/7/2020 6:15:00 PM 3.08 37.544 0.034 6.64 1.99 13.01
12/7/2020 6:30:00 PM 3.05 37.49 0.034 6.63 2.08 13.02
12/7/2020 6:45:00 PM 3.02 37.436 0.034 6.62 2.19 13.03
12/7/2020 7:00:00 PM 3 37.4 0.034 6.64 1.97 13.04
12/7/2020 7:15:00 PM 2.98 37.364 0.034 6.63 1.96 13.05
12/7/2020 7:30:00 PM 2.94 37.292 0.034 6.46 1.97 13.06
12/7/2020 7:45:00 PM 2.89 37.202 0.034 6.52 2.07 13.08
12/7/2020 8:00:00 PM 2.85 37.13 0.034 6.64 2.09 13.09
12/7/2020 8:15:00 PM 2.8 37.04 0.034 6.63 2.03 13.11
12/7/2020 8:30:00 PM 2.76 36.968 0.034 6.62 2.07 13.13
12/7/2020 8:45:00 PM 2.72 36.896 0.034 6.43 2.05 13.14
12/7/2020 9:00:00 PM 2.69 36.842 0.034 6.63 1.97 13.15
12/7/2020 9:15:00 PM 2.66 36.788 0.034 6.56 1.99 13.16
12/7/2020 9:30:00 PM 2.63 36.734 0.034 6.46 2.01 13.19
12/7/2020 9:45:00 PM 2.59 36.662 0.034 6.51 2.01 13.19
12/7/2020 10:00:00 PM 2.56 36.608 0.034 6.53 2.04 13.19
12/7/2020 10:15:00 PM 2.53 36.554 0.034 6.61 2.06 13.21
12/7/2020 10:30:00 PM 2.49 36.482 0.034 6.45 2.01 13.22
12/7/2020 10:45:00 PM 2.46 36.428 0.034 6.61 2 13.22
12/7/2020 11:00:00 PM 2.43 36.374 0.034 6.58 1.99 13.25
12/7/2020 11:15:00 PM 2.43 36.374 0.034 6.46 2.03 13.26
12/7/2020 11:30:00 PM 2.43 36.374 0.034 6.61 2.06 13.26
12/7/2020 11:45:00 PM 2.42 36.356 0.034 6.5 1.98 13.28
12/8/2020 12:00:00 AM 2.42 36.356 0.034 6.58 2.07 13.26
12/8/2020 12:15:00 AM 2.41 36.338 0.034 6.6 2 13.28
12/8/2020 12:30:00 AM 2.4 36.32 0.034 6.46 2.02 13.27
12/8/2020 12:45:00 AM 2.39 36.302 0.034 6.63 1.99 13.29
12/8/2020 1:00:00 AM 2.38 36.284 0.034 6.62 2 13.28
12/8/2020 1:15:00 AM 2.37 36.266 0.034 6.6 2.11 13.28
12/8/2020 1:30:00 AM 2.36 36.248 0.034 6.55 2.03 13.3
12/8/2020 1:45:00 AM 2.34 36.212 0.034 6.62 1.98 13.29
12/8/2020 2:00:00 AM 2.32 36.176 0.034 6.6 2.01 13.3
12/8/2020 2:15:00 AM 2.29 36.122 0.034 6.61 2.06 13.31
12/8/2020 2:30:00 AM 2.27 36.086 0.034 6.59 2.03 13.31
12/8/2020 2:45:00 AM 2.24 36.032 0.034 6.48 2.05 13.34
12/8/2020 3:00:00 AM 2.24 36.032 0.034 6.61 2.06 13.33
12/8/2020 3:15:00 AM 2.24 36.032 0.034 6.59 2.09 13.34
12/8/2020 3:30:00 AM 2.24 36.032 0.034 6.48 2.04 13.34
12/8/2020 3:45:00 AM 2.24 36.032 0.034 6.52 2.01 13.33
12/8/2020 4:00:00 AM 2.23 36.014 0.034 6.63 2.14 13.34
12/8/2020 4:15:00 AM 2.21 35.978 0.034 6.59 1.99 13.34
12/8/2020 4:30:00 AM 2.19 35.942 0.034 6.62 2.06 13.35
12/8/2020 4:45:00 AM 2.17 35.906 0.034 6.58 2.04 13.37
12/8/2020 5:00:00 AM 2.16 35.888 0.034 6.62 1.99 13.37
12/8/2020 5:15:00 AM 2.14 35.852 0.034 6.64 1.99 13.38
12/8/2020 5:30:00 AM 2.14 35.852 0.034 6.59 1.94 13.38
12/8/2020 5:45:00 AM 2.14 35.852 0.034 6.62 1.98 13.39
12/8/2020 6:00:00 AM 2.13 35.834 0.034 6.54 2 13.38
12/8/2020 6:15:00 AM 2.11 35.798 0.034 6.63 2.02 13.39
12/8/2020 6:30:00 AM 2.08 35.744 0.034 6.46 2.01 13.4
12/8/2020 6:45:00 AM 2.05 35.69 0.034 6.63 1.98 13.42
12/8/2020 7:00:00 AM 2.01 35.618 0.034 6.61 1.94 13.42
12/8/2020 7:15:00 AM 1.97 35.546 0.034 6.61 1.99 13.43
12/8/2020 7:30:00 AM 1.94 35.492 0.034 6.61 1.99 13.46
12/8/2020 7:45:00 AM 1.91 35.438 0.034 6.6 2.02 13.48
12/8/2020 8:00:00 AM 1.89 35.402 0.034 6.48 2 13.52
12/8/2020 8:15:00 AM 1.88 35.384 0.034 6.54 1.98 13.56
12/8/2020 8:30:00 AM 1.88 35.384 0.034 6.6 2 13.62
12/8/2020 8:45:00 AM 1.89 35.402 0.034 6.54 1.95 13.65
12/8/2020 9:00:00 AM 1.91 35.438 0.034 6.69 2.01 13.69
12/8/2020 9:15:00 AM 1.91 35.438 0.034 6.57 1.99 13.71
12/8/2020 9:30:00 AM 1.92 35.456 0.034 6.68 1.94 13.73
12/8/2020 9:45:00 AM 1.93 35.474 0.034 6.7 1.92 13.74
12/8/2020 10:00:00 AM 1.97 35.546 0.034 6.7 1.94 13.75
12/8/2020 10:15:00 AM 2.02 35.636 0.034 6.55 1.96 13.74
12/8/2020 10:30:00 AM 2.07 35.726 0.034 6.62 1.93 13.73
12/8/2020 10:45:00 AM 2.11 35.798 0.034 6.73 1.95 13.72
12/8/2020 11:00:00 AM 2.15 35.87 0.034 6.57 1.98 13.73
12/8/2020 11:15:00 AM 2.19 35.942 0.034 6.65 1.99 13.72
12/8/2020 11:30:00 AM 2.25 36.05 0.034 6.62 1.94 13.68
12/8/2020 11:45:00 AM 2.3 36.14 0.034 6.73 1.93 13.68
12/8/2020 12:00:00 PM 2.37 36.266 0.034 6.62 1.95 13.64
12/8/2020 12:15:00 PM 2.43 36.374 0.034 6.74 1.91 13.62
12/8/2020 12:30:00 PM 2.49 36.482 0.034 6.59 1.95 13.61
12/8/2020 12:45:00 PM 2.54 36.572 0.034 6.74 1.91 13.58
12/8/2020 1:00:00 PM 2.6 36.68 0.034 6.73 1.91 13.56
12/8/2020 1:15:00 PM 2.66 36.788 0.034 6.73 1.93 13.52
12/8/2020 1:30:00 PM 2.73 36.914 0.034 6.72 1.9 13.5
12/8/2020 1:45:00 PM 2.79 37.022 0.034 6.7 1.94 13.48
12/8/2020 2:00:00 PM 2.84 37.112 0.034 6.76 1.9 13.47
12/8/2020 2:15:00 PM 2.89 37.202 0.034 6.74 1.89 13.45
12/8/2020 2:30:00 PM 2.91 37.238 0.034 6.65 1.9 13.44
12/8/2020 2:45:00 PM 2.91 37.238 0.034 6.75 1.92 13.42
12/8/2020 3:00:00 PM 2.89 37.202 0.034 6.74 1.9 13.41
12/8/2020 3:15:00 PM 2.84 37.112 0.034 6.69 1.95 13.41
12/8/2020 3:30:00 PM 2.8 37.04 0.034 6.73 1.94 13.41
12/8/2020 3:45:00 PM 2.75 36.95 0.034 6.66 1.91 13.39
12/8/2020 4:00:00 PM 2.72 36.896 0.034 6.61 1.94 13.37
12/8/2020 4:15:00 PM 2.7 36.86 0.034 6.62 1.96 13.36
12/8/2020 4:30:00 PM 2.68 36.824 0.034 6.61 1.94 13.33
12/8/2020 4:45:00 PM 2.65 36.77 0.034 6.6 2.02 13.31
12/8/2020 5:00:00 PM 2.61 36.698 0.034 6.7 1.98 13.29
12/8/2020 5:15:00 PM 2.59 36.662 0.034 6.52 1.94 13.27
12/8/2020 5:30:00 PM 2.57 36.626 0.034 6.6 1.9 13.26
12/8/2020 5:45:00 PM 2.54 36.572 0.034 6.57 1.96 13.25
12/8/2020 6:00:00 PM 2.52 36.536 0.034 6.54 1.97 13.25
12/8/2020 6:15:00 PM 2.51 36.518 0.034 6.56 2.01 13.25
12/8/2020 6:30:00 PM 2.51 36.518 0.034 6.66 1.99 13.26
12/8/2020 6:45:00 PM 2.52 36.536 0.035 6.54 1.95 13.27
12/8/2020 7:00:00 PM 2.52 36.536 0.035 6.67 2.01 13.26
12/8/2020 7:15:00 PM 2.52 36.536 0.035 6.66 1.97 13.25
12/8/2020 7:30:00 PM 2.51 36.518 0.035 6.65 1.99 13.28
12/8/2020 7:45:00 PM 2.5 36.5 0.035 6.6 1.97 13.27
12/8/2020 8:00:00 PM 2.49 36.482 0.035 6.64 2 13.28
12/8/2020 8:15:00 PM 2.48 36.464 0.035 6.5 1.95 13.27
12/8/2020 8:30:00 PM 2.49 36.482 0.035 6.55 1.98 13.29
12/8/2020 8:45:00 PM 2.49 36.482 0.035 6.66 2 13.29
12/8/2020 9:00:00 PM 2.48 36.464 0.035 6.64 1.96 13.27
12/8/2020 9:15:00 PM 2.48 36.464 0.035 6.64 2 13.28
12/8/2020 9:30:00 PM 2.49 36.482 0.035 6.61 1.96 13.28
12/8/2020 9:45:00 PM 2.49 36.482 0.035 6.63 1.92 13.27
12/8/2020 10:00:00 PM 2.49 36.482 0.035 6.64 1.99 13.28
12/8/2020 10:15:00 PM 2.48 36.464 0.035 6.63 1.97 13.29
12/8/2020 10:30:00 PM 2.48 36.464 0.035 6.66 1.99 13.29
12/8/2020 10:45:00 PM 2.48 36.464 0.035 6.49 2.04 13.27
12/8/2020 11:00:00 PM 2.47 36.446 0.035 6.64 1.91 13.29
12/8/2020 11:15:00 PM 2.48 36.464 0.035 6.66 1.94 13.29
12/8/2020 11:30:00 PM 2.48 36.464 0.035 6.54 1.94 13.29
12/8/2020 11:45:00 PM 2.5 36.5 0.035 6.65 1.98 13.28
12/9/2020 12:00:00 AM 2.5 36.5 0.035 6.61 1.88 13.26
12/9/2020 12:15:00 AM 2.51 36.518 0.035 6.65 1.92 13.26
12/9/2020 12:30:00 AM 2.5 36.5 0.035 6.65 1.98 13.26
12/9/2020 12:45:00 AM 2.51 36.518 0.035 6.63 1.99 13.26
12/9/2020 1:00:00 AM 2.52 36.536 0.035 6.64 1.99 13.24
12/9/2020 1:15:00 AM 2.52 36.536 0.035 6.64 2.05 13.25
12/9/2020 1:30:00 AM 2.52 36.536 0.035 6.6 1.96 13.24
12/9/2020 1:45:00 AM 2.52 36.536 0.035 6.64 1.93 13.25
12/9/2020 2:00:00 AM 2.52 36.536 0.035 6.63 1.94 13.22
12/9/2020 2:15:00 AM 2.51 36.518 0.035 6.64 1.92 13.23
12/9/2020 2:30:00 AM 2.51 36.518 0.035 6.63 1.97 13.23
12/9/2020 2:45:00 AM 2.5 36.5 0.035 6.64 1.99 13.24
12/9/2020 3:00:00 AM 2.49 36.482 0.035 6.66 1.97 13.23
12/9/2020 3:15:00 AM 2.49 36.482 0.035 6.47 2.09 13.24
12/9/2020 3:30:00 AM 2.48 36.464 0.035 6.56 2.06 13.23
12/9/2020 3:45:00 AM 2.48 36.464 0.035 6.65 2.01 13.25
12/9/2020 4:00:00 AM 2.48 36.464 0.035 6.65 2.06 13.23
12/9/2020 4:15:00 AM 2.48 36.464 0.035 6.64 1.94 13.22
12/9/2020 4:30:00 AM 2.48 36.464 0.035 6.64 1.98 13.23
12/9/2020 4:45:00 AM 2.47 36.446 0.035 6.65 1.97 13.24
12/9/2020 5:00:00 AM 2.47 36.446 0.035 6.64 2.04 13.22
12/9/2020 5:15:00 AM 2.47 36.446 0.035 6.6 1.97 13.24
12/9/2020 5:30:00 AM 2.47 36.446 0.035 6.62 2.05 13.24
12/9/2020 5:45:00 AM 2.47 36.446 0.035 6.5 2 13.23
12/9/2020 6:00:00 AM 2.47 36.446 0.035 6.66 2.14 13.23
12/9/2020 6:15:00 AM 2.47 36.446 0.035 6.64 2 13.22
12/9/2020 6:30:00 AM 2.47 36.446 0.035 6.47 2.02 13.23
12/9/2020 6:45:00 AM 2.46 36.428 0.035 6.65 2.03 13.23
12/9/2020 7:00:00 AM 2.47 36.446 0.035 6.63 1.94 13.22
12/9/2020 7:15:00 AM 2.46 36.428 0.035 6.49 1.96 13.24
12/9/2020 7:30:00 AM 2.46 36.428 0.035 6.65 1.98 13.23
12/9/2020 7:45:00 AM 2.47 36.446 0.035 6.65 1.95 13.23
12/9/2020 8:00:00 AM 2.47 36.446 0.035 6.61 2.02 13.24
12/9/2020 8:15:00 AM 2.47 36.446 0.035 6.64 1.93 13.26
12/9/2020 8:30:00 AM 2.47 36.446 0.035 6.65 1.96 13.26
12/9/2020 8:45:00 AM 2.47 36.446 0.035 6.65 1.93 13.27
12/9/2020 9:00:00 AM 2.48 36.464 0.035 6.64 1.89 13.28
12/9/2020 9:15:00 AM 2.5 36.5 0.035 6.66 1.98 13.33
12/9/2020 9:30:00 AM 2.52 36.536 0.035 6.68 1.93 13.39
12/9/2020 9:45:00 AM 2.54 36.572 0.034 6.67 1.98 13.41
12/9/2020 10:00:00 AM 2.55 36.59 0.034 6.71 1.95 13.43
12/9/2020 10:15:00 AM 2.56 36.608 0.034 6.53 1.9 13.4
12/9/2020 10:30:00 AM 2.57 36.626 0.034 6.68 1.95 13.39
12/9/2020 10:45:00 AM 2.58 36.644 0.034 6.71 1.85 13.39
12/9/2020 11:00:00 AM 2.6 36.68 0.035 6.68 1.91 13.39
12/9/2020 11:15:00 AM 2.61 36.698 0.034 6.56 1.95 13.38
12/9/2020 11:30:00 AM 2.63 36.734 0.034 6.61 2.02 13.39
12/9/2020 11:45:00 AM 2.63 36.734 0.034 6.69 1.92 13.39
12/9/2020 12:00:00 PM 2.65 36.77 0.034 6.71 1.95 13.38
12/9/2020 12:15:00 PM 2.67 36.806 0.034 6.59 1.9 13.37
12/9/2020 12:30:00 PM 2.69 36.842 0.034 6.72 1.92 13.38
12/9/2020 12:45:00 PM 2.71 36.878 0.034 6.66 1.92 13.37
12/9/2020 1:00:00 PM 2.73 36.914 0.034 6.73 1.92 13.37
12/9/2020 1:15:00 PM 2.74 36.932 0.034 6.71 1.88 13.35
12/9/2020 1:30:00 PM 2.76 36.968 0.034 6.72 1.95 13.33
12/9/2020 1:45:00 PM 2.77 36.986 0.034 6.72 1.96 13.32
12/9/2020 2:00:00 PM 2.79 37.022 0.034 6.7 1.92 13.31
12/9/2020 2:15:00 PM 2.8 37.04 0.034 6.57 1.93 13.3
12/9/2020 2:30:00 PM 2.81 37.058 0.034 6.72 1.92 13.28
12/9/2020 2:45:00 PM 2.83 37.094 0.034 6.7 1.92 13.25
12/9/2020 3:00:00 PM 2.84 37.112 0.034 6.69 1.92 13.24
12/9/2020 3:15:00 PM 2.85 37.13 0.034 6.66 1.93 13.23
12/9/2020 3:30:00 PM 2.87 37.166 0.034 6.7 1.93 13.22
12/9/2020 3:45:00 PM 2.88 37.184 0.034 6.69 1.9 13.2
12/9/2020 4:00:00 PM 2.89 37.202 0.034 6.67 1.93 13.17
12/9/2020 4:15:00 PM 2.89 37.202 0.035 6.69 1.99 13.15
12/9/2020 4:30:00 PM 2.9 37.22 0.035 6.54 1.97 13.13
12/9/2020 4:45:00 PM 2.92 37.256 0.035 6.67 2.13 13.1
12/9/2020 5:00:00 PM 2.92 37.256 0.035 6.63 1.97 13.09
12/9/2020 5:15:00 PM 2.93 37.274 0.035 6.67 1.92 13.07
12/9/2020 5:30:00 PM 2.94 37.292 0.035 6.55 1.99 13.08
12/9/2020 5:45:00 PM 2.95 37.31 0.035 6.68 1.92 13.07
12/9/2020 6:00:00 PM 2.95 37.31 0.035 6.65 1.99 13.06
12/9/2020 6:15:00 PM 2.96 37.328 0.035 6.65 1.99 13.06
12/9/2020 6:30:00 PM 2.97 37.346 0.035 6.64 1.95 13.06
12/9/2020 6:45:00 PM 2.98 37.364 0.035 6.63 2.01 13.06
12/9/2020 7:00:00 PM 2.99 37.382 0.035 6.56 1.93 13.06
12/9/2020 7:15:00 PM 3 37.4 0.035 6.65 2.03 13.06
12/9/2020 7:30:00 PM 3 37.4 0.035 6.65 2.04 13.06
12/9/2020 7:45:00 PM 3.01 37.418 0.035 6.64 1.9 13.05
12/9/2020 8:00:00 PM 3.02 37.436 0.035 6.65 1.95 13.05
12/9/2020 8:15:00 PM 3.03 37.454 0.035 6.47 1.97 13.05
12/9/2020 8:30:00 PM 3.04 37.472 0.035 6.66 1.98 13.04
12/9/2020 8:45:00 PM 3.05 37.49 0.035 6.63 2.1 13.05
12/9/2020 9:00:00 PM 3.06 37.508 0.035 6.63 2.02 13.04
12/9/2020 9:15:00 PM 3.07 37.526 0.035 6.61 2.04 13.04
12/9/2020 9:30:00 PM 3.08 37.544 0.035 6.54 1.96 13.04
12/9/2020 9:45:00 PM 3.09 37.562 0.035 6.65 2.06 13.03
12/9/2020 10:00:00 PM 3.1 37.58 0.035 6.64 1.94 13.04
12/9/2020 10:15:00 PM 3.11 37.598 0.035 6.63 1.96 13.03
12/9/2020 10:30:00 PM 3.12 37.616 0.035 6.65 1.96 13.04
12/9/2020 10:45:00 PM 3.12 37.616 0.035 6.61 1.95 13.03
12/9/2020 11:00:00 PM 3.13 37.634 0.035 6.53 1.91 13.03
12/9/2020 11:15:00 PM 3.14 37.652 0.035 6.63 1.97 13.03
12/9/2020 11:30:00 PM 3.15 37.67 0.035 6.64 1.94 13.03
12/9/2020 11:45:00 PM 3.16 37.688 0.035 6.63 1.92 13.02
12/10/2020 12:00:00 AM 3.16 37.688 0.035 6.62 1.95 13.02
12/10/2020 12:15:00 AM 3.16 37.688 0.035 6.64 1.95 13.02
12/10/2020 12:30:00 AM 3.17 37.706 0.035 6.61 1.95 13.02
12/10/2020 12:45:00 AM 3.17 37.706 0.035 6.6 1.96 13.02
12/10/2020 1:00:00 AM 3.17 37.706 0.035 6.63 1.97 13.02
12/10/2020 1:15:00 AM 3.18 37.724 0.035 6.61 1.94 13.02
12/10/2020 1:30:00 AM 3.18 37.724 0.035 6.64 1.97 13.02
12/10/2020 1:45:00 AM 3.19 37.742 0.035 6.61 1.93 13.02
12/10/2020 2:00:00 AM 3.19 37.742 0.035 6.48 1.97 13.02
12/10/2020 2:15:00 AM 3.19 37.742 0.035 6.64 1.96 13.02
12/10/2020 2:30:00 AM 3.2 37.76 0.035 6.62 1.93 13.02
12/10/2020 2:45:00 AM 3.2 37.76 0.035 6.59 1.97 13.03
12/10/2020 3:00:00 AM 3.2 37.76 0.035 6.64 2 13.02
12/10/2020 3:15:00 AM 3.21 37.778 0.035 6.61 1.95 13.03
12/10/2020 3:30:00 AM 3.21 37.778 0.035 6.49 1.95 13.03
12/10/2020 3:45:00 AM 3.21 37.778 0.035 6.65 1.93 13.03
12/10/2020 4:00:00 AM 3.21 37.778 0.035 6.64 1.97 13.04
12/10/2020 4:15:00 AM 3.21 37.778 0.035 6.62 1.92 13.03
12/10/2020 4:30:00 AM 3.22 37.796 0.035 6.62 1.92 13.04
12/10/2020 4:45:00 AM 3.22 37.796 0.035 6.48 1.92 13.03
12/10/2020 5:00:00 AM 3.22 37.796 0.035 6.54 1.92 13.04
12/10/2020 5:15:00 AM 3.22 37.796 0.035 6.64 1.97 13.04
12/10/2020 5:30:00 AM 3.23 37.814 0.035 6.57 1.98 13.04
12/10/2020 5:45:00 AM 3.23 37.814 0.035 6.65 1.99 13.04
12/10/2020 6:00:00 AM 3.24 37.832 0.035 6.56 1.91 13.04
12/10/2020 6:15:00 AM 3.24 37.832 0.035 6.63 1.92 13.04
12/10/2020 6:30:00 AM 3.25 37.85 0.035 6.61 1.89 13.04
12/10/2020 6:45:00 AM 3.26 37.868 0.035 6.64 1.93 13.04
12/10/2020 7:00:00 AM 3.26 37.868 0.035 6.61 1.94 13.04
12/10/2020 7:15:00 AM 3.27 37.886 0.035 6.64 1.97 13.04
12/10/2020 7:30:00 AM 3.27 37.886 0.035 6.47 1.95 13.04
12/10/2020 7:45:00 AM 3.28 37.904 0.035 6.54 1.9 13.05
12/10/2020 8:00:00 AM 3.28 37.904 0.035 6.53 1.97 13.07
12/10/2020 8:15:00 AM 3.3 37.94 0.035 6.55 1.94 13.1
12/10/2020 8:30:00 AM 3.31 37.958 0.035 6.66 1.89 13.12
12/10/2020 8:45:00 AM 3.32 37.976 0.035 6.57 1.91 13.15
12/10/2020 9:00:00 AM 3.35 38.03 0.035 6.67 1.91 13.19
12/10/2020 9:15:00 AM 3.37 38.066 0.035 6.67 1.93 13.23
12/10/2020 9:30:00 AM 3.4 38.12 0.035 6.63 1.91 13.25
12/10/2020 9:45:00 AM 3.44 38.192 0.035 6.71 1.98 13.27
12/10/2020 10:00:00 AM 3.48 38.264 0.035 6.72 1.88 13.3
12/10/2020 10:15:00 AM 3.51 38.318 0.035 6.71 1.93 13.3
12/10/2020 10:30:00 AM 3.54 38.372 0.034 6.58 1.9 13.3
12/10/2020 10:45:00 AM 3.57 38.426 0.035 6.72 1.91 13.3
12/10/2020 11:00:00 AM 3.6 38.48 0.034 6.76 1.91 13.3
12/10/2020 11:15:00 AM 3.63 38.534 0.034 6.57 1.92 13.3
12/10/2020 11:30:00 AM 3.68 38.624 0.034 6.66 1.94 13.3
12/10/2020 11:45:00 AM 3.73 38.714 0.034 6.77 1.94 13.29
12/10/2020 12:00:00 PM 3.78 38.804 0.034 6.74 1.9 13.27
12/10/2020 12:15:00 PM 3.83 38.894 0.034 6.77 1.94 13.27
12/10/2020 12:30:00 PM 3.87 38.966 0.034 6.76 1.89 13.25
12/10/2020 12:45:00 PM 3.91 39.038 0.034 6.75 1.98 13.23
12/10/2020 1:00:00 PM 3.95 39.11 0.034 6.64 1.93 13.23
12/10/2020 1:15:00 PM 4.01 39.218 0.034 6.79 2.09 13.22
12/10/2020 1:30:00 PM 4.07 39.326 0.034 6.78 1.95 13.21
12/10/2020 1:45:00 PM 4.12 39.416 0.034 6.78 1.99 13.19
12/10/2020 2:00:00 PM 4.17 39.506 0.034 6.77 1.86 13.18
12/10/2020 2:15:00 PM 4.25 39.65 0.034 6.79 1.92 13.15
12/10/2020 2:30:00 PM 4.28 39.704 0.034 6.79 1.93 13.14
12/10/2020 2:45:00 PM 4.29 39.722 0.034 6.79 1.93 13.11
12/10/2020 3:00:00 PM 4.27 39.686 0.034 6.78 1.93 13.1
12/10/2020 3:15:00 PM 4.22 39.596 0.034 6.78 1.9 13.09
12/10/2020 3:30:00 PM 4.17 39.506 0.034 6.61 1.91 13.08
12/10/2020 3:45:00 PM 4.13 39.434 0.034 6.78 1.88 13.07
12/10/2020 4:00:00 PM 4.07 39.326 0.034 6.75 1.89 13.05
12/10/2020 4:15:00 PM 4.02 39.236 0.034 6.75 1.91 13.03
12/10/2020 4:30:00 PM 3.96 39.128 0.034 6.72 1.86 13
12/10/2020 4:45:00 PM 3.9 39.02 0.035 6.71 1.97 12.97
12/10/2020 5:00:00 PM 3.84 38.912 0.035 6.72 1.87 12.94
12/10/2020 5:15:00 PM 3.79 38.822 0.035 6.51 1.9 12.9
12/10/2020 5:30:00 PM 3.74 38.732 0.035 6.68 1.95 12.9
12/10/2020 5:45:00 PM 3.7 38.66 0.035 6.55 1.92 12.9
12/10/2020 6:00:00 PM 3.66 38.588 0.035 6.68 1.93 12.92
12/10/2020 6:15:00 PM 3.63 38.534 0.035 6.63 1.96 12.92
12/10/2020 6:30:00 PM 3.59 38.462 0.035 6.64 1.97 12.93
12/10/2020 6:45:00 PM 3.54 38.372 0.035 6.58 1.96 12.95
12/10/2020 7:00:00 PM 3.49 38.282 0.035 6.67 2.02 12.96
12/10/2020 7:15:00 PM 3.44 38.192 0.035 6.64 1.93 12.98
12/10/2020 7:30:00 PM 3.39 38.102 0.035 6.63 1.91 13
12/10/2020 7:45:00 PM 3.33 37.994 0.035 6.62 1.97 13.02
12/10/2020 8:00:00 PM 3.29 37.922 0.035 6.63 1.91 13.04
12/10/2020 8:15:00 PM 3.24 37.832 0.035 6.63 1.94 13.05
12/10/2020 8:30:00 PM 3.19 37.742 0.035 6.62 1.95 13.07
12/10/2020 8:45:00 PM 3.15 37.67 0.035 6.57 1.91 13.08
12/10/2020 9:00:00 PM 3.1 37.58 0.035 6.5 2.07 13.09
12/10/2020 9:15:00 PM 3.06 37.508 0.035 6.63 1.91 13.12
12/10/2020 9:30:00 PM 3.03 37.454 0.035 6.61 1.93 13.12
12/10/2020 9:45:00 PM 2.98 37.364 0.035 6.6 1.97 13.15
12/10/2020 10:00:00 PM 2.94 37.292 0.035 6.59 2 13.16
12/10/2020 10:15:00 PM 2.9 37.22 0.035 6.55 2.02 13.17
12/10/2020 10:30:00 PM 2.87 37.166 0.035 6.62 2.36 13.18
12/10/2020 10:45:00 PM 2.83 37.094 0.035 6.57 1.89 13.2
12/10/2020 11:00:00 PM 2.79 37.022 0.035 6.62 2.07 13.21
12/10/2020 11:15:00 PM 2.75 36.95 0.035 6.59 1.94 13.23
12/10/2020 11:30:00 PM 2.71 36.878 0.035 6.6 1.93 13.24
12/10/2020 11:45:00 PM 2.68 36.824 0.035 6.62 2 13.26
12/11/2020 12:00:00 AM 2.64 36.752 0.035 6.53 1.95 13.26
12/11/2020 12:15:00 AM 2.61 36.698 0.035 6.61 1.91 13.27
12/11/2020 12:30:00 AM 2.57 36.626 0.035 6.62 1.91 13.3
12/11/2020 12:45:00 AM 2.54 36.572 0.035 6.46 1.96 13.31
12/11/2020 1:00:00 AM 2.51 36.518 0.035 6.52 1.98 13.31
12/11/2020 1:15:00 AM 2.48 36.464 0.035 6.52 1.91 13.33
12/11/2020 1:30:00 AM 2.46 36.428 0.035 6.63 1.96 13.34
12/11/2020 1:45:00 AM 2.43 36.374 0.035 6.51 1.95 13.33
12/11/2020 2:00:00 AM 2.4 36.32 0.035 6.62 1.96 13.36
12/11/2020 2:15:00 AM 2.38 36.284 0.035 6.63 1.94 13.37
12/11/2020 2:30:00 AM 2.36 36.248 0.035 6.44 1.94 13.38
12/11/2020 2:45:00 AM 2.34 36.212 0.035 6.64 1.95 13.38
12/11/2020 3:00:00 AM 2.33 36.194 0.035 6.6 2.01 13.38
12/11/2020 3:15:00 AM 2.32 36.176 0.035 6.47 1.98 13.38
12/11/2020 3:30:00 AM 2.3 36.14 0.035 6.63 1.97 13.4
12/11/2020 3:45:00 AM 2.29 36.122 0.035 6.58 1.95 13.41
12/11/2020 4:00:00 AM 2.26 36.068 0.035 6.64 2 13.41
12/11/2020 4:15:00 AM 2.24 36.032 0.035 6.63 1.99 13.42
12/11/2020 4:30:00 AM 2.2 35.96 0.035 6.6 1.93 13.44
12/11/2020 4:45:00 AM 2.18 35.924 0.035 6.63 1.94 13.45
12/11/2020 5:00:00 AM 2.15 35.87 0.035 6.61 1.99 13.46
12/11/2020 5:15:00 AM 2.11 35.798 0.035 6.55 1.98 13.47
12/11/2020 5:30:00 AM 2.09 35.762 0.035 6.61 1.92 13.49
12/11/2020 5:45:00 AM 2.07 35.726 0.035 6.61 1.92 13.49
12/11/2020 6:00:00 AM 2.04 35.672 0.035 6.47 1.9 13.51
12/11/2020 6:15:00 AM 2.01 35.618 0.035 6.54 1.97 13.52
12/11/2020 6:30:00 AM 1.99 35.582 0.035 6.62 1.94 13.52
12/11/2020 6:45:00 AM 1.97 35.546 0.035 6.54 1.87 13.54
12/11/2020 7:00:00 AM 1.95 35.51 0.035 6.64 1.99 13.54
12/11/2020 7:15:00 AM 1.94 35.492 0.035 6.6 2.01 13.55
12/11/2020 7:30:00 AM 1.91 35.438 0.035 6.63 2 13.56
12/11/2020 7:45:00 AM 1.89 35.402 0.035 6.63 1.99 13.59
12/11/2020 8:00:00 AM 1.89 35.402 0.035 6.63 1.96 13.64
12/11/2020 8:15:00 AM 1.89 35.402 0.035 6.65 1.94 13.7
12/11/2020 8:30:00 AM 1.88 35.384 0.035 6.6 1.99 13.76
12/11/2020 8:45:00 AM 1.87 35.366 0.035 6.66 2.07 13.81
12/11/2020 9:00:00 AM 1.87 35.366 0.035 6.7 1.93 13.83
12/11/2020 9:15:00 AM 1.89 35.402 0.035 6.67 1.91 13.86
12/11/2020 9:30:00 AM 1.93 35.474 0.035 6.69 1.94 13.88
12/11/2020 9:45:00 AM 1.98 35.564 0.035 6.71 1.91 13.89
12/11/2020 10:00:00 AM 2.03 35.654 0.035 6.64 1.87 13.88
12/11/2020 10:15:00 AM 2.08 35.744 0.035 6.71 1.91 13.89
12/11/2020 10:30:00 AM 2.11 35.798 0.035 6.73 1.87 13.87
12/11/2020 10:45:00 AM 2.14 35.852 0.035 6.59 1.94 13.85
12/11/2020 11:00:00 AM 2.19 35.942 0.035 6.75 2 13.83
12/11/2020 11:15:00 AM 2.26 36.068 0.035 6.73 1.89 13.82
12/11/2020 11:30:00 AM 2.34 36.212 0.035 6.64 1.89 13.78
12/11/2020 11:45:00 AM 2.44 36.392 0.035 6.74 1.96 13.75
12/11/2020 12:00:00 PM 2.53 36.554 0.035 6.76 1.88 13.72
12/11/2020 12:15:00 PM 2.61 36.698 0.035 6.72 1.91 13.7
12/11/2020 12:30:00 PM 2.69 36.842 0.035 6.74 1.9 13.68
12/11/2020 12:45:00 PM 2.78 37.004 0.035 6.61 1.89 13.65
12/11/2020 1:00:00 PM 2.86 37.148 0.035 6.76 1.87 13.62
12/11/2020 1:15:00 PM 2.93 37.274 0.035 6.63 1.89 13.58
12/11/2020 1:30:00 PM 3 37.4 0.035 6.79 1.93 13.55
12/11/2020 1:45:00 PM 3.07 37.526 0.035 6.73 1.89 13.51
12/11/2020 2:00:00 PM 3.13 37.634 0.035 6.77 1.93 13.49
12/11/2020 2:15:00 PM 3.18 37.724 0.035 6.75 1.93 13.46
12/11/2020 2:30:00 PM 3.23 37.814 0.035 6.78 1.88 13.44
12/11/2020 2:45:00 PM 3.3 37.94 0.035 6.76 1.89 13.42
12/11/2020 3:00:00 PM 3.36 38.048 0.035 6.78 1.91 13.4
12/11/2020 3:15:00 PM 3.37 38.066 0.035 6.6 1.88 13.37
12/11/2020 3:30:00 PM 3.34 38.012 0.035 6.74 1.9 13.33
12/11/2020 3:45:00 PM 3.33 37.994 0.035 6.78 1.88 13.31
12/11/2020 4:00:00 PM 3.32 37.976 0.035 6.68 1.85 13.3
12/11/2020 4:15:00 PM 3.31 37.958 0.035 6.76 1.89 13.28
12/11/2020 4:30:00 PM 3.3 37.94 0.035 6.68 1.92 13.22
12/11/2020 4:45:00 PM 3.27 37.886 0.035 6.74 1.88 13.18
12/11/2020 5:00:00 PM 3.24 37.832 0.035 6.64 1.88 13.13
12/11/2020 5:15:00 PM 3.21 37.778 0.035 6.61 1.96 13.1
12/11/2020 5:30:00 PM 3.18 37.724 0.035 6.68 2.5 13.07
12/11/2020 5:45:00 PM 3.16 37.688 0.035 6.66 1.91 13.06
12/11/2020 6:00:00 PM 3.14 37.652 0.035 6.63 1.9 13.06
12/11/2020 6:15:00 PM 3.13 37.634 0.035 6.65 1.97 13.05
12/11/2020 6:30:00 PM 3.12 37.616 0.035 6.55 1.9 13.06
12/11/2020 6:45:00 PM 3.12 37.616 0.035 6.6 1.89 13.06
12/11/2020 7:00:00 PM 3.11 37.598 0.035 6.66 1.98 13.06
12/11/2020 7:15:00 PM 3.11 37.598 0.035 6.65 2.07 13.07
12/11/2020 7:30:00 PM 3.1 37.58 0.035 6.64 1.89 13.07
12/11/2020 7:45:00 PM 3.08 37.544 0.035 6.63 2.02 13.08
12/11/2020 8:00:00 PM 3.05 37.49 0.035 6.66 1.92 13.1
12/11/2020 8:15:00 PM 3.01 37.418 0.035 6.62 1.92 13.11
12/11/2020 8:30:00 PM 2.97 37.346 0.035 6.61 1.9 13.12
12/11/2020 8:45:00 PM 2.93 37.274 0.035 6.62 1.92 13.13
12/11/2020 9:00:00 PM 2.9 37.22 0.035 6.55 2.09 13.14
12/11/2020 9:15:00 PM 2.87 37.166 0.035 6.56 1.91 13.15
12/11/2020 9:30:00 PM 2.84 37.112 0.035 6.64 1.94 13.16
12/11/2020 9:45:00 PM 2.82 37.076 0.035 6.63 1.94 13.18
12/11/2020 10:00:00 PM 2.79 37.022 0.036 6.65 2.09 13.18
12/11/2020 10:15:00 PM 2.76 36.968 0.035 6.47 2.31 13.2
12/11/2020 10:30:00 PM 2.74 36.932 0.035 6.63 1.97 13.2
12/11/2020 10:45:00 PM 2.73 36.914 0.036 6.61 1.91 13.22
12/11/2020 11:00:00 PM 2.71 36.878 0.036 6.61 1.91 13.22
12/11/2020 11:15:00 PM 2.69 36.842 0.035 6.63 1.91 13.22
12/11/2020 11:30:00 PM 2.68 36.824 0.036 6.62 1.93 13.23
12/11/2020 11:45:00 PM 2.67 36.806 0.036 6.62 1.93 13.23
12/12/2020 12:00:00 AM 2.66 36.788 0.036 6.61 1.93 13.24
12/12/2020 12:15:00 AM 2.65 36.77 0.036 6.47 1.89 13.26
12/12/2020 12:30:00 AM 2.63 36.734 0.036 6.63 1.94 13.25
12/12/2020 12:45:00 AM 2.61 36.698 0.036 6.63 1.96 13.26
12/12/2020 1:00:00 AM 2.6 36.68 0.036 6.56 1.91 13.27
12/12/2020 1:15:00 AM 2.59 36.662 0.036 6.62 1.9 13.28
12/12/2020 1:30:00 AM 2.59 36.662 0.036 6.64 1.88 13.27
12/12/2020 1:45:00 AM 2.58 36.644 0.036 6.45 1.89 13.27
12/12/2020 2:00:00 AM 2.58 36.644 0.036 6.64 1.91 13.27
12/12/2020 2:15:00 AM 2.57 36.626 0.036 6.63 1.93 13.29
12/12/2020 2:30:00 AM 2.56 36.608 0.036 6.53 1.94 13.3
12/12/2020 2:45:00 AM 2.55 36.59 0.036 6.62 1.9 13.28
12/12/2020 3:00:00 AM 2.55 36.59 0.036 6.65 1.93 13.3
12/12/2020 3:15:00 AM 2.55 36.59 0.036 6.45 1.92 13.3
12/12/2020 3:30:00 AM 2.55 36.59 0.036 6.65 1.95 13.3
12/12/2020 3:45:00 AM 2.54 36.572 0.036 6.63 1.92 13.3
12/12/2020 4:00:00 AM 2.54 36.572 0.036 6.63 1.9 13.3
12/12/2020 4:15:00 AM 2.53 36.554 0.036 6.63 1.92 13.3
12/12/2020 4:30:00 AM 2.53 36.554 0.036 6.65 1.93 13.28
12/12/2020 4:45:00 AM 2.53 36.554 0.036 6.59 1.92 13.3
12/12/2020 5:00:00 AM 2.53 36.554 0.036 6.64 1.93 13.3
12/12/2020 5:15:00 AM 2.53 36.554 0.036 6.63 1.96 13.3
12/12/2020 5:30:00 AM 2.52 36.536 0.036 6.63 2.04 13.3
12/12/2020 5:45:00 AM 2.51 36.518 0.036 6.65 1.95 13.29
12/12/2020 6:00:00 AM 2.5 36.5 0.036 6.62 1.93 13.3
12/12/2020 6:15:00 AM 2.5 36.5 0.036 6.64 1.92 13.31
12/12/2020 6:30:00 AM 2.5 36.5 0.036 6.62 1.96 13.29
12/12/2020 6:45:00 AM 2.49 36.482 0.036 6.62 1.9 13.31
12/12/2020 7:00:00 AM 2.49 36.482 0.036 6.62 1.95 13.3
12/12/2020 7:15:00 AM 2.49 36.482 0.036 6.65 2 13.31
12/12/2020 7:30:00 AM 2.5 36.5 0.036 6.63 1.9 13.3
12/12/2020 7:45:00 AM 2.5 36.5 0.036 6.62 1.89 13.32
12/12/2020 8:00:00 AM 2.5 36.5 0.036 6.63 1.89 13.32
12/12/2020 8:15:00 AM 2.51 36.518 0.036 6.65 1.92 13.35
12/12/2020 8:30:00 AM 2.52 36.536 0.036 6.64 1.91 13.41
12/12/2020 8:45:00 AM 2.54 36.572 0.036 6.67 1.89 13.44
12/12/2020 9:00:00 AM 2.58 36.644 0.035 6.7 1.93 13.5
12/12/2020 9:15:00 AM 2.62 36.716 0.035 6.7 1.9 13.54
12/12/2020 9:30:00 AM 2.66 36.788 0.035 6.69 1.89 13.56
12/12/2020 9:45:00 AM 2.69 36.842 0.035 6.56 1.97 13.56
12/12/2020 10:00:00 AM 2.73 36.914 0.035 6.74 1.86 13.57
12/12/2020 10:15:00 AM 2.8 37.04 0.035 6.73 1.9 13.57
12/12/2020 10:30:00 AM 2.87 37.166 0.035 6.74 1.91 13.54
12/12/2020 10:45:00 AM 2.94 37.292 0.035 6.75 1.88 13.53
12/12/2020 11:00:00 AM 3.02 37.436 0.035 6.74 1.92 13.51
12/12/2020 11:15:00 AM 3.1 37.58 0.035 6.61 1.84 13.5
12/12/2020 11:30:00 AM 3.18 37.724 0.035 6.78 1.88 13.46
12/12/2020 11:45:00 AM 3.27 37.886 0.035 6.76 1.87 13.43
12/12/2020 12:00:00 PM 3.37 38.066 0.035 6.79 1.89 13.41
12/12/2020 12:15:00 PM 3.48 38.264 0.035 6.78 1.84 13.38
12/12/2020 12:30:00 PM 3.61 38.498 0.035 6.78 2.03 13.33
12/12/2020 12:45:00 PM 3.7 38.66 0.035 6.79 1.88 13.27
12/12/2020 1:00:00 PM 3.78 38.804 0.035 6.78 1.96 13.21
12/12/2020 1:15:00 PM 3.87 38.966 0.035 6.62 1.91 13.17
12/12/2020 1:30:00 PM 3.95 39.11 0.035 6.8 1.85 13.13
12/12/2020 1:45:00 PM 4.06 39.308 0.035 6.79 1.9 13.11
12/12/2020 2:00:00 PM 4.12 39.416 0.035 6.65 2 13.07
12/12/2020 2:15:00 PM 4.14 39.452 0.035 6.81 1.95 13.03
12/12/2020 2:30:00 PM 4.13 39.434 0.035 6.78 1.97 12.98
12/12/2020 2:45:00 PM 4.13 39.434 0.035 6.76 1.87 12.97
12/12/2020 3:00:00 PM 4.13 39.434 0.035 6.62 1.86 12.98
12/12/2020 3:15:00 PM 4.18 39.524 0.035 6.79 1.9 12.98
12/12/2020 3:30:00 PM 4.22 39.596 0.035 6.64 1.88 12.95
12/12/2020 3:45:00 PM 4.24 39.632 0.035 6.68 1.88 12.87
12/12/2020 4:00:00 PM 4.26 39.668 0.035 6.75 1.83 12.82
12/12/2020 4:15:00 PM 4.28 39.704 0.035 6.73 2.15 12.77
12/12/2020 4:30:00 PM 4.3 39.74 0.035 6.67 1.89 12.7
12/12/2020 4:45:00 PM 4.31 39.758 0.035 6.71 1.86 12.65
12/12/2020 5:00:00 PM 4.33 39.794 0.035 6.71 1.97 12.62
12/12/2020 5:15:00 PM 4.34 39.812 0.035 6.58 1.9 12.59
12/12/2020 5:30:00 PM 4.36 39.848 0.035 6.7 2.01 12.57
12/12/2020 5:45:00 PM 4.38 39.884 0.035 6.69 1.96 12.56
12/12/2020 6:00:00 PM 4.41 39.938 0.035 6.68 1.98 12.54
12/12/2020 6:15:00 PM 4.42 39.956 0.035 6.67 2.04 12.52
12/12/2020 6:30:00 PM 4.44 39.992 0.035 6.61 2.11 12.52
12/12/2020 6:45:00 PM 4.45 40.01 0.035 6.68 2.11 12.52
12/12/2020 7:00:00 PM 4.46 40.028 0.035 6.63 2.12 12.51
12/12/2020 7:15:00 PM 4.47 40.046 0.035 6.67 2.07 12.51
12/12/2020 7:30:00 PM 4.47 40.046 0.036 6.58 2.1 12.5
12/12/2020 7:45:00 PM 4.48 40.064 0.036 6.58 2.06 12.5
12/12/2020 8:00:00 PM 4.48 40.064 0.036 6.65 1.98 12.5
12/12/2020 8:15:00 PM 4.49 40.082 0.036 6.67 1.97 12.5
12/12/2020 8:30:00 PM 4.5 40.1 0.036 6.66 2.03 12.49
12/12/2020 8:45:00 PM 4.52 40.136 0.036 6.56 2.09 12.49
12/12/2020 9:00:00 PM 4.54 40.172 0.036 6.68 2.16 12.48
12/12/2020 9:15:00 PM 4.56 40.208 0.036 6.65 1.95 12.48
12/12/2020 9:30:00 PM 4.58 40.244 0.036 6.65 1.93 12.47
12/12/2020 9:45:00 PM 4.59 40.262 0.036 6.66 2.04 12.46
12/12/2020 10:00:00 PM 4.61 40.298 0.036 6.66 2.1 12.45
12/12/2020 10:15:00 PM 4.62 40.316 0.036 6.66 2.13 12.45
12/12/2020 10:30:00 PM 4.63 40.334 0.036 6.52 2.26 12.44
12/12/2020 10:45:00 PM 4.64 40.352 0.036 6.61 2.2 12.44
12/12/2020 11:00:00 PM 4.63 40.334 0.036 6.56 1.95 12.43
12/12/2020 11:15:00 PM 4.64 40.352 0.036 6.66 2.11 12.43
12/12/2020 11:30:00 PM 4.66 40.388 0.036 6.65 2.2 12.43
12/12/2020 11:45:00 PM 4.68 40.424 0.036 6.56 2 12.42
12/13/2020 12:00:00 AM 4.7 40.46 0.036 6.63 2.15 12.42
12/13/2020 12:15:00 AM 4.72 40.496 0.036 6.64 1.98 12.41
12/13/2020 12:30:00 AM 4.74 40.532 0.036 6.58 1.99 12.41
12/13/2020 12:45:00 AM 4.75 40.55 0.036 6.67 1.94 12.39
12/13/2020 1:00:00 AM 4.77 40.586 0.036 6.64 1.93 12.39
12/13/2020 1:15:00 AM 4.79 40.622 0.036 6.5 1.96 12.39
12/13/2020 1:30:00 AM 4.8 40.64 0.036 6.67 1.97 12.38
12/13/2020 1:45:00 AM 4.82 40.676 0.036 6.66 2.05 12.37
12/13/2020 2:00:00 AM 4.84 40.712 0.036 6.54 2.02 12.37
12/13/2020 2:15:00 AM 4.87 40.766 0.036 6.54 1.96 12.36
12/13/2020 2:30:00 AM 4.89 40.802 0.036 6.58 2.06 12.35
12/13/2020 2:45:00 AM 4.88 40.784 0.036 6.66 1.99 12.34
12/13/2020 3:00:00 AM 4.89 40.802 0.036 6.61 1.93 12.35
12/13/2020 3:15:00 AM 4.89 40.802 0.036 6.64 2.06 12.35
12/13/2020 3:30:00 AM 4.88 40.784 0.036 6.65 2.04 12.36
12/13/2020 3:45:00 AM 4.87 40.766 0.036 6.65 2.1 12.35
12/13/2020 4:00:00 AM 4.87 40.766 0.036 6.67 2.02 12.36
12/13/2020 4:15:00 AM 4.86 40.748 0.036 6.53 1.98 12.36
12/13/2020 4:30:00 AM 4.86 40.748 0.036 6.56 4.43 12.36
12/13/2020 4:45:00 AM 4.84 40.712 0.036 6.63 1.98 12.37
12/13/2020 5:00:00 AM 4.84 40.712 0.036 6.67 2 12.37
12/13/2020 5:15:00 AM 4.85 40.73 0.036 6.68 2.03 12.37
12/13/2020 5:30:00 AM 4.87 40.766 0.036 6.48 2.14 12.37
12/13/2020 5:45:00 AM 4.89 40.802 0.036 6.68 2.27 12.37
12/13/2020 6:00:00 AM 4.91 40.838 0.036 6.51 2.34 12.37
12/13/2020 6:15:00 AM 4.92 40.856 0.036 6.68 2.29 12.37
12/13/2020 6:30:00 AM 4.92 40.856 0.036 6.56 2.37 12.38
12/13/2020 6:45:00 AM 4.92 40.856 0.036 6.69 2.48 12.38
12/13/2020 7:00:00 AM 4.92 40.856 0.036 6.65 2.57 12.38
12/13/2020 7:15:00 AM 4.93 40.874 0.036 6.54 2.81 12.39
12/13/2020 7:30:00 AM 4.93 40.874 0.036 6.63 2.63 12.4
12/13/2020 7:45:00 AM 4.93 40.874 0.036 6.68 2.56 12.39
12/13/2020 8:00:00 AM 4.94 40.892 0.036 6.66 2.6 12.4
12/13/2020 8:15:00 AM 4.94 40.892 0.036 6.68 2.39 12.41
12/13/2020 8:30:00 AM 4.95 40.91 0.036 6.7 2.36 12.44
12/13/2020 8:45:00 AM 4.96 40.928 0.036 6.53 2.33 12.47
12/13/2020 9:00:00 AM 4.97 40.946 0.036 6.72 2.22 12.49
12/13/2020 9:15:00 AM 4.98 40.964 0.036 6.7 2.2 12.51
12/13/2020 9:30:00 AM 4.99 40.982 0.035 6.67 2.08 12.54
12/13/2020 9:45:00 AM 5.01 41.018 0.035 6.74 2.09 12.6
12/13/2020 10:00:00 AM 5.06 41.108 0.035 6.75 2.02 12.65
12/13/2020 10:15:00 AM 5.1 41.18 0.035 6.57 1.99 12.68
12/13/2020 10:30:00 AM 5.13 41.234 0.035 6.77 1.95 12.7
12/13/2020 10:45:00 AM 5.15 41.27 0.035 6.74 1.99 12.7
12/13/2020 11:00:00 AM 5.16 41.288 0.035 6.8 1.93 12.71
12/13/2020 11:15:00 AM 5.19 41.342 0.035 6.8 2.01 12.73
12/13/2020 11:30:00 AM 5.22 41.396 0.035 6.62 2 12.72
12/13/2020 11:45:00 AM 5.25 41.45 0.035 6.74 1.92 12.73
12/13/2020 12:00:00 PM 5.33 41.594 0.035 6.83 1.88 12.74
12/13/2020 12:15:00 PM 5.37 41.666 0.035 6.77 1.97 12.73
12/13/2020 12:30:00 PM 5.38 41.684 0.035 6.79 1.91 12.71
12/13/2020 12:45:00 PM 5.41 41.738 0.035 6.82 1.92 12.71
12/13/2020 1:00:00 PM 5.52 41.936 0.035 6.82 1.96 12.71
12/13/2020 1:15:00 PM 5.55 41.99 0.035 6.77 2.02 12.68
12/13/2020 1:30:00 PM 5.55 41.99 0.035 6.83 1.93 12.65
12/13/2020 1:45:00 PM 5.52 41.936 0.035 6.83 1.94 12.64
12/13/2020 2:00:00 PM 5.48 41.864 0.035 6.8 1.99 12.65
12/13/2020 2:15:00 PM 5.46 41.828 0.035 6.68 1.94 12.65
12/13/2020 2:30:00 PM 5.45 41.81 0.035 6.84 1.97 12.67
12/13/2020 2:45:00 PM 5.45 41.81 0.035 6.81 2.07 12.67
12/13/2020 3:00:00 PM 5.46 41.828 0.035 6.8 2.03 12.66
12/13/2020 3:15:00 PM 5.47 41.846 0.035 6.82 1.98 12.66
12/13/2020 3:30:00 PM 5.46 41.828 0.035 6.82 2.02 12.63
12/13/2020 3:45:00 PM 5.43 41.774 0.035 6.78 1.95 12.62
12/13/2020 4:00:00 PM 5.39 41.702 0.035 6.79 2.04 12.6
12/13/2020 4:15:00 PM 5.36 41.648 0.035 6.73 2.1 12.56
12/13/2020 4:30:00 PM 5.32 41.576 0.035 6.65 1.97 12.5
12/13/2020 4:45:00 PM 5.29 41.522 0.035 6.77 1.94 12.45
12/13/2020 5:00:00 PM 5.27 41.486 0.035 6.72 1.97 12.4
12/13/2020 5:15:00 PM 5.25 41.45 0.035 6.62 1.99 12.37
12/13/2020 5:30:00 PM 5.22 41.396 0.035 6.73 1.92 12.36
12/13/2020 5:45:00 PM 5.19 41.342 0.035 6.7 2 12.36
12/13/2020 6:00:00 PM 5.17 41.306 0.035 6.7 2.05 12.36
12/13/2020 6:15:00 PM 5.15 41.27 0.035 6.69 2.1 12.36
12/13/2020 6:30:00 PM 5.13 41.234 0.035 6.63 2.11 12.37
12/13/2020 6:45:00 PM 5.1 41.18 0.035 6.6 2.11 12.37
12/13/2020 7:00:00 PM 5.08 41.144 0.035 6.69 2.11 12.38
12/13/2020 7:15:00 PM 5.05 41.09 0.035 6.67 2.1 12.39
12/13/2020 7:30:00 PM 5.04 41.072 0.035 6.58 2 12.4
12/13/2020 7:45:00 PM 5.01 41.018 0.035 6.7 2 12.39
12/13/2020 8:00:00 PM 4.99 40.982 0.035 6.68 2.15 12.41
12/13/2020 8:15:00 PM 4.97 40.946 0.035 6.68 1.93 12.42
12/13/2020 8:30:00 PM 4.95 40.91 0.035 6.67 2 12.43
12/13/2020 8:45:00 PM 4.93 40.874 0.035 6.57 2.13 12.43
12/13/2020 9:00:00 PM 4.91 40.838 0.035 6.56 1.96 12.43
12/13/2020 9:15:00 PM 4.89 40.802 0.035 6.68 1.92 12.43
12/13/2020 9:30:00 PM 4.86 40.748 0.035 6.52 1.95 12.45
12/13/2020 9:45:00 PM 4.83 40.694 0.035 6.67 1.98 12.46
12/13/2020 10:00:00 PM 4.8 40.64 0.036 6.66 2.01 12.45
12/13/2020 10:15:00 PM 4.77 40.586 0.036 6.64 1.93 12.47
12/13/2020 10:30:00 PM 4.75 40.55 0.036 6.66 2.01 12.48
12/13/2020 10:45:00 PM 4.73 40.514 0.036 6.54 1.98 12.49
12/13/2020 11:00:00 PM 4.7 40.46 0.036 6.67 2.03 12.49
12/13/2020 11:15:00 PM 4.68 40.424 0.036 6.5 1.91 12.5
12/13/2020 11:30:00 PM 4.66 40.388 0.036 6.65 1.96 12.51
12/13/2020 11:45:00 PM 4.64 40.352 0.036 6.67 1.93 12.52
12/14/2020 12:00:00 AM 4.61 40.298 0.036 6.65 1.97 12.52
12/14/2020 12:15:00 AM 4.58 40.244 0.036 6.63 1.91 12.52
12/14/2020 12:30:00 AM 4.55 40.19 0.036 6.58 2.01 12.54
12/14/2020 12:45:00 AM 4.53 40.154 0.036 6.67 1.96 12.54
12/14/2020 1:00:00 AM 4.51 40.118 0.036 6.66 1.98 12.55
12/14/2020 1:15:00 AM 4.5 40.1 0.036 6.61 1.91 12.54
12/14/2020 1:30:00 AM 4.49 40.082 0.036 6.66 1.98 12.56
12/14/2020 1:45:00 AM 4.47 40.046 0.036 6.67 1.98 12.55
12/14/2020 2:00:00 AM 4.45 40.01 0.036 6.66 1.99 12.56
12/14/2020 2:15:00 AM 4.44 39.992 0.036 6.57 1.95 12.57
12/14/2020 2:30:00 AM 4.42 39.956 0.036 6.65 2.11 12.56
12/14/2020 2:45:00 AM 4.4 39.92 0.036 6.66 1.94 12.57
12/14/2020 3:00:00 AM 4.39 39.902 0.036 6.64 1.93 12.57
12/14/2020 3:15:00 AM 4.38 39.884 0.036 6.66 1.95 12.57
12/14/2020 3:30:00 AM 4.37 39.866 0.036 6.64 2.03 12.58
12/14/2020 3:45:00 AM 4.36 39.848 0.036 6.67 1.98 12.59
12/14/2020 4:00:00 AM 4.34 39.812 0.036 6.54 1.93 12.59
12/14/2020 4:15:00 AM 4.33 39.794 0.036 6.66 1.95 12.6
12/14/2020 4:30:00 AM 4.32 39.776 0.036 6.54 1.94 12.59
12/14/2020 4:45:00 AM 4.31 39.758 0.036 6.6 1.98 12.6
12/14/2020 5:00:00 AM 4.29 39.722 0.036 6.68 1.99 12.61
12/14/2020 5:15:00 AM 4.28 39.704 0.036 6.65 1.96 12.6
12/14/2020 5:30:00 AM 4.26 39.668 0.036 6.5 1.96 12.61
12/14/2020 5:45:00 AM 4.24 39.632 0.036 6.67 2.02 12.61
12/14/2020 6:00:00 AM 4.21 39.578 0.036 6.66 2.05 12.62
12/14/2020 6:15:00 AM 4.2 39.56 0.036 6.64 1.94 12.63
12/14/2020 6:30:00 AM 4.18 39.524 0.036 6.53 1.93 12.64
12/14/2020 6:45:00 AM 4.16 39.488 0.036 6.68 1.97 12.64
12/14/2020 7:00:00 AM 4.13 39.434 0.036 6.66 1.93 12.65
12/14/2020 7:15:00 AM 4.11 39.398 0.036 6.65 1.98 12.66
12/14/2020 7:30:00 AM 4.09 39.362 0.036 6.64 1.97 12.66
12/14/2020 7:45:00 AM 4.05 39.29 0.036 6.51 1.93 12.66
12/14/2020 8:00:00 AM 4 39.2 0.036 6.57 1.94 12.69
12/14/2020 8:15:00 AM 3.96 39.128 0.036 6.54 2.09 12.71
12/14/2020 8:30:00 AM 3.95 39.11 0.036 6.68 2.08 12.76
12/14/2020 8:45:00 AM 3.96 39.128 0.036 6.67 2.09 12.8
12/14/2020 9:00:00 AM 3.97 39.146 0.035 6.61 1.99 12.85
12/14/2020 9:15:00 AM 3.99 39.182 0.035 6.71 1.91 12.9
12/14/2020 9:30:00 AM 4.01 39.218 0.035 6.55 2.26 12.94
12/14/2020 9:45:00 AM 4.02 39.236 0.035 6.73 1.93 12.96
12/14/2020 10:00:00 AM 4.03 39.254 0.035 6.75 1.95 12.97
12/14/2020 10:15:00 AM 4.03 39.254 0.035 6.73 2.05 12.98
12/14/2020 10:30:00 AM 4.05 39.29 0.035 6.66 1.89 12.99
12/14/2020 10:45:00 AM 4.05 39.29 0.035 6.76 1.98 13
12/14/2020 11:00:00 AM 4.05 39.29 0.035 6.74 1.9 12.98
12/14/2020 11:15:00 AM 4.06 39.308 0.035 6.69 1.91 12.97
12/14/2020 11:30:00 AM 4.08 39.344 0.035 6.7 1.9 13.01
12/14/2020 11:45:00 AM 4.09 39.362 0.035 6.77 2 13.01
12/14/2020 12:00:00 PM 4.12 39.416 0.035 6.77 1.94 13.02
12/14/2020 12:15:00 PM 4.19 39.542 0.035 6.79 1.95 13.05
12/14/2020 12:30:00 PM 4.26 39.668 0.035 6.75 2.03 13.04
12/14/2020 12:45:00 PM 4.3 39.74 0.035 6.69 1.99 13.01
12/14/2020 1:00:00 PM 4.3 39.74 0.035 6.73 1.97 13
12/14/2020 1:15:00 PM 4.28 39.704 0.035 6.81 1.98 13
12/14/2020 1:30:00 PM 4.26 39.668 0.035 6.8 2.11 12.99
12/14/2020 1:45:00 PM 4.25 39.65 0.035 6.79 1.99 13
12/14/2020 2:00:00 PM 4.25 39.65 0.035 6.8 2.27 12.99
12/14/2020 2:15:00 PM 4.25 39.65 0.035 6.79 2.1 12.98
12/14/2020 2:30:00 PM 4.24 39.632 0.035 6.79 2.45 12.97
12/14/2020 2:45:00 PM 4.24 39.632 0.035 6.79 2.07 12.95
12/14/2020 3:00:00 PM 4.22 39.596 0.035 6.79 2.01 12.92
12/14/2020 3:15:00 PM 4.2 39.56 0.035 6.68 2.06 12.88
12/14/2020 3:30:00 PM 4.19 39.542 0.035 6.76 1.96 12.89
12/14/2020 3:45:00 PM 4.17 39.506 0.035 6.69 1.93 12.87
12/14/2020 4:00:00 PM 4.14 39.452 0.035 6.77 1.99 12.83
12/14/2020 4:15:00 PM 4.12 39.416 0.035 6.74 1.94 12.81
12/14/2020 4:30:00 PM 4.09 39.362 0.035 6.73 1.98 12.78
12/14/2020 4:45:00 PM 4.05 39.29 0.035 6.7 2.21 12.77
12/14/2020 5:00:00 PM 4.02 39.236 0.035 6.73 2.31 12.76
12/14/2020 5:15:00 PM 3.98 39.164 0.035 6.69 2.01 12.75
12/14/2020 5:30:00 PM 3.94 39.092 0.036 6.7 1.97 12.75
12/14/2020 5:45:00 PM 3.9 39.02 0.036 6.68 1.96 12.75
12/14/2020 6:00:00 PM 3.85 38.93 0.036 6.63 2.06 12.77
12/14/2020 6:15:00 PM 3.81 38.858 0.036 6.69 2.03 12.79
12/14/2020 6:30:00 PM 3.76 38.768 0.036 6.65 2.14 12.8
12/14/2020 6:45:00 PM 3.72 38.696 0.036 6.68 2.87 12.82
12/14/2020 7:00:00 PM 3.7 38.66 0.036 6.67 2.04 12.83
12/14/2020 7:15:00 PM 3.67 38.606 0.036 6.53 2.08 12.85
12/14/2020 7:30:00 PM 3.65 38.57 0.036 6.68 2.16 12.86
12/14/2020 7:45:00 PM 3.62 38.516 0.036 6.67 2.16 12.88
12/14/2020 8:00:00 PM 3.57 38.426 0.036 6.57 2.14 12.9
12/14/2020 8:15:00 PM 3.51 38.318 0.036 6.57 2.15 12.92
12/14/2020 8:30:00 PM 3.47 38.246 0.036 6.58 2.14 12.94
12/14/2020 8:45:00 PM 3.43 38.174 0.036 6.67 2.11 12.96
12/14/2020 9:00:00 PM 3.4 38.12 0.036 6.65 2.08 12.97
12/14/2020 9:15:00 PM 3.38 38.084 0.036 6.61 2.1 12.98
12/14/2020 9:30:00 PM 3.33 37.994 0.036 6.65 1.95 12.99
12/14/2020 9:45:00 PM 3.3 37.94 0.036 6.64 1.98 13.01
12/14/2020 10:00:00 PM 3.27 37.886 0.036 6.65 2.05 13.01
12/14/2020 10:15:00 PM 3.24 37.832 0.036 6.65 2.14 13.03
12/14/2020 10:30:00 PM 3.18 37.724 0.036 6.55 2.08 13.05
12/14/2020 10:45:00 PM 3.12 37.616 0.036 6.67 2.04 13.06
12/14/2020 11:00:00 PM 3.09 37.562 0.036 6.53 2.54 13.09
12/14/2020 11:15:00 PM 3.06 37.508 0.036 6.58 2.08 13.1
12/14/2020 11:30:00 PM 3.03 37.454 0.036 6.57 2.02 13.11
12/14/2020 11:45:00 PM 3 37.4 0.036 6.67 2 13.13
12/15/2020 12:00:00 AM 2.98 37.364 0.036 6.65 2.03 13.14
12/15/2020 12:15:00 AM 2.96 37.328 0.036 6.51 1.96 13.15
12/15/2020 12:30:00 AM 2.95 37.31 0.036 6.68 2.06 13.16
12/15/2020 12:45:00 AM 2.94 37.292 0.036 6.54 2.01 13.17
12/15/2020 1:00:00 AM 2.9 37.22 0.036 6.68 1.96 13.18
12/15/2020 1:15:00 AM 2.87 37.166 0.036 6.67 2.01 13.18
12/15/2020 1:30:00 AM 2.84 37.112 0.036 6.63 2.01 13.2
12/15/2020 1:45:00 AM 2.81 37.058 0.036 6.66 2.05 13.21
12/15/2020 2:00:00 AM 2.77 36.986 0.036 6.61 1.96 13.23
12/15/2020 2:15:00 AM 2.74 36.932 0.036 6.68 1.97 13.24
12/15/2020 2:30:00 AM 2.71 36.878 0.036 6.47 1.96 13.26
12/15/2020 2:45:00 AM 2.68 36.824 0.036 6.68 1.94 13.28
12/15/2020 3:00:00 AM 2.65 36.77 0.036 6.66 1.93 13.29
12/15/2020 3:15:00 AM 2.62 36.716 0.036 6.5 2.08 13.3
12/15/2020 3:30:00 AM 2.58 36.644 0.036 6.57 2.07 13.31
12/15/2020 3:45:00 AM 2.54 36.572 0.036 6.68 2.07 13.33
12/15/2020 4:00:00 AM 2.5 36.5 0.036 6.66 2.07 13.34
12/15/2020 4:15:00 AM 2.48 36.464 0.036 6.55 2.12 13.34
12/15/2020 4:30:00 AM 2.46 36.428 0.036 6.57 2.01 13.36
12/15/2020 4:45:00 AM 2.43 36.374 0.036 6.67 2.01 13.38
12/15/2020 5:00:00 AM 2.4 36.32 0.036 6.67 1.99 13.4
12/15/2020 5:15:00 AM 2.37 36.266 0.036 6.67 2.03 13.41
12/15/2020 5:30:00 AM 2.36 36.248 0.036 6.53 2.05 13.42
12/15/2020 5:45:00 AM 2.35 36.23 0.036 6.67 2.04 13.44
12/15/2020 6:00:00 AM 2.33 36.194 0.036 6.65 1.99 13.45
12/15/2020 6:15:00 AM 2.33 36.194 0.036 6.62 2.02 13.44
12/15/2020 6:30:00 AM 2.32 36.176 0.036 6.53 1.95 13.46
12/15/2020 6:45:00 AM 2.31 36.158 0.036 6.58 2.01 13.46
12/15/2020 7:00:00 AM 2.29 36.122 0.036 6.58 2.02 13.46
12/15/2020 7:15:00 AM 2.26 36.068 0.036 6.58 1.96 13.48
12/15/2020 7:30:00 AM 2.24 36.032 0.036 6.66 2.06 13.49
12/15/2020 7:45:00 AM 2.21 35.978 0.036 6.67 1.99 13.52
12/15/2020 8:00:00 AM 2.2 35.96 0.036 6.64 1.95 13.54
12/15/2020 8:15:00 AM 2.21 35.978 0.036 6.69 1.96 13.6
12/15/2020 8:30:00 AM 2.22 35.996 0.036 6.7 2.04 13.65
12/15/2020 8:45:00 AM 2.23 36.014 0.036 6.55 1.99 13.69
12/15/2020 9:00:00 AM 2.25 36.05 0.036 6.73 1.94 13.75
12/15/2020 9:15:00 AM 2.27 36.086 0.036 6.6 2 13.78
12/15/2020 9:30:00 AM 2.29 36.122 0.036 6.67 2 13.81
12/15/2020 9:45:00 AM 2.33 36.194 0.036 6.77 1.94 13.82
12/15/2020 10:00:00 AM 2.36 36.248 0.036 6.78 1.99 13.84
12/15/2020 10:15:00 AM 2.4 36.32 0.035 6.78 1.92 13.86
12/15/2020 10:30:00 AM 2.45 36.41 0.035 6.75 1.99 13.85
12/15/2020 10:45:00 AM 2.48 36.464 0.035 6.8 1.96 13.85
12/15/2020 11:00:00 AM 2.5 36.5 0.035 6.78 2.14 13.85
12/15/2020 11:15:00 AM 2.55 36.59 0.035 6.76 1.89 13.84
12/15/2020 11:30:00 AM 2.62 36.716 0.035 6.68 1.91 13.82
12/15/2020 11:45:00 AM 2.67 36.806 0.035 6.72 1.91 13.8
12/15/2020 12:00:00 PM 2.7 36.86 0.035 6.8 1.94 13.79
12/15/2020 12:15:00 PM 2.74 36.932 0.035 6.8 1.92 13.77
12/15/2020 12:30:00 PM 2.76 36.968 0.035 6.67 1.89 13.77
12/15/2020 12:45:00 PM 2.8 37.04 0.035 6.81 1.94 13.75
12/15/2020 1:00:00 PM 2.82 37.076 0.035 6.8 1.92 13.73
12/15/2020 1:15:00 PM 2.85 37.13 0.035 6.66 1.9 13.73
12/15/2020 1:30:00 PM 2.86 37.148 0.035 6.82 1.94 13.71
12/15/2020 1:45:00 PM 2.88 37.184 0.035 6.72 1.85 13.71
12/15/2020 2:00:00 PM 2.88 37.184 0.035 6.7 1.9 13.71
12/15/2020 2:15:00 PM 2.9 37.22 0.035 6.74 1.88 13.69
12/15/2020 2:30:00 PM 2.91 37.238 0.035 6.82 1.94 13.68
12/15/2020 2:45:00 PM 2.92 37.256 0.035 6.78 1.91 13.68
12/15/2020 3:00:00 PM 2.91 37.238 0.035 6.8 1.89 13.68
12/15/2020 3:15:00 PM 2.88 37.184 0.035 6.78 2.15 13.67
12/15/2020 3:30:00 PM 2.83 37.094 0.035 6.65 1.95 13.67
12/15/2020 3:45:00 PM 2.79 37.022 0.035 6.8 1.9 13.66
12/15/2020 4:00:00 PM 2.73 36.914 0.035 6.69 1.92 13.65
12/15/2020 4:15:00 PM 2.67 36.806 0.035 6.79 1.96 13.64
12/15/2020 4:30:00 PM 2.61 36.698 0.035 6.71 1.95 13.59
12/15/2020 4:45:00 PM 2.56 36.608 0.035 6.75 2.09 13.56
12/15/2020 5:00:00 PM 2.51 36.518 0.036 6.72 2.01 13.52
12/15/2020 5:15:00 PM 2.47 36.446 0.036 6.59 2.03 13.48
12/15/2020 5:30:00 PM 2.44 36.392 0.036 6.68 1.98 13.46
12/15/2020 5:45:00 PM 2.4 36.32 0.036 6.65 2.04 13.45
12/15/2020 6:00:00 PM 2.36 36.248 0.036 6.64 1.96 13.47
12/15/2020 6:15:00 PM 2.32 36.176 0.036 6.69 1.97 13.47
12/15/2020 6:30:00 PM 2.29 36.122 0.036 6.51 2.04 13.48
12/15/2020 6:45:00 PM 2.24 36.032 0.036 6.67 1.98 13.51
12/15/2020 7:00:00 PM 2.2 35.96 0.036 6.69 2.14 13.52
12/15/2020 7:15:00 PM 2.16 35.888 0.036 6.63 1.96 13.54
12/15/2020 7:30:00 PM 2.12 35.816 0.036 6.64 2.13 13.54
12/15/2020 7:45:00 PM 2.08 35.744 0.036 6.65 2.18 13.55
12/15/2020 8:00:00 PM 2.05 35.69 0.036 6.52 2.71 13.57
12/15/2020 8:15:00 PM 2.02 35.636 0.036 6.67 2.29 13.58
12/15/2020 8:30:00 PM 1.98 35.564 0.036 6.64 2.24 13.59
12/15/2020 8:45:00 PM 1.94 35.492 0.036 6.67 2.28 13.61
12/15/2020 9:00:00 PM 1.9 35.42 0.036 6.66 2.21 13.62
12/15/2020 9:15:00 PM 1.87 35.366 0.036 6.66 2.26 13.64
12/15/2020 9:30:00 PM 1.83 35.294 0.036 6.64 2.31 13.65
12/15/2020 9:45:00 PM 1.79 35.222 0.036 6.53 2.18 13.66
12/15/2020 10:00:00 PM 1.77 35.186 0.036 6.68 2.27 13.67
12/15/2020 10:15:00 PM 1.74 35.132 0.036 6.62 2.22 13.69
12/15/2020 10:30:00 PM 1.71 35.078 0.036 6.62 2.25 13.7
12/15/2020 10:45:00 PM 1.68 35.024 0.036 6.67 2.07 13.71
12/15/2020 11:00:00 PM 1.66 34.988 0.036 6.66 2.06 13.73
12/15/2020 11:15:00 PM 1.63 34.934 0.036 6.61 2.86 13.74
12/15/2020 11:30:00 PM 1.59 34.862 0.036 6.67 2.02 13.75
12/15/2020 11:45:00 PM 1.55 34.79 0.036 6.67 2.05 13.76
12/16/2020 12:00:00 AM 1.51 34.718 0.036 6.51 2.08 13.78
12/16/2020 12:15:00 AM 1.49 34.682 0.036 6.58 2.03 13.79
12/16/2020 12:30:00 AM 1.46 34.628 0.036 6.65 2.01 13.8
12/16/2020 12:45:00 AM 1.44 34.592 0.036 6.65 1.94 13.81
12/16/2020 1:00:00 AM 1.42 34.556 0.036 6.53 2.03 13.81
12/16/2020 1:15:00 AM 1.4 34.52 0.036 6.68 1.97 13.83
12/16/2020 1:30:00 AM 1.38 34.484 0.036 6.52 2.19 13.83
12/16/2020 1:45:00 AM 1.35 34.43 0.036 6.67 2.21 13.84
12/16/2020 2:00:00 AM 1.33 34.394 0.036 6.65 2.22 13.85
12/16/2020 2:15:00 AM 1.32 34.376 0.036 6.65 2 13.86
12/16/2020 2:30:00 AM 1.31 34.358 0.036 6.65 2.02 13.87
12/16/2020 2:45:00 AM 1.29 34.322 0.036 6.67 2 13.88
12/16/2020 3:00:00 AM 1.26 34.268 0.036 6.65 2.08 13.89
12/16/2020 3:15:00 AM 1.22 34.196 0.036 6.67 1.99 13.91
12/16/2020 3:30:00 AM 1.17 34.106 0.036 6.53 2.08 13.92
12/16/2020 3:45:00 AM 1.13 34.034 0.036 6.68 2.11 13.93
12/16/2020 4:00:00 AM 1.11 33.998 0.036 6.66 2.07 13.95
12/16/2020 4:15:00 AM 1.09 33.962 0.036 6.64 2.23 13.96
12/16/2020 4:30:00 AM 1.08 33.944 0.036 6.66 2.23 13.96
12/16/2020 4:45:00 AM 1.06 33.908 0.036 6.65 2.22 13.97
12/16/2020 5:00:00 AM 1.06 33.908 0.036 6.62 2.13 13.97
12/16/2020 5:15:00 AM 1.04 33.872 0.036 6.55 2.05 13.97
12/16/2020 5:30:00 AM 1.03 33.854 0.036 6.58 2.12 13.98
12/16/2020 5:45:00 AM 1 33.8 0.036 6.58 2.31 13.99
12/16/2020 6:00:00 AM 0.98 33.764 0.036 6.68 2.2 14
12/16/2020 6:15:00 AM 0.97 33.746 0.037 6.53 2.29 14
12/16/2020 6:30:00 AM 0.95 33.71 0.036 6.59 2.32 14.02
12/16/2020 6:45:00 AM 0.93 33.674 0.037 6.65 2.24 14.02
12/16/2020 7:00:00 AM 0.92 33.656 0.037 6.55 2.34 14.02
12/16/2020 7:15:00 AM 0.9 33.62 0.037 6.59 2.2 14.04
12/16/2020 7:30:00 AM 0.88 33.584 0.037 6.59 2.05 14.04
12/16/2020 7:45:00 AM 0.86 33.548 0.037 6.59 1.94 14.05
12/16/2020 8:00:00 AM 0.84 33.512 0.037 6.59 1.91 14.07
12/16/2020 8:15:00 AM 0.84 33.512 0.036 6.6 1.87 14.11
12/16/2020 8:30:00 AM 0.84 33.512 0.036 6.61 1.94 14.14
12/16/2020 8:45:00 AM 0.85 33.53 0.036 6.66 1.92 14.2
12/16/2020 9:00:00 AM 0.86 33.548 0.036 6.72 1.91 14.25
12/16/2020 9:15:00 AM 0.88 33.584 0.036 6.62 1.9 14.29
12/16/2020 9:30:00 AM 0.89 33.602 0.036 6.68 1.97 14.31
12/16/2020 9:45:00 AM 0.91 33.638 0.036 6.64 1.91 14.32
12/16/2020 10:00:00 AM 0.94 33.692 0.036 6.67 1.92 14.34
12/16/2020 10:15:00 AM 0.97 33.746 0.036 6.71 1.97 14.35
12/16/2020 10:30:00 AM 1 33.8 0.036 6.68 2.08 14.35
12/16/2020 10:45:00 AM 1 33.8 0.036 6.75 1.99 14.33
12/16/2020 11:00:00 AM 1 33.8 0.036 6.74 1.97 14.31
12/16/2020 11:15:00 AM 0.99 33.782 0.036 6.77 2.88 14.3
12/16/2020 11:30:00 AM 0.97 33.746 0.036 6.64 1.95 14.3
12/16/2020 11:45:00 AM 0.9 33.62 0.036 6.76 1.93 14.28
12/16/2020 12:00:00 PM 0.79 33.422 0.036 6.74 2.02 14.29
12/16/2020 12:15:00 PM 0.66 33.188 0.036 6.61 1.97 14.3
12/16/2020 12:30:00 PM 0.54 32.972 0.036 6.74 2.18 14.32
12/16/2020 12:45:00 PM 0.5 32.9 0.036 6.6 2.14 14.36
12/16/2020 1:00:00 PM 0.49 32.882 0.036 6.6 2.77 14.39
12/16/2020 1:15:00 PM 0.48 32.864 0.036 6.74 1.95 14.39
12/16/2020 1:30:00 PM 0.45 32.81 0.036 6.7 1.91 14.37
12/16/2020 1:45:00 PM 0.38 32.684 0.036 6.59 1.9 14.37
12/16/2020 2:00:00 PM 0.32 32.576 0.036 6.69 1.92 14.38
12/16/2020 2:15:00 PM 0.22 32.396 0.036 6.64 2.04 14.39
12/16/2020 2:30:00 PM 0.06 32.108 0.036 6.66 2.01 14.42
12/16/2020 2:45:00 PM -0.03 31.946 0.036 6.71 1.98 14.45
12/16/2020 3:00:00 PM -0.09 31.838 0.036 6.54 1.98 14.46
12/16/2020 3:15:00 PM -0.1 31.82 0.036 6.7 2.78 14.48
12/16/2020 3:30:00 PM -0.09 31.838 0.036 6.55 2.27 14.49
12/16/2020 3:45:00 PM -0.1 31.82 0.036 6.66 2.26 14.49
12/16/2020 4:00:00 PM -0.1 31.82 0.036 6.67 2.78 14.5
12/16/2020 4:15:00 PM -0.08 31.856 0.036 6.55 2.74 14.46
12/16/2020 4:30:00 PM -0.08 31.856 0.036 6.68 2.79 14.44
12/16/2020 4:45:00 PM -0.09 31.838 0.036 6.56 3.04 14.43
12/16/2020 5:00:00 PM -0.09 31.838 0.036 6.57 3.35 14.4
12/16/2020 5:15:00 PM -0.07 31.874 0.036 6.65 2.51 14.35
12/16/2020 5:30:00 PM -0.08 31.856 0.036 6.64 2.54 14.35
12/16/2020 5:45:00 PM -0.08 31.856 0.036 6.64 3.17 14.34
12/16/2020 6:00:00 PM -0.08 31.856 0.036 6.6 3.38 14.34
12/16/2020 6:15:00 PM -0.08 31.856 0.036 6.59 2.58 14.33
12/16/2020 6:30:00 PM -0.08 31.856 0.036 6.61 6.12 14.32
12/16/2020 6:45:00 PM -0.08 31.856 0.036 6.62 3.77 14.32
12/16/2020 7:00:00 PM -0.09 31.838 0.036 6.64 3.35 14.31
12/16/2020 7:15:00 PM -0.07 31.874 0.036 6.6 3.8 14.28
12/16/2020 7:30:00 PM -0.1 31.82 0.036 6.63 2.66 14.3
12/16/2020 7:45:00 PM -0.1 31.82 0.036 6.65 3.74 14.3
12/16/2020 8:00:00 PM -0.07 31.874 0.036 6.62 4.95 14.26
12/16/2020 8:15:00 PM -0.06 31.892 0.036 6.6 3.68 14.24
12/16/2020 8:30:00 PM -0.06 31.892 0.036 6.56 4.41 14.22
12/16/2020 8:45:00 PM -0.05 31.91 0.037 6.46 4.17 14.17
12/16/2020 9:00:00 PM -0.05 31.91 0.037 6.57 5.76 14.15
12/16/2020 9:15:00 PM -0.02 31.964 0.037 6.54 3.97 14.07
12/16/2020 9:30:00 PM -0.03 31.946 0.037 6.55 3.86 14.07
12/16/2020 9:45:00 PM -0.02 31.964 0.037 6.43 4.99 14.05
12/16/2020 10:00:00 PM -0.02 31.964 0.037 6.44 4.03 14.05
12/16/2020 10:15:00 PM -0.11 31.802 0.037 6.6 2.56 14.18
12/16/2020 10:30:00 PM -0.11 31.802 0.037 6.63 3.09 14.16
12/16/2020 10:45:00 PM -0.11 31.802 0.037 6.54 3.16 14.18
12/16/2020 11:00:00 PM -0.11 31.802 0.037 6.63 3.21 14.15
12/16/2020 11:15:00 PM -0.11 31.802 0.037 6.62 3.69 14.17
12/16/2020 11:30:00 PM -0.11 31.802 0.037 6.5 6.09 14.16
12/16/2020 11:45:00 PM -0.11 31.802 0.037 6.53 10.07 14.15
12/17/2020 12:00:00 AM -0.11 31.802 0.037 6.64 2.3 14.14
12/17/2020 12:15:00 AM -0.11 31.802 0.037 6.48 2.43 14.13
12/17/2020 12:30:00 AM -0.11 31.802 0.037 6.52 2.51 14.12
12/17/2020 12:45:00 AM -0.11 31.802 0.037 6.61 2.43 14.11
12/17/2020 1:00:00 AM -0.11 31.802 0.037 6.58 2.69 14.09
12/17/2020 1:15:00 AM -0.1 31.82 0.037 6.49 2.48 14.07
12/17/2020 1:30:00 AM -0.11 31.802 0.037 6.62 2.62 14.09
12/17/2020 1:45:00 AM -0.11 31.802 0.038 6.6 2.25 14.09
12/17/2020 2:00:00 AM -0.1 31.82 0.038 6.48 2.43 14.07
12/17/2020 2:15:00 AM -0.11 31.802 0.038 6.61 2.35 14.06
12/17/2020 2:30:00 AM -0.11 31.802 0.038 6.55 2.49 14.05
12/17/2020 2:45:00 AM -0.11 31.802 0.038 6.57 2.46 14.04
12/17/2020 3:00:00 AM -0.1 31.82 0.038 6.55 2.39 14.02
12/17/2020 3:15:00 AM -0.1 31.82 0.038 6.53 2.41 14.01
12/17/2020 3:30:00 AM -0.1 31.82 0.038 6.49 2.42 13.96
12/17/2020 3:45:00 AM -0.1 31.82 0.038 6.5 2.36 13.97
12/17/2020 4:00:00 AM -0.1 31.82 0.038 6.56 2.42 13.96
12/17/2020 4:15:00 AM -0.1 31.82 0.038 6.55 2.43 13.96
12/17/2020 4:30:00 AM -0.1 31.82 0.038 6.48 2.45 13.95
12/17/2020 4:45:00 AM -0.1 31.82 0.038 6.57 2.49 13.95
12/17/2020 5:00:00 AM -0.1 31.82 0.038 6.47 2.42 13.95
12/17/2020 5:15:00 AM -0.1 31.82 0.038 6.52 2.55 13.95
12/17/2020 5:30:00 AM -0.1 31.82 0.038 6.57 2.55 13.96
12/17/2020 5:45:00 AM -0.1 31.82 0.038 6.45 2.55 13.96
12/17/2020 6:00:00 AM -0.1 31.82 0.038 6.55 2.6 13.97
12/17/2020 6:15:00 AM -0.1 31.82 0.038 6.59 2.67 13.97
12/17/2020 6:30:00 AM -0.1 31.82 0.038 6.57 2.73 13.99
12/17/2020 6:45:00 AM -0.1 31.82 0.038 6.47 2.7 13.99
12/17/2020 7:00:00 AM -0.1 31.82 0.038 6.6 2.73 13.99
12/17/2020 7:15:00 AM -0.1 31.82 0.038 6.49 2.57 14
12/17/2020 7:30:00 AM -0.1 31.82 0.038 6.53 2.73 14.01
12/17/2020 7:45:00 AM -0.1 31.82 0.038 6.6 2.21 14.05
12/17/2020 8:00:00 AM -0.1 31.82 0.038 6.58 2.32 14.07
12/17/2020 8:15:00 AM -0.1 31.82 0.038 6.5 2.58 14.12
12/17/2020 8:30:00 AM -0.1 31.82 0.038 6.54 2.45 14.16
12/17/2020 8:45:00 AM -0.1 31.82 0.038 6.58 2.31 14.2
12/17/2020 9:00:00 AM -0.1 31.82 0.037 6.53 2.52 14.25
12/17/2020 9:15:00 AM -0.1 31.82 0.037 6.56 2.48 14.29
12/17/2020 9:30:00 AM -0.1 31.82 0.037 6.57 2.34 14.32
12/17/2020 9:45:00 AM -0.1 31.82 0.037 6.57 2.56 14.35
12/17/2020 10:00:00 AM -0.09 31.838 0.037 6.57 2.46 14.39
12/17/2020 10:15:00 AM -0.1 31.82 0.037 6.63 2.89 14.42
12/17/2020 10:30:00 AM -0.1 31.82 0.037 6.59 2.76 14.43
12/17/2020 10:45:00 AM -0.1 31.82 0.037 6.54 2.68 14.45
12/17/2020 11:00:00 AM -0.09 31.838 0.037 6.54 2.53 14.45
12/17/2020 11:15:00 AM -0.09 31.838 0.037 6.59 2.64 14.47
12/17/2020 11:30:00 AM -0.09 31.838 0.037 6.53 2.74 14.47
12/17/2020 11:45:00 AM -0.09 31.838 0.037 6.57 2.78 14.48
12/17/2020 12:00:00 PM -0.09 31.838 0.037 6.54 2.86 14.48
12/17/2020 12:15:00 PM -0.09 31.838 0.037 6.56 2.7 14.49
12/17/2020 12:30:00 PM -0.09 31.838 0.037 6.57 2.76 14.49
12/17/2020 12:45:00 PM -0.08 31.856 0.037 6.45 2.72 14.5
12/17/2020 1:00:00 PM -0.08 31.856 0.037 6.48 2.85 14.5
12/17/2020 1:15:00 PM -0.08 31.856 0.037 6.58 2.92 14.5
12/17/2020 1:30:00 PM -0.08 31.856 0.037 6.54 2.91 14.5
12/17/2020 1:45:00 PM -0.09 31.838 0.037 6.58 2.86 14.5
12/17/2020 2:00:00 PM -0.09 31.838 0.037 6.59 2.8 14.51
12/17/2020 2:15:00 PM -0.09 31.838 0.037 6.44 3.48 14.5
12/17/2020 2:30:00 PM -0.09 31.838 0.037 6.49 2.92 14.51
12/17/2020 2:45:00 PM -0.09 31.838 0.036 6.53 2.87 14.5
12/17/2020 3:00:00 PM -0.09 31.838 0.036 6.61 2.85 14.51
12/17/2020 3:15:00 PM -0.09 31.838 0.036 6.53 4.54 14.5
12/17/2020 3:30:00 PM -0.09 31.838 0.036 6.57 4.13 14.5
12/17/2020 3:45:00 PM -0.09 31.838 0.036 6.61 2.89 14.48
12/17/2020 4:00:00 PM -0.09 31.838 0.036 6.57 2.84 14.49
12/17/2020 4:15:00 PM -0.09 31.838 0.036 6.6 3.68 14.45
12/17/2020 4:30:00 PM -0.1 31.82 0.035 6.53 3.1 14.43
12/17/2020 4:45:00 PM -0.1 31.82 0.035 6.52 3.08 14.41
12/17/2020 5:00:00 PM -0.09 31.838 0.035 6.48 2.57 14.38
12/17/2020 5:15:00 PM -0.09 31.838 0.035 6.54 2.85 14.37
12/17/2020 5:30:00 PM -0.09 31.838 0.035 6.55 3.39 14.34
12/17/2020 5:45:00 PM -0.09 31.838 0.035 6.56 2.69 14.34
12/17/2020 6:00:00 PM -0.09 31.838 0.035 6.62 3.05 14.33
12/17/2020 6:15:00 PM -0.09 31.838 0.035 6.59 2.66 14.32
12/17/2020 6:30:00 PM -0.09 31.838 0.035 6.62 2.77 14.32
12/17/2020 6:45:00 PM -0.09 31.838 0.035 6.53 3.02 14.33
12/17/2020 7:00:00 PM -0.08 31.856 0.035 6.57 2.74 14.32
12/17/2020 7:15:00 PM -0.08 31.856 0.034 6.57 2.6 14.32
12/17/2020 7:30:00 PM -0.08 31.856 0.034 6.56 2.81 14.3
12/17/2020 7:45:00 PM -0.08 31.856 0.034 6.57 2.55 14.31
12/17/2020 8:00:00 PM -0.08 31.856 0.034 6.56 2.62 14.32
12/17/2020 8:15:00 PM -0.08 31.856 0.034 6.64 2.71 14.31
12/17/2020 8:30:00 PM -0.08 31.856 0.034 6.49 2.67 14.31
12/17/2020 8:45:00 PM -0.08 31.856 0.034 6.63 2.69 14.32
12/17/2020 9:00:00 PM -0.08 31.856 0.034 6.5 2.77 14.31
12/17/2020 9:15:00 PM -0.08 31.856 0.034 6.54 2.59 14.3
12/17/2020 9:30:00 PM -0.07 31.874 0.034 6.55 2.49 14.29
12/17/2020 9:45:00 PM -0.07 31.874 0.034 6.53 2.64 14.29
12/17/2020 10:00:00 PM -0.07 31.874 0.034 6.53 2.57 14.3
12/17/2020 10:15:00 PM -0.07 31.874 0.034 6.53 2.55 14.3
12/17/2020 10:30:00 PM -0.06 31.892 0.034 6.52 2.64 14.29
12/17/2020 10:45:00 PM -0.07 31.874 0.034 6.59 2.61 14.29
12/17/2020 11:00:00 PM -0.07 31.874 0.034 6.58 2.58 14.28
12/17/2020 11:15:00 PM -0.06 31.892 0.034 6.6 2.64 14.28
12/17/2020 11:30:00 PM -0.07 31.874 0.034 6.55 3.14 14.3
12/17/2020 11:45:00 PM -0.07 31.874 0.034 6.5 2.58 14.31
12/18/2020 12:00:00 AM -0.07 31.874 0.034 6.6 2.6 14.33
12/18/2020 12:15:00 AM -0.07 31.874 0.034 6.49 2.66 14.34
12/18/2020 12:30:00 AM -0.07 31.874 0.034 6.53 2.83 14.34
12/18/2020 12:45:00 AM -0.07 31.874 0.034 6.54 3.06 14.33
12/18/2020 1:00:00 AM -0.07 31.874 0.034 6.54 2.83 14.33
12/18/2020 1:15:00 AM -0.07 31.874 0.034 6.56 2.94 14.33
12/18/2020 1:30:00 AM -0.07 31.874 0.034 6.52 4.62 14.34
12/18/2020 1:45:00 AM -0.07 31.874 0.034 6.54 5.51 14.35
12/18/2020 2:00:00 AM -0.07 31.874 0.034 6.62 4.72 14.34
12/18/2020 2:15:00 AM -0.08 31.856 0.034 6.59 6.67 14.33
12/18/2020 2:30:00 AM -0.07 31.874 0.034 6.61 3.51 14.34
12/18/2020 2:45:00 AM -0.07 31.874 0.034 6.58 8.45 14.34
12/18/2020 3:00:00 AM -0.07 31.874 0.034 6.5 4.74 14.35
12/18/2020 3:15:00 AM -0.08 31.856 0.034 6.63 4.43 14.34
12/18/2020 3:30:00 AM -0.07 31.874 0.034 6.59 7.66 14.36
12/18/2020 3:45:00 AM -0.07 31.874 0.034 6.6 4.36 14.36
12/18/2020 4:00:00 AM -0.07 31.874 0.034 6.49 4.49 14.35
12/18/2020 4:15:00 AM -0.07 31.874 0.034 6.62 5.35 14.36
12/18/2020 4:30:00 AM -0.07 31.874 0.034 6.61 4.31 14.37
12/18/2020 4:45:00 AM -0.07 31.874 0.034 6.47 4.47 14.37
12/18/2020 5:00:00 AM -0.07 31.874 0.034 6.53 4.48 14.37
12/18/2020 5:15:00 AM -0.07 31.874 0.034 6.62 4.84 14.35
12/18/2020 5:30:00 AM -0.07 31.874 0.034 6.6 3.74 14.36
12/18/2020 5:45:00 AM -0.07 31.874 0.034 6.48 3.57 14.38
12/18/2020 6:00:00 AM -0.07 31.874 0.034 6.58 3.76 14.37
12/18/2020 6:15:00 AM -0.07 31.874 0.034 6.51 3.79 14.38
12/18/2020 6:30:00 AM -0.07 31.874 0.034 6.57 4.48 14.38
12/18/2020 6:45:00 AM -0.07 31.874 0.034 6.63 4.79 14.39
12/18/2020 7:00:00 AM -0.07 31.874 0.034 6.47 3.48 14.4
12/18/2020 7:15:00 AM -0.07 31.874 0.034 6.55 3.12 14.4
12/18/2020 7:30:00 AM -0.07 31.874 0.034 6.63 3.52 14.4
12/18/2020 7:45:00 AM -0.07 31.874 0.034 6.6 2.7 14.4
12/18/2020 8:00:00 AM -0.07 31.874 0.034 6.63 3.46 14.41
12/18/2020 8:15:00 AM -0.06 31.892 0.034 6.61 2.49 14.44
12/18/2020 8:30:00 AM -0.06 31.892 0.034 6.52 3.92 14.47
12/18/2020 8:45:00 AM -0.06 31.892 0.034 6.64 2.48 14.49
12/18/2020 9:00:00 AM -0.06 31.892 0.034 6.63 2.81 14.52
12/18/2020 9:15:00 AM -0.06 31.892 0.034 6.56 2.85 14.56
12/18/2020 9:30:00 AM -0.05 31.91 0.034 6.59 2.98 14.59
12/18/2020 9:45:00 AM -0.05 31.91 0.034 6.59 3.28 14.61
12/18/2020 10:00:00 AM -0.04 31.928 0.034 6.64 3.28 14.64
12/18/2020 10:15:00 AM -0.04 31.928 0.034 6.7 3.1 14.64
12/18/2020 10:30:00 AM -0.03 31.946 0.034 6.68 3.46 14.65
12/18/2020 10:45:00 AM -0.03 31.946 0.034 6.55 2.98 14.66
12/18/2020 11:00:00 AM -0.03 31.946 0.034 6.61 2.98 14.67
12/18/2020 11:15:00 AM -0.02 31.964 0.034 6.62 2.97 14.69
12/18/2020 11:30:00 AM -0.02 31.964 0.034 6.65 3.2 14.69
12/18/2020 11:45:00 AM -0.01 31.982 0.034 6.68 3.01 14.7
12/18/2020 12:00:00 PM -0.01 31.982 0.034 6.59 3.41 14.69
12/18/2020 12:15:00 PM 0 32 0.034 6.63 2.92 14.7
12/18/2020 12:30:00 PM 0 32 0.034 6.73 2.81 14.7
12/18/2020 12:45:00 PM 0 32 0.034 6.56 2.9 14.69
12/18/2020 1:00:00 PM 0.01 32.018 0.034 6.72 2.91 14.68
12/18/2020 1:15:00 PM 0.02 32.036 0.034 6.7 2.82 14.69
12/18/2020 1:30:00 PM 0.03 32.054 0.034 6.59 2.97 14.67
12/18/2020 1:45:00 PM 0.04 32.072 0.034 6.62 2.83 14.69
12/18/2020 2:00:00 PM 0.06 32.108 0.034 6.67 2.98 14.68
12/18/2020 2:15:00 PM 0.08 32.144 0.034 6.63 2.98 14.68
12/18/2020 2:30:00 PM 0.09 32.162 0.034 6.68 2.94 14.67
12/18/2020 2:45:00 PM 0.09 32.162 0.034 6.62 2.88 14.65
12/18/2020 3:00:00 PM 0.08 32.144 0.034 6.66 3.05 14.66
12/18/2020 3:15:00 PM 0.08 32.144 0.034 6.63 3.14 14.65
12/18/2020 3:30:00 PM 0.09 32.162 0.034 6.72 2.88 14.64
12/18/2020 3:45:00 PM 0.09 32.162 0.034 6.7 2.92 14.63
12/18/2020 4:00:00 PM 0.09 32.162 0.034 6.57 3.9 14.61
12/18/2020 4:15:00 PM 0.08 32.144 0.034 6.64 3.18 14.61
12/18/2020 4:30:00 PM 0.08 32.144 0.035 6.69 3.3 14.57
12/18/2020 4:45:00 PM 0.08 32.144 0.035 6.57 2.3 14.54
12/18/2020 5:00:00 PM 0.07 32.126 0.035 6.67 2.11 14.51
12/18/2020 5:15:00 PM 0.07 32.126 0.035 6.67 2.38 14.49
12/18/2020 5:30:00 PM 0.07 32.126 0.035 6.66 2.2 14.47
12/18/2020 5:45:00 PM 0.06 32.108 0.035 6.51 2.54 14.45
12/18/2020 6:00:00 PM 0.06 32.108 0.035 6.67 2.49 14.46
12/18/2020 6:15:00 PM 0.05 32.09 0.035 6.5 2.34 14.45
12/18/2020 6:30:00 PM 0.03 32.054 0.035 6.66 2.84 14.46
12/18/2020 6:45:00 PM 0.01 32.018 0.035 6.66 2.34 14.46
12/18/2020 7:00:00 PM -0.02 31.964 0.035 6.61 2.21 14.47
12/18/2020 7:15:00 PM -0.04 31.928 0.035 6.66 2.15 14.48
12/18/2020 7:30:00 PM -0.07 31.874 0.035 6.62 2.31 14.5
12/18/2020 7:45:00 PM -0.09 31.838 0.035 6.64 2.51 14.51
12/18/2020 8:00:00 PM -0.1 31.82 0.035 6.62 2.7 14.51
12/18/2020 8:15:00 PM -0.11 31.802 0.035 6.52 2.18 14.52
12/18/2020 8:30:00 PM -0.13 31.766 0.035 6.64 2.35 14.52
12/18/2020 8:45:00 PM -0.12 31.784 0.036 6.51 2.3 14.54
12/18/2020 9:00:00 PM -0.11 31.802 0.036 6.56 2.42 14.55
12/18/2020 9:15:00 PM -0.12 31.784 0.036 6.57 2.39 14.55
12/18/2020 9:30:00 PM -0.11 31.802 0.036 6.56 2.27 14.57
12/18/2020 9:45:00 PM -0.11 31.802 0.036 6.57 2.29 14.58
12/18/2020 10:00:00 PM -0.11 31.802 0.036 6.6 2.28 14.57
12/18/2020 10:15:00 PM -0.11 31.802 0.036 6.64 2.48 14.56
12/18/2020 10:30:00 PM -0.11 31.802 0.036 6.63 2.26 14.56
12/18/2020 10:45:00 PM -0.11 31.802 0.036 6.49 2.24 14.58
12/18/2020 11:00:00 PM -0.11 31.802 0.036 6.55 2.48 14.57
12/18/2020 11:15:00 PM -0.11 31.802 0.036 6.62 2.31 14.58
12/18/2020 11:30:00 PM -0.11 31.802 0.036 6.61 2.36 14.57
12/18/2020 11:45:00 PM -0.11 31.802 0.036 6.64 2.28 14.57
12/19/2020 12:00:00 AM -0.11 31.802 0.036 6.61 2.07 14.57
12/19/2020 12:15:00 AM -0.11 31.802 0.036 6.49 2.35 14.58
12/19/2020 12:30:00 AM -0.11 31.802 0.036 6.54 2.52 14.57
12/19/2020 12:45:00 AM -0.11 31.802 0.036 6.64 2.3 14.56
12/19/2020 1:00:00 AM -0.1 31.82 0.036 6.63 2.33 14.56
12/19/2020 1:15:00 AM -0.1 31.82 0.036 6.58 2.51 14.54
12/19/2020 1:30:00 AM -0.1 31.82 0.036 6.52 2.5 14.54
12/19/2020 1:45:00 AM -0.1 31.82 0.037 6.65 2.77 14.53
12/19/2020 2:00:00 AM -0.11 31.802 0.037 6.64 4.25 14.55
12/19/2020 2:15:00 AM -0.1 31.82 0.037 6.64 2.97 14.54
12/19/2020 2:30:00 AM -0.1 31.82 0.037 6.54 2.47 14.53
12/19/2020 2:45:00 AM -0.1 31.82 0.037 6.55 2.4 14.53
12/19/2020 3:00:00 AM -0.1 31.82 0.037 6.65 3.06 14.52
12/19/2020 3:15:00 AM -0.1 31.82 0.037 6.51 3.66 14.52
12/19/2020 3:30:00 AM -0.1 31.82 0.037 6.64 3.43 14.52
12/19/2020 3:45:00 AM -0.1 31.82 0.037 6.53 3.45 14.51
12/19/2020 4:00:00 AM -0.1 31.82 0.037 6.66 3.03 14.51
12/19/2020 4:15:00 AM -0.1 31.82 0.037 6.64 2.43 14.51
12/19/2020 4:30:00 AM -0.1 31.82 0.037 6.63 2.42 14.51
12/19/2020 4:45:00 AM -0.1 31.82 0.037 6.64 2.51 14.51
12/19/2020 5:00:00 AM -0.1 31.82 0.037 6.55 2.5 14.5
12/19/2020 5:15:00 AM -0.1 31.82 0.037 6.65 2.49 14.5
12/19/2020 5:30:00 AM -0.1 31.82 0.037 6.65 2.49 14.5
12/19/2020 5:45:00 AM -0.1 31.82 0.037 6.53 2.6 14.49
12/19/2020 6:00:00 AM -0.1 31.82 0.037 6.53 2.44 14.5
12/19/2020 6:15:00 AM -0.1 31.82 0.037 6.58 2.46 14.49
12/19/2020 6:30:00 AM -0.09 31.838 0.037 6.64 2.51 14.48
12/19/2020 6:45:00 AM -0.09 31.838 0.037 6.63 2.38 14.48
12/19/2020 7:00:00 AM -0.09 31.838 0.037 6.62 2.68 14.48
12/19/2020 7:15:00 AM -0.09 31.838 0.037 6.51 2.57 14.47
12/19/2020 7:30:00 AM -0.09 31.838 0.037 6.55 2.51 14.48
12/19/2020 7:45:00 AM -0.09 31.838 0.037 6.59 2.43 14.49
12/19/2020 8:00:00 AM -0.09 31.838 0.037 6.53 2.42 14.48
12/19/2020 8:15:00 AM -0.09 31.838 0.037 6.56 2.2 14.51
12/19/2020 8:30:00 AM -0.09 31.838 0.037 6.65 2.43 14.53
12/19/2020 8:45:00 AM -0.08 31.856 0.037 6.52 2.39 14.57
12/19/2020 9:00:00 AM -0.08 31.856 0.037 6.58 2.38 14.6
12/19/2020 9:15:00 AM -0.08 31.856 0.037 6.68 2.36 14.62
12/19/2020 9:30:00 AM -0.07 31.874 0.037 6.67 2.41 14.65
12/19/2020 9:45:00 AM -0.07 31.874 0.037 6.68 2.3 14.67
12/19/2020 10:00:00 AM -0.06 31.892 0.037 6.68 2.35 14.68
12/19/2020 10:15:00 AM -0.06 31.892 0.037 6.56 2.24 14.71
12/19/2020 10:30:00 AM -0.06 31.892 0.037 6.7 2.26 14.72
12/19/2020 10:45:00 AM -0.06 31.892 0.037 6.6 3.11 14.72
12/19/2020 11:00:00 AM -0.05 31.91 0.037 6.67 3.12 14.73
12/19/2020 11:15:00 AM -0.04 31.928 0.037 6.72 2.97 14.73
12/19/2020 11:30:00 AM -0.04 31.928 0.037 6.58 2.33 14.73
12/19/2020 11:45:00 AM -0.05 31.91 0.037 6.64 2.32 14.73
12/19/2020 12:00:00 PM -0.05 31.91 0.037 6.72 2.53 14.71
12/19/2020 12:15:00 PM -0.05 31.91 0.036 6.74 2.51 14.7
12/19/2020 12:30:00 PM -0.05 31.91 0.036 6.74 2.64 14.69
12/19/2020 12:45:00 PM -0.04 31.928 0.036 6.73 2.59 14.68
12/19/2020 1:00:00 PM -0.01 31.982 0.036 6.7 2.54 14.68
12/19/2020 1:15:00 PM 0.04 32.072 0.036 6.73 2.59 14.67
12/19/2020 1:30:00 PM 0.07 32.126 0.036 6.63 2.48 14.65
12/19/2020 1:45:00 PM 0.09 32.162 0.036 6.62 2.58 14.65
12/19/2020 2:00:00 PM 0.1 32.18 0.036 6.74 2.57 14.64
12/19/2020 2:15:00 PM 0.11 32.198 0.036 6.6 2.61 14.62
12/19/2020 2:30:00 PM 0.13 32.234 0.036 6.75 2.62 14.61
12/19/2020 2:45:00 PM 0.16 32.288 0.036 6.59 2.65 14.59
12/19/2020 3:00:00 PM 0.18 32.324 0.036 6.65 2.81 14.57
12/19/2020 3:15:00 PM 0.2 32.36 0.036 6.75 2.52 14.55
12/19/2020 3:30:00 PM 0.22 32.396 0.036 6.65 2.59 14.54
12/19/2020 3:45:00 PM 0.23 32.414 0.036 6.63 2.55 14.52
12/19/2020 4:00:00 PM 0.24 32.432 0.036 6.65 2.22 14.5
12/19/2020 4:15:00 PM 0.24 32.432 0.036 6.73 3.62 14.48
12/19/2020 4:30:00 PM 0.23 32.414 0.036 6.71 2.5 14.45
12/19/2020 4:45:00 PM 0.23 32.414 0.036 6.62 2.82 14.41
12/19/2020 5:00:00 PM 0.23 32.414 0.036 6.64 2.1 14.38
12/19/2020 5:15:00 PM 0.23 32.414 0.036 6.58 5.29 14.34
12/19/2020 5:30:00 PM 0.24 32.432 0.036 6.69 2.26 14.32
12/19/2020 5:45:00 PM 0.24 32.432 0.036 6.53 2.62 14.3
12/19/2020 6:00:00 PM 0.24 32.432 0.036 6.58 2.67 14.3
12/19/2020 6:15:00 PM 0.24 32.432 0.036 6.58 2.22 14.29
12/19/2020 6:30:00 PM 0.25 32.45 0.036 6.57 2.29 14.28
12/19/2020 6:45:00 PM 0.25 32.45 0.036 6.57 2.42 14.28
12/19/2020 7:00:00 PM 0.25 32.45 0.036 6.57 2.6 14.28
12/19/2020 7:15:00 PM 0.25 32.45 0.036 6.57 2.48 14.28
12/19/2020 7:30:00 PM 0.26 32.468 0.036 6.57 2.28 14.27
12/19/2020 7:45:00 PM 0.26 32.468 0.036 6.57 2.24 14.27
12/19/2020 8:00:00 PM 0.27 32.486 0.036 6.67 2.45 14.27
12/19/2020 8:15:00 PM 0.26 32.468 0.036 6.57 2.41 14.27
12/19/2020 8:30:00 PM 0.26 32.468 0.036 6.67 2.4 14.27
12/19/2020 8:45:00 PM 0.27 32.486 0.036 6.49 2.45 14.27
12/19/2020 9:00:00 PM 0.27 32.486 0.036 6.66 2.45 14.25
12/19/2020 9:15:00 PM 0.27 32.486 0.036 6.66 2.43 14.25
12/19/2020 9:30:00 PM 0.27 32.486 0.036 6.61 2.46 14.25
12/19/2020 9:45:00 PM 0.27 32.486 0.036 6.66 2.5 14.25
12/19/2020 10:00:00 PM 0.28 32.504 0.036 6.52 2.4 14.24
12/19/2020 10:15:00 PM 0.29 32.522 0.036 6.67 2.56 14.25
12/19/2020 10:30:00 PM 0.29 32.522 0.036 6.49 2.44 14.24
12/19/2020 10:45:00 PM 0.3 32.54 0.036 6.67 2.4 14.24
12/19/2020 11:00:00 PM 0.3 32.54 0.036 6.61 2.72 14.22
12/19/2020 11:15:00 PM 0.3 32.54 0.036 6.61 2.36 14.22
12/19/2020 11:30:00 PM 0.3 32.54 0.036 6.54 2.33 14.23
12/19/2020 11:45:00 PM 0.31 32.558 0.036 6.57 2.29 14.22
12/20/2020 12:00:00 AM 0.31 32.558 0.036 6.61 2.42 14.23
12/20/2020 12:15:00 AM 0.3 32.54 0.036 6.64 2.33 14.22
12/20/2020 12:30:00 AM 0.28 32.504 0.036 6.6 2.37 14.23
12/20/2020 12:45:00 AM 0.28 32.504 0.036 6.56 2.33 14.22
12/20/2020 1:00:00 AM 0.28 32.504 0.036 6.55 2.33 14.22
12/20/2020 1:15:00 AM 0.29 32.522 0.036 6.57 2.38 14.23
12/20/2020 1:30:00 AM 0.3 32.54 0.036 6.61 2.31 14.22
12/20/2020 1:45:00 AM 0.3 32.54 0.036 6.55 2.32 14.22
12/20/2020 2:00:00 AM 0.31 32.558 0.036 6.66 2.36 14.22
12/20/2020 2:15:00 AM 0.32 32.576 0.036 6.5 2.38 14.21
12/20/2020 2:30:00 AM 0.33 32.594 0.036 6.66 2.28 14.2
12/20/2020 2:45:00 AM 0.33 32.594 0.036 6.64 2.25 14.21
12/20/2020 3:00:00 AM 0.34 32.612 0.036 6.52 2.28 14.2
12/20/2020 3:15:00 AM 0.34 32.612 0.036 6.56 2.26 14.2
12/20/2020 3:30:00 AM 0.35 32.63 0.036 6.62 2.29 14.19
12/20/2020 3:45:00 AM 0.35 32.63 0.036 6.67 2.28 14.19
12/20/2020 4:00:00 AM 0.34 32.612 0.036 6.65 2.27 14.19
12/20/2020 4:15:00 AM 0.34 32.612 0.036 6.66 2.26 14.19
12/20/2020 4:30:00 AM 0.35 32.63 0.036 6.49 2.31 14.18
12/20/2020 4:45:00 AM 0.35 32.63 0.036 6.56 2.34 14.18
12/20/2020 5:00:00 AM 0.36 32.648 0.036 6.57 2.55 14.18
12/20/2020 5:15:00 AM 0.36 32.648 0.036 6.65 2.47 14.17
12/20/2020 5:30:00 AM 0.34 32.612 0.036 6.53 2.5 14.17
12/20/2020 5:45:00 AM 0.3 32.54 0.036 6.57 2.6 14.17
12/20/2020 6:00:00 AM 0.29 32.522 0.036 6.66 2.31 14.17
12/20/2020 6:15:00 AM 0.3 32.54 0.036 6.64 2.76 14.17
12/20/2020 6:30:00 AM 0.3 32.54 0.036 6.52 2.37 14.18
12/20/2020 6:45:00 AM 0.29 32.522 0.036 6.65 2.32 14.18
12/20/2020 7:00:00 AM 0.29 32.522 0.036 6.53 2.34 14.18
12/20/2020 7:15:00 AM 0.3 32.54 0.036 6.66 2.31 14.17
12/20/2020 7:30:00 AM 0.3 32.54 0.036 6.5 2.49 14.17
12/20/2020 7:45:00 AM 0.3 32.54 0.036 6.64 2.25 14.17
12/20/2020 8:00:00 AM 0.25 32.45 0.036 6.62 2.35 14.18
12/20/2020 8:15:00 AM 0.16 32.288 0.036 6.54 2.32 14.2
12/20/2020 8:30:00 AM 0.12 32.216 0.036 6.58 2.3 14.24
12/20/2020 8:45:00 AM 0.13 32.234 0.036 6.67 2.37 14.27
12/20/2020 9:00:00 AM 0.12 32.216 0.036 6.67 2.3 14.3
12/20/2020 9:15:00 AM 0.13 32.234 0.036 6.51 2.27 14.34
12/20/2020 9:30:00 AM 0.14 32.252 0.036 6.59 2.25 14.36
12/20/2020 9:45:00 AM 0.18 32.324 0.036 6.6 2.25 14.38
12/20/2020 10:00:00 AM 0.22 32.396 0.036 6.62 2.25 14.4
12/20/2020 10:15:00 AM 0.26 32.468 0.036 6.62 2.24 14.41
12/20/2020 10:30:00 AM 0.33 32.594 0.036 6.64 2.28 14.41
12/20/2020 10:45:00 AM 0.39 32.702 0.036 6.63 2.27 14.41
12/20/2020 11:00:00 AM 0.45 32.81 0.036 6.64 2.3 14.39
12/20/2020 11:15:00 AM 0.48 32.864 0.036 6.64 2.21 14.38
12/20/2020 11:30:00 AM 0.51 32.918 0.036 6.64 2.23 14.36
12/20/2020 11:45:00 AM 0.52 32.936 0.036 6.75 2.2 14.34
12/20/2020 12:00:00 PM 0.56 33.008 0.036 6.59 2.23 14.34
12/20/2020 12:15:00 PM 0.59 33.062 0.036 6.74 2.23 14.33
12/20/2020 12:30:00 PM 0.59 33.062 0.036 6.73 2.26 14.31
12/20/2020 12:45:00 PM 0.62 33.116 0.036 6.68 2.46 14.28
12/20/2020 1:00:00 PM 0.63 33.134 0.036 6.73 2.22 14.27
12/20/2020 1:15:00 PM 0.64 33.152 0.036 6.73 2.26 14.26
12/20/2020 1:30:00 PM 0.65 33.17 0.036 6.66 2.22 14.25
12/20/2020 1:45:00 PM 0.68 33.224 0.036 6.72 2.28 14.24
12/20/2020 2:00:00 PM 0.7 33.26 0.036 6.74 2.26 14.22
12/20/2020 2:15:00 PM 0.7 33.26 0.036 6.67 2.38 14.21
12/20/2020 2:30:00 PM 0.73 33.314 0.036 6.68 2.26 14.18
12/20/2020 2:45:00 PM 0.73 33.314 0.036 6.6 2.28 14.18
12/20/2020 3:00:00 PM 0.73 33.314 0.036 6.66 2.07 14.18
12/20/2020 3:15:00 PM 0.72 33.296 0.036 6.73 9.88 14.16
12/20/2020 3:30:00 PM 0.74 33.332 0.036 6.66 2.06 14.14
12/20/2020 3:45:00 PM 0.76 33.368 0.036 6.71 2.07 14.12
12/20/2020 4:00:00 PM 0.77 33.386 0.036 6.55 2.18 14.11
12/20/2020 4:15:00 PM 0.78 33.404 0.036 6.62 2.24 14.08
12/20/2020 4:30:00 PM 0.78 33.404 0.036 6.7 2.12 14.05
12/20/2020 4:45:00 PM 0.77 33.386 0.036 6.58 2.39 14.02
12/20/2020 5:00:00 PM 0.77 33.386 0.036 6.59 2.16 14
12/20/2020 5:15:00 PM 0.79 33.422 0.036 6.69 2.58 13.98
12/20/2020 5:30:00 PM 0.81 33.458 0.036 6.6 2.23 13.96
12/20/2020 5:45:00 PM 0.81 33.458 0.036 6.69 3.44 13.94
12/20/2020 6:00:00 PM 0.82 33.476 0.036 6.67 2.36 13.94
12/20/2020 6:15:00 PM 0.83 33.494 0.036 6.53 2.41 13.94
12/20/2020 6:30:00 PM 0.84 33.512 0.036 6.67 2.36 13.92
12/20/2020 6:45:00 PM 0.85 33.53 0.036 6.54 2.29 13.91
12/20/2020 7:00:00 PM 0.85 33.53 0.036 6.63 2.29 13.91
12/20/2020 7:15:00 PM 0.88 33.584 0.036 6.68 2.06 13.91
12/20/2020 7:30:00 PM 0.89 33.602 0.036 6.57 2.13 13.9
12/20/2020 7:45:00 PM 0.9 33.62 0.036 6.67 2.2 13.9
12/20/2020 8:00:00 PM 0.91 33.638 0.036 6.66 2.19 13.89
12/20/2020 8:15:00 PM 0.92 33.656 0.036 6.52 2.14 13.88
12/20/2020 8:30:00 PM 0.94 33.692 0.036 6.67 2.12 13.88
12/20/2020 8:45:00 PM 0.96 33.728 0.036 6.67 2.12 13.87
12/20/2020 9:00:00 PM 0.97 33.746 0.036 6.53 2.17 13.86
12/20/2020 9:15:00 PM 0.98 33.764 0.036 6.68 2.15 13.87
12/20/2020 9:30:00 PM 0.97 33.746 0.036 6.55 2.45 13.86
12/20/2020 9:45:00 PM 0.98 33.764 0.036 6.67 2.17 13.86
12/20/2020 10:00:00 PM 1 33.8 0.036 6.6 2.18 13.85
12/20/2020 10:15:00 PM 1.01 33.818 0.036 6.67 2.17 13.84
12/20/2020 10:30:00 PM 1.02 33.836 0.036 6.66 2.21 13.84
12/20/2020 10:45:00 PM 1.03 33.854 0.036 6.63 2.22 13.83
12/20/2020 11:00:00 PM 1.04 33.872 0.036 6.67 2.24 13.83
12/20/2020 11:15:00 PM 1.04 33.872 0.036 6.65 2.15 13.82
12/20/2020 11:30:00 PM 1.06 33.908 0.036 6.64 2.26 13.82
12/20/2020 11:45:00 PM 1.06 33.908 0.036 6.58 2.25 13.82
12/21/2020 12:00:00 AM 1.06 33.908 0.036 6.57 2.29 13.81
12/21/2020 12:15:00 AM 1.04 33.872 0.036 6.67 2.26 13.82
12/21/2020 12:30:00 AM 1.05 33.89 0.036 6.65 2.2 13.81
12/21/2020 12:45:00 AM 1.08 33.944 0.036 6.66 2.2 13.81
12/21/2020 1:00:00 AM 1.09 33.962 0.036 6.64 2.3 13.8
12/21/2020 1:15:00 AM 1.09 33.962 0.036 6.6 2.19 13.8
12/21/2020 1:30:00 AM 1.09 33.962 0.036 6.53 2.23 13.8
12/21/2020 1:45:00 AM 1.11 33.998 0.036 6.67 2.2 13.8
12/21/2020 2:00:00 AM 1.1 33.98 0.036 6.65 2.4 13.8
12/21/2020 2:15:00 AM 1.07 33.926 0.036 6.66 2.21 13.81
12/21/2020 2:30:00 AM 1.08 33.944 0.036 6.59 2.21 13.81
12/21/2020 2:45:00 AM 1.07 33.926 0.036 6.67 2.66 13.8
12/21/2020 3:00:00 AM 1.08 33.944 0.036 6.64 2.25 13.8
12/21/2020 3:15:00 AM 1.09 33.962 0.036 6.65 2.23 13.8
12/21/2020 3:30:00 AM 1.1 33.98 0.036 6.51 2.26 13.79
12/21/2020 3:45:00 AM 1.11 33.998 0.036 6.67 2.43 13.79
12/21/2020 4:00:00 AM 1.12 34.016 0.036 6.64 2.24 13.78
12/21/2020 4:15:00 AM 1.13 34.034 0.036 6.66 2.29 13.78
12/21/2020 4:30:00 AM 1.12 34.016 0.036 6.67 2.29 13.77
12/21/2020 4:45:00 AM 1.12 34.016 0.036 6.67 2.33 13.78
12/21/2020 5:00:00 AM 1.13 34.034 0.036 6.65 2.34 13.78
12/21/2020 5:15:00 AM 1.14 34.052 0.036 6.66 4.9 13.78
12/21/2020 5:30:00 AM 1.14 34.052 0.036 6.66 2.19 13.77
12/21/2020 5:45:00 AM 1.15 34.07 0.036 6.63 2.36 13.77
12/21/2020 6:00:00 AM 1.14 34.052 0.036 6.66 2.29 13.77
12/21/2020 6:15:00 AM 1.14 34.052 0.036 6.67 2.21 13.77
12/21/2020 6:30:00 AM 1.13 34.034 0.036 6.66 2.16 13.77
12/21/2020 6:45:00 AM 1.12 34.016 0.036 6.65 2.16 13.77
12/21/2020 7:00:00 AM 1.1 33.98 0.036 6.65 2.23 13.78
12/21/2020 7:15:00 AM 1.1 33.98 0.036 6.65 2.24 13.77
12/21/2020 7:30:00 AM 1.11 33.998 0.036 6.66 2.25 13.78
12/21/2020 7:45:00 AM 1.1 33.98 0.036 6.65 3.13 13.79
12/21/2020 8:00:00 AM 1.11 33.998 0.036 6.63 2.16 13.81
12/21/2020 8:15:00 AM 1.11 33.998 0.036 6.68 2.06 13.84
12/21/2020 8:30:00 AM 1.13 34.034 0.036 6.6 2.01 13.88
12/21/2020 8:45:00 AM 1.16 34.088 0.036 6.68 1.98 13.92
12/21/2020 9:00:00 AM 1.19 34.142 0.036 6.64 2.05 13.94
12/21/2020 9:15:00 AM 1.22 34.196 0.036 6.7 2.04 13.97
12/21/2020 9:30:00 AM 1.24 34.232 0.036 6.72 2.06 13.98
12/21/2020 9:45:00 AM 1.27 34.286 0.036 6.73 2.1 13.98
12/21/2020 10:00:00 AM 1.3 34.34 0.036 6.71 2.09 13.98
12/21/2020 10:15:00 AM 1.32 34.376 0.036 6.74 2.31 13.97
12/21/2020 10:30:00 AM 1.36 34.448 0.036 6.73 2.32 13.98
12/21/2020 10:45:00 AM 1.46 34.628 0.035 7.19 1.54 13.87
12/21/2020 11:00:00 AM 1.48 34.664 0.035 7.02 1.43 13.87
12/21/2020 11:15:00 AM 1.49 34.682 0.035 7.01 1.44 13.86
12/21/2020 11:30:00 AM 1.52 34.736 0.035 7.01 1.45 13.85
12/21/2020 11:45:00 AM 1.57 34.826 0.035 7.01 1.46 13.85
12/21/2020 12:00:00 PM 1.63 34.934 0.035 7.01 1.45 13.83
12/21/2020 12:15:00 PM 1.69 35.042 0.035 7.01 1.41 13.81
12/21/2020 12:30:00 PM 1.72 35.096 0.035 7.02 1.45 13.79
12/21/2020 12:45:00 PM 1.74 35.132 0.035 7.01 1.43 13.77
12/21/2020 1:00:00 PM 1.73 35.114 0.035 7.01 1.43 13.77
12/21/2020 1:15:00 PM 1.77 35.186 0.035 7.02 1.47 13.76
12/21/2020 1:30:00 PM 1.81 35.258 0.035 7.01 1.51 13.74
12/21/2020 1:45:00 PM 1.85 35.33 0.035 7.02 1.44 13.73
12/21/2020 2:00:00 PM 1.88 35.384 0.035 7.02 1.45 13.71
12/21/2020 2:15:00 PM 1.88 35.384 0.035 7.03 1.43 13.69
12/21/2020 2:30:00 PM 1.88 35.384 0.035 7.02 1.46 13.68
12/21/2020 2:45:00 PM 1.89 35.402 0.035 7.02 1.46 13.67
12/21/2020 3:00:00 PM 1.87 35.366 0.035 7.02 1.47 13.65
12/21/2020 3:15:00 PM 1.86 35.348 0.035 7.02 1.45 13.64
12/21/2020 3:30:00 PM 1.86 35.348 0.035 7.02 1.46 13.64
12/21/2020 3:45:00 PM 1.87 35.366 0.035 7.02 1.47 13.62
12/21/2020 4:00:00 PM 1.85 35.33 0.035 7.01 1.48 13.58
12/21/2020 4:15:00 PM 1.83 35.294 0.035 7 1.47 13.54
12/21/2020 4:30:00 PM 1.82 35.276 0.035 6.99 1.46 13.5
12/21/2020 4:45:00 PM 1.81 35.258 0.035 6.99 1.51 13.46
12/21/2020 5:00:00 PM 1.8 35.24 0.035 6.98 1.84 13.43
12/21/2020 5:15:00 PM 1.78 35.204 0.035 6.97 1.56 13.42
12/21/2020 5:30:00 PM 1.77 35.186 0.035 6.97 3 13.4
12/21/2020 5:45:00 PM 1.75 35.15 0.035 6.95 3.9 13.4
12/21/2020 6:00:00 PM 1.75 35.15 0.035 6.96 3.91 13.4
12/21/2020 6:15:00 PM 1.75 35.15 0.035 6.97 4.62 13.39
12/21/2020 6:30:00 PM 1.75 35.15 0.035 6.96 3.9 13.39
12/21/2020 6:45:00 PM 1.75 35.15 0.035 6.97 6.48 13.39
12/21/2020 7:00:00 PM 1.74 35.132 0.035 6.96 1.51 13.39
12/21/2020 7:15:00 PM 1.73 35.114 0.035 6.95 1.49 13.39
12/21/2020 7:30:00 PM 1.73 35.114 0.035 6.96 3.54 13.39
12/21/2020 7:45:00 PM 1.73 35.114 0.035 6.96 4.49 13.39
12/21/2020 8:00:00 PM 1.72 35.096 0.035 6.96 4.77 13.39
12/21/2020 8:15:00 PM 1.71 35.078 0.035 6.95 5.19 13.4
12/21/2020 8:30:00 PM 1.7 35.06 0.035 6.95 5.18 13.4
12/21/2020 8:45:00 PM 1.7 35.06 0.035 6.96 2.72 13.4
12/21/2020 9:00:00 PM 1.71 35.078 0.035 6.95 3.68 13.4
12/21/2020 9:15:00 PM 1.71 35.078 0.035 6.96 5.18 13.39
12/21/2020 9:30:00 PM 1.71 35.078 0.035 6.95 4.01 13.39
12/21/2020 9:45:00 PM 1.7 35.06 0.035 6.95 4.14 13.4
12/21/2020 10:00:00 PM 1.71 35.078 0.035 6.95 3.38 13.4
12/21/2020 10:15:00 PM 1.71 35.078 0.035 6.95 4.26 13.39
12/21/2020 10:30:00 PM 1.71 35.078 0.035 6.95 3.93 13.39
12/21/2020 10:45:00 PM 1.71 35.078 0.035 6.95 4.62 13.39
12/21/2020 11:00:00 PM 1.71 35.078 0.035 6.95 4.86 13.39
12/21/2020 11:15:00 PM 1.71 35.078 0.035 6.94 3.44 13.39
12/21/2020 11:30:00 PM 1.71 35.078 0.035 6.95 3.54 13.39
12/21/2020 11:45:00 PM 1.72 35.096 0.035 6.96 1.48 13.39
12/22/2020 12:00:00 AM 1.72 35.096 0.035 6.95 5.22 13.38
12/22/2020 12:15:00 AM 1.72 35.096 0.035 6.95 5.33 13.38
12/22/2020 12:30:00 AM 1.72 35.096 0.035 6.95 5.33 13.37
12/22/2020 12:45:00 AM 1.72 35.096 0.035 6.96 4 13.37
12/22/2020 1:00:00 AM 1.73 35.114 0.035 6.95 1.47 13.37
12/22/2020 1:15:00 AM 1.73 35.114 0.035 6.95 1.51 13.37
12/22/2020 1:30:00 AM 1.72 35.096 0.035 6.95 1.51 13.37
12/22/2020 1:45:00 AM 1.71 35.078 0.035 6.95 1.52 13.37
12/22/2020 2:00:00 AM 1.7 35.06 0.035 6.95 1.59 13.37
12/22/2020 2:15:00 AM 1.7 35.06 0.035 6.95 1.5 13.37
12/22/2020 2:30:00 AM 1.71 35.078 0.035 6.95 1.5 13.37
12/22/2020 2:45:00 AM 1.72 35.096 0.035 6.95 1.48 13.37
12/22/2020 3:00:00 AM 1.72 35.096 0.035 6.94 1.51 13.37
12/22/2020 3:15:00 AM 1.72 35.096 0.035 6.95 1.54 13.38
12/22/2020 3:30:00 AM 1.72 35.096 0.035 6.95 1.52 13.37
12/22/2020 3:45:00 AM 1.72 35.096 0.035 6.95 1.52 13.38
12/22/2020 4:00:00 AM 1.73 35.114 0.035 6.95 1.52 13.38
12/22/2020 4:15:00 AM 1.73 35.114 0.035 6.95 1.52 13.37
12/22/2020 4:30:00 AM 1.74 35.132 0.035 6.95 1.54 13.38
12/22/2020 4:45:00 AM 1.74 35.132 0.035 6.95 1.58 13.38
12/22/2020 5:00:00 AM 1.74 35.132 0.035 6.95 1.52 13.38
12/22/2020 5:15:00 AM 1.75 35.15 0.035 6.95 1.52 13.38
12/22/2020 5:30:00 AM 1.75 35.15 0.035 6.95 1.53 13.38
12/22/2020 5:45:00 AM 1.75 35.15 0.035 6.95 1.55 13.38
12/22/2020 6:00:00 AM 1.75 35.15 0.035 6.95 1.51 13.39
12/22/2020 6:15:00 AM 1.74 35.132 0.035 6.95 1.49 13.39
12/22/2020 6:30:00 AM 1.72 35.096 0.035 6.95 1.52 13.39
12/22/2020 6:45:00 AM 1.7 35.06 0.035 6.95 1.5 13.4
12/22/2020 7:00:00 AM 1.7 35.06 0.035 6.95 1.53 13.4
12/22/2020 7:15:00 AM 1.72 35.096 0.035 6.95 1.51 13.41
12/22/2020 7:30:00 AM 1.73 35.114 0.035 6.95 1.49 13.41
12/22/2020 7:45:00 AM 1.74 35.132 0.035 6.95 1.53 13.42
12/22/2020 8:00:00 AM 1.75 35.15 0.035 6.95 3.97 13.43
12/22/2020 8:15:00 AM 1.75 35.15 0.035 6.96 4.21 13.47
12/22/2020 8:30:00 AM 1.76 35.168 0.035 6.97 4.51 13.52
12/22/2020 8:45:00 AM 1.78 35.204 0.035 6.97 4.71 13.56
12/22/2020 9:00:00 AM 1.81 35.258 0.035 6.99 4.27 13.59
12/22/2020 9:15:00 AM 1.86 35.348 0.035 7 2.76 13.63
12/22/2020 9:30:00 AM 1.89 35.402 0.035 7 3.32 13.64
12/22/2020 9:45:00 AM 1.9 35.42 0.035 7.01 3.26 13.63
12/22/2020 10:00:00 AM 1.92 35.456 0.035 7.01 3.3 13.64
12/22/2020 10:15:00 AM 1.96 35.528 0.035 7.02 3.33 13.67
12/22/2020 10:30:00 AM 2.01 35.618 0.035 7.02 3.13 13.68
12/22/2020 10:45:00 AM 2.05 35.69 0.035 7.03 3.48 13.67
12/22/2020 11:00:00 AM 2.09 35.762 0.035 7.04 3.84 13.67
12/22/2020 11:15:00 AM 2.18 35.924 0.035 7.05 3.59 13.67
12/22/2020 11:30:00 AM 2.27 36.086 0.035 7.06 3.55 13.66
12/22/2020 11:45:00 AM 2.28 36.104 0.035 7.06 3.93 13.64
12/22/2020 12:00:00 PM 2.27 36.086 0.035 7.06 3.44 13.63
12/22/2020 12:15:00 PM 2.25 36.05 0.035 7.06 3.37 13.61
12/22/2020 12:30:00 PM 2.24 36.032 0.035 7.06 3.61 13.61
12/22/2020 12:45:00 PM 2.24 36.032 0.035 7.06 2.89 13.62
12/22/2020 1:00:00 PM 2.27 36.086 0.035 7.06 3.67 13.62
12/22/2020 1:15:00 PM 2.32 36.176 0.035 7.07 3.3 13.61
12/22/2020 1:30:00 PM 2.35 36.23 0.035 7.08 4.68 13.6
12/22/2020 1:45:00 PM 2.37 36.266 0.035 7.07 4.57 13.59
12/22/2020 2:00:00 PM 2.37 36.266 0.035 7.07 4.34 13.57
12/22/2020 2:15:00 PM 2.37 36.266 0.035 7.06 4.85 13.56
12/22/2020 2:30:00 PM 2.36 36.248 0.035 7.06 4.65 13.55
12/22/2020 2:45:00 PM 2.35 36.23 0.035 7.06 5.01 13.55
12/22/2020 3:00:00 PM 2.36 36.248 0.035 7.06 4.36 13.55
12/22/2020 3:15:00 PM 2.36 36.248 0.035 7.07 4.08 13.54
12/22/2020 3:30:00 PM 2.36 36.248 0.035 7.05 6.21 13.52
12/22/2020 3:45:00 PM 2.35 36.23 0.035 7.05 3.5 13.51
12/22/2020 4:00:00 PM 2.34 36.212 0.035 7.04 3.46 13.5
12/22/2020 4:15:00 PM 2.34 36.212 0.035 7.04 3.51 13.49
12/22/2020 4:30:00 PM 2.33 36.194 0.035 7.04 3.47 13.47
12/22/2020 4:45:00 PM 2.31 36.158 0.035 7.03 3.42 13.44
12/22/2020 5:00:00 PM 2.29 36.122 0.035 7.03 3.27 13.41
12/22/2020 5:15:00 PM 2.24 36.032 0.035 7.01 3.55 13.38
12/22/2020 5:30:00 PM 2.23 36.014 0.035 7.01 3.11 13.38
12/22/2020 5:45:00 PM 2.22 35.996 0.035 7.01 3.12 13.38
12/22/2020 6:00:00 PM 2.22 35.996 0.035 7 3.27 13.38
12/22/2020 6:15:00 PM 2.22 35.996 0.035 7 3.35 13.38
12/22/2020 6:30:00 PM 2.22 35.996 0.035 7 3.19 13.38
12/22/2020 6:45:00 PM 2.21 35.978 0.035 7 3.3 13.39
12/22/2020 7:00:00 PM 2.2 35.96 0.035 7 3.21 13.4
12/22/2020 7:15:00 PM 2.19 35.942 0.035 7 3.45 13.4
12/22/2020 7:30:00 PM 2.2 35.96 0.035 6.99 3.73 13.4
12/22/2020 7:45:00 PM 2.19 35.942 0.035 7 3.76 13.41
12/22/2020 8:00:00 PM 2.18 35.924 0.035 6.99 1.63 13.41
12/22/2020 8:15:00 PM 2.17 35.906 0.035 7 2.75 13.42
12/22/2020 8:30:00 PM 2.17 35.906 0.035 7 10.94 13.43
12/22/2020 8:45:00 PM 2.17 35.906 0.035 6.99 7.35 13.43
12/22/2020 9:00:00 PM 2.17 35.906 0.036 7 1.65 13.43
12/22/2020 9:15:00 PM 2.17 35.906 0.036 6.99 1.63 13.43
12/22/2020 9:30:00 PM 2.17 35.906 0.036 6.99 1.67 13.44
12/22/2020 9:45:00 PM 2.17 35.906 0.036 6.99 1.64 13.44
12/22/2020 10:00:00 PM 2.16 35.888 0.036 6.99 1.66 13.44
12/22/2020 10:15:00 PM 2.17 35.906 0.036 6.99 1.71 13.44
12/22/2020 10:30:00 PM 2.16 35.888 0.036 6.99 1.64 13.44
12/22/2020 10:45:00 PM 2.15 35.87 0.036 6.99 1.66 13.45
12/22/2020 11:00:00 PM 2.12 35.816 0.036 6.99 1.63 13.45
12/22/2020 11:15:00 PM 2.1 35.78 0.036 6.99 1.65 13.45
12/22/2020 11:30:00 PM 2.09 35.762 0.036 6.99 1.73 13.46
12/22/2020 11:45:00 PM 2.08 35.744 0.036 6.99 1.67 13.46
12/23/2020 12:00:00 AM 2.08 35.744 0.036 6.99 1.67 13.47
12/23/2020 12:15:00 AM 2.09 35.762 0.036 6.99 1.83 13.47
12/23/2020 12:30:00 AM 2.09 35.762 0.036 6.99 1.78 13.47
12/23/2020 12:45:00 AM 2.09 35.762 0.036 6.99 1.79 13.48
12/23/2020 1:00:00 AM 2.08 35.744 0.036 6.99 1.83 13.48
12/23/2020 1:15:00 AM 2.07 35.726 0.036 6.99 1.78 13.48
12/23/2020 1:30:00 AM 2.07 35.726 0.036 6.99 1.78 13.48
12/23/2020 1:45:00 AM 2.06 35.708 0.036 6.99 1.75 13.48
12/23/2020 2:00:00 AM 2.06 35.708 0.036 6.99 1.69 13.48
12/23/2020 2:15:00 AM 2.06 35.708 0.036 6.99 1.66 13.49
12/23/2020 2:30:00 AM 2.06 35.708 0.036 6.99 1.64 13.49
12/23/2020 2:45:00 AM 2.06 35.708 0.036 6.98 1.61 13.49
12/23/2020 3:00:00 AM 2.06 35.708 0.036 6.98 1.64 13.5
12/23/2020 3:15:00 AM 2.06 35.708 0.036 6.99 1.63 13.5
12/23/2020 3:30:00 AM 2.05 35.69 0.036 6.98 1.64 13.5
12/23/2020 3:45:00 AM 2.04 35.672 0.036 6.98 1.63 13.5
12/23/2020 4:00:00 AM 2.01 35.618 0.036 6.98 1.64 13.51
12/23/2020 4:15:00 AM 1.97 35.546 0.036 6.98 1.62 13.51
12/23/2020 4:30:00 AM 1.94 35.492 0.036 6.98 1.6 13.53
12/23/2020 4:45:00 AM 1.91 35.438 0.036 6.98 1.65 13.54
12/23/2020 5:00:00 AM 1.88 35.384 0.036 6.98 1.72 13.55
12/23/2020 5:15:00 AM 1.85 35.33 0.036 6.98 1.69 13.56
12/23/2020 5:30:00 AM 1.82 35.276 0.036 6.98 1.68 13.57
12/23/2020 5:45:00 AM 1.8 35.24 0.036 6.98 1.75 13.58
12/23/2020 6:00:00 AM 1.78 35.204 0.036 6.98 1.71 13.59
12/23/2020 6:15:00 AM 1.77 35.186 0.036 6.98 1.7 13.6
12/23/2020 6:30:00 AM 1.75 35.15 0.036 6.98 1.63 13.61
12/23/2020 6:45:00 AM 1.74 35.132 0.036 6.98 1.64 13.61
12/23/2020 7:00:00 AM 1.71 35.078 0.036 6.98 1.68 13.63
12/23/2020 7:15:00 AM 1.69 35.042 0.036 7.01 2.31 13.64
12/23/2020 7:30:00 AM 1.68 35.024 0.036 6.98 2.25 13.64
12/23/2020 7:45:00 AM 1.68 35.024 0.036 6.98 2.27 13.66
12/23/2020 8:00:00 AM 1.66 34.988 0.036 6.99 2.29 13.69
12/23/2020 8:15:00 AM 1.67 35.006 0.036 7 2.28 13.74
12/23/2020 8:30:00 AM 1.68 35.024 0.036 7.01 2.3 13.8
12/23/2020 8:45:00 AM 1.68 35.024 0.036 7.02 2.33 13.84
12/23/2020 9:00:00 AM 1.69 35.042 0.036 7.04 2.29 13.88
12/23/2020 9:15:00 AM -99999.99 -179968 -99999.99 -99999.99 -99999.99 -99999.99
12/23/2020 9:30:00 AM 1.73 35.114 0.036 7.05 2.66 13.92
12/23/2020 9:45:00 AM 1.75 35.15 0.036 7.06 2.57 13.93
12/23/2020 10:00:00 AM 1.76 35.168 0.036 7.06 3 13.94
12/23/2020 10:15:00 AM 1.79 35.222 0.036 7.06 3.8 13.94
12/23/2020 10:30:00 AM 1.84 35.312 0.036 7.07 2.82 13.93
12/23/2020 10:45:00 AM 1.9 35.42 0.036 7.07 1.94 13.92
12/23/2020 11:00:00 AM 1.95 35.51 0.036 7.07 2.26 13.9
12/23/2020 11:15:00 AM 2.01 35.618 0.036 7.07 1.67 13.89
12/23/2020 11:30:00 AM 2.09 35.762 0.035 7.08 1.52 13.87
12/23/2020 11:45:00 AM 2.17 35.906 0.035 7.08 1.54 13.84
12/23/2020 12:00:00 PM 2.25 36.05 0.035 7.08 1.53 13.81
12/23/2020 12:15:00 PM 2.32 36.176 0.035 7.07 1.56 13.78
12/23/2020 12:30:00 PM 2.39 36.302 0.035 7.08 1.53 13.75
12/23/2020 12:45:00 PM 2.45 36.41 0.035 7.08 1.54 13.73
12/23/2020 1:00:00 PM 2.53 36.554 0.035 7.08 1.55 13.7
12/23/2020 1:15:00 PM 2.59 36.662 0.035 7.08 1.55 13.67
12/23/2020 1:30:00 PM 2.64 36.752 0.035 7.09 1.53 13.64
12/23/2020 1:45:00 PM 2.71 36.878 0.035 7.09 1.54 13.62
12/23/2020 2:00:00 PM 2.78 37.004 0.035 7.09 1.53 13.59
12/23/2020 2:15:00 PM 2.79 37.022 0.035 7.08 1.55 13.56
12/23/2020 2:30:00 PM 2.82 37.076 0.035 7.09 1.51 13.55
12/23/2020 2:45:00 PM 2.85 37.13 0.035 7.09 1.51 13.53
12/23/2020 3:00:00 PM 2.87 37.166 0.035 7.09 1.52 13.51
12/23/2020 3:15:00 PM 2.84 37.112 0.035 7.08 1.53 13.49
12/23/2020 3:30:00 PM 2.78 37.004 0.035 7.08 1.54 13.48
12/23/2020 3:45:00 PM 2.73 36.914 0.035 7.08 1.55 13.47
12/23/2020 4:00:00 PM 2.68 36.824 0.035 7.07 1.53 13.45
12/23/2020 4:15:00 PM 2.63 36.734 0.035 7.07 1.53 13.44
12/23/2020 4:30:00 PM 2.58 36.644 0.036 7.06 1.54 13.42
12/23/2020 4:45:00 PM 2.54 36.572 0.036 7.05 1.54 13.39
12/23/2020 5:00:00 PM 2.5 36.5 0.036 7.04 1.55 13.35
12/23/2020 5:15:00 PM 2.47 36.446 0.036 7.03 1.56 13.32
12/23/2020 5:30:00 PM 2.44 36.392 0.036 7.02 1.54 13.3
12/23/2020 5:45:00 PM 2.42 36.356 0.036 7.02 1.54 13.3
12/23/2020 6:00:00 PM 2.41 36.338 0.036 7.02 1.56 13.29
12/23/2020 6:15:00 PM 2.4 36.32 0.036 7.01 1.54 13.29
12/23/2020 6:30:00 PM 2.37 36.266 0.036 7.01 1.58 13.3
12/23/2020 6:45:00 PM 2.35 36.23 0.036 7.01 1.54 13.3
12/23/2020 7:00:00 PM 2.33 36.194 0.036 7.01 1.65 13.31
12/23/2020 7:15:00 PM 2.31 36.158 0.036 7.01 1.57 13.31
12/23/2020 7:30:00 PM 2.29 36.122 0.036 7.01 1.56 13.32
12/23/2020 7:45:00 PM 2.27 36.086 0.036 7.01 1.56 13.33
12/23/2020 8:00:00 PM 2.25 36.05 0.036 7.01 1.57 13.33
12/23/2020 8:15:00 PM 2.22 35.996 0.036 7 1.58 13.34
12/23/2020 8:30:00 PM 2.21 35.978 0.036 7.01 1.56 13.34
12/23/2020 8:45:00 PM 2.2 35.96 0.036 7.01 1.54 13.35
12/23/2020 9:00:00 PM 2.21 35.978 0.036 7 1.55 13.34
12/23/2020 9:15:00 PM 2.21 35.978 0.036 7 1.58 13.34
12/23/2020 9:30:00 PM 2.22 35.996 0.036 7.01 1.56 13.34
12/23/2020 9:45:00 PM 2.21 35.978 0.036 7.01 1.56 13.34
12/23/2020 10:00:00 PM 2.2 35.96 0.036 7.01 1.56 13.35
12/23/2020 10:15:00 PM 2.18 35.924 0.036 7 1.63 13.35
12/23/2020 10:30:00 PM 2.16 35.888 0.036 7 1.61 13.36
12/23/2020 10:45:00 PM 2.14 35.852 0.036 7 1.6 13.36
12/23/2020 11:00:00 PM 2.13 35.834 0.036 7 1.59 13.36
12/23/2020 11:15:00 PM 2.12 35.816 0.036 6.99 1.57 13.36
12/23/2020 11:30:00 PM 2.12 35.816 0.036 7 1.57 13.37
12/23/2020 11:45:00 PM 2.12 35.816 0.036 7 1.56 13.37
12/24/2020 12:00:00 AM 2.09 35.762 0.036 7 1.57 13.37
12/24/2020 12:15:00 AM 2.06 35.708 0.036 7 1.56 13.38
12/24/2020 12:30:00 AM 2.03 35.654 0.036 7 1.57 13.38
12/24/2020 12:45:00 AM 2.02 35.636 0.036 7 1.55 13.39
12/24/2020 1:00:00 AM 2.02 35.636 0.036 7 1.56 13.39
12/24/2020 1:15:00 AM 2.01 35.618 0.036 6.99 1.55 13.39
12/24/2020 1:30:00 AM 2 35.6 0.036 7 1.59 13.39
12/24/2020 1:45:00 AM 2.01 35.618 0.036 7 1.57 13.39
12/24/2020 2:00:00 AM 2.01 35.618 0.036 7 1.57 13.39
12/24/2020 2:15:00 AM 2.01 35.618 0.036 7 1.55 13.39
12/24/2020 2:30:00 AM 1.99 35.582 0.036 7 1.58 13.39
12/24/2020 2:45:00 AM 1.97 35.546 0.036 7 1.58 13.39
12/24/2020 3:00:00 AM 1.96 35.528 0.036 7 1.56 13.4
12/24/2020 3:15:00 AM 1.94 35.492 0.036 7 1.6 13.4
12/24/2020 3:30:00 AM 1.94 35.492 0.036 7 1.57 13.41
12/24/2020 3:45:00 AM 1.94 35.492 0.036 7 1.56 13.41
12/24/2020 4:00:00 AM 1.96 35.528 0.036 7 1.57 13.4
12/24/2020 4:15:00 AM 1.98 35.564 0.036 7 1.56 13.39
12/24/2020 4:30:00 AM 1.98 35.564 0.036 7 1.57 13.39
12/24/2020 4:45:00 AM 1.97 35.546 0.036 7 1.58 13.39
12/24/2020 5:00:00 AM 1.96 35.528 0.036 7 1.6 13.39
12/24/2020 5:15:00 AM 1.98 35.564 0.036 7 1.6 13.39
12/24/2020 5:30:00 AM 2.02 35.636 0.036 7 1.6 13.37
12/24/2020 5:45:00 AM 2.06 35.708 0.036 7 1.61 13.36
12/24/2020 6:00:00 AM 2.1 35.78 0.036 7.01 1.57 13.35
12/24/2020 6:15:00 AM 2.13 35.834 0.036 7 1.57 13.34
12/24/2020 6:30:00 AM 2.17 35.906 0.036 7 1.58 13.32
12/24/2020 6:45:00 AM 2.18 35.924 0.036 7 1.54 13.32
12/24/2020 7:00:00 AM 2.2 35.96 0.036 7 1.56 13.31
12/24/2020 7:15:00 AM 2.22 35.996 0.036 7 1.61 13.3
12/24/2020 7:30:00 AM 2.25 36.05 0.036 7 1.59 13.29
12/24/2020 7:45:00 AM 2.27 36.086 0.036 7 1.59 13.28
12/24/2020 8:00:00 AM 2.28 36.104 0.036 7.01 1.59 13.28
12/24/2020 8:15:00 AM 2.29 36.122 0.036 7.01 1.6 13.28
12/24/2020 8:30:00 AM 2.31 36.158 0.036 7.01 1.63 13.28
12/24/2020 8:45:00 AM 2.33 36.194 0.036 7.01 1.62 13.29
12/24/2020 9:00:00 AM 2.37 36.266 0.036 7.02 1.61 13.31
12/24/2020 9:15:00 AM 2.4 36.32 0.036 7.03 1.61 13.34
12/24/2020 9:30:00 AM 2.43 36.374 0.036 7.03 1.61 13.36
12/24/2020 9:45:00 AM 2.47 36.446 0.036 7.04 1.57 13.37
12/24/2020 10:00:00 AM 2.5 36.5 0.035 7.05 1.64 13.37
12/24/2020 10:15:00 AM 2.53 36.554 0.035 7.06 1.59 13.37
12/24/2020 10:30:00 AM 2.56 36.608 0.035 7.05 1.69 13.37
12/24/2020 10:45:00 AM 2.58 36.644 0.035 7.06 1.69 13.37
12/24/2020 11:00:00 AM 2.62 36.716 0.035 7.06 1.68 13.36
12/24/2020 11:15:00 AM 2.64 36.752 0.035 7.06 1.75 13.37
12/24/2020 11:30:00 AM 2.67 36.806 0.035 7.07 1.73 13.37
12/24/2020 11:45:00 AM 2.69 36.842 0.035 7.07 1.85 13.36
12/24/2020 12:00:00 PM 2.7 36.86 0.035 7.07 1.84 13.35
12/24/2020 12:15:00 PM 2.72 36.896 0.035 7.08 1.95 13.34
12/24/2020 12:30:00 PM 2.73 36.914 0.035 7.08 1.98 13.33
12/24/2020 12:45:00 PM 2.73 36.914 0.035 7.08 1.98 13.31
12/24/2020 1:00:00 PM 2.74 36.932 0.035 7.07 2.15 13.29
12/24/2020 1:15:00 PM 2.74 36.932 0.035 7.06 2.23 13.27
12/24/2020 1:30:00 PM 2.73 36.914 0.035 7.06 2.48 13.26
12/24/2020 1:45:00 PM 2.71 36.878 0.035 7.05 2.73 13.24
12/24/2020 2:00:00 PM 2.69 36.842 0.035 7.05 3.01 13.22
12/24/2020 2:15:00 PM 2.65 36.77 0.034 7.05 3.52 13.21
12/24/2020 2:30:00 PM 2.61 36.698 0.034 7.04 4.53 13.21
12/24/2020 2:45:00 PM 2.57 36.626 0.034 7.04 5.34 13.2
12/24/2020 3:00:00 PM 2.51 36.518 0.034 7.03 6.56 13.2
12/24/2020 3:15:00 PM 2.44 36.392 0.034 7.01 12.06 13.2
12/24/2020 3:30:00 PM 2.37 36.266 0.033 6.99 12.46 13.21
12/24/2020 3:45:00 PM 2.31 36.158 0.033 6.98 16.2 13.22
12/24/2020 4:00:00 PM 2.25 36.05 0.032 6.96 17.01 13.24
12/24/2020 4:15:00 PM 2.21 35.978 0.032 6.95 23.76 13.25
12/24/2020 4:30:00 PM 2.16 35.888 0.031 6.93 35.52 13.27
12/24/2020 4:45:00 PM 2.1 35.78 0.031 6.93 37.67 13.28
12/24/2020 5:00:00 PM 2.11 35.798 0.03 6.92 38.23 13.29
12/24/2020 5:15:00 PM 2.17 35.906 0.03 6.92 207.25 13.29
12/24/2020 5:30:00 PM 2.21 35.978 0.03 6.9 53.35 13.29
12/24/2020 5:45:00 PM 2.19 35.942 0.029 6.89 61.5 13.29
12/24/2020 6:00:00 PM 2.18 35.924 0.029 6.74 63.61 13.28
12/24/2020 6:15:00 PM 2.24 36.032 0.029 6.79 69.72 13.27
12/24/2020 6:30:00 PM 2.3 36.14 0.028 6.82 71.98 13.25
12/24/2020 6:45:00 PM 2.34 36.212 0.028 6.82 87.46 13.23
12/24/2020 7:00:00 PM 2.42 36.356 0.027 6.81 72.12 13.2
12/24/2020 7:15:00 PM 2.52 36.536 0.027 6.8 77.3 13.16
12/24/2020 7:30:00 PM 2.61 36.698 0.027 6.8 64.03 13.13
12/24/2020 7:45:00 PM 2.7 36.86 0.026 6.79 72.09 13.1
12/24/2020 8:00:00 PM 2.79 37.022 0.026 6.78 69.3 13.06
12/24/2020 8:15:00 PM 2.8 37.04 0.026 6.77 73.79 13.04
12/24/2020 8:30:00 PM 2.85 37.13 0.026 6.76 65.34 13.03
12/24/2020 8:45:00 PM 2.91 37.238 0.026 6.74 71.01 13
12/24/2020 9:00:00 PM 2.97 37.346 0.025 6.74 70.98 12.98
12/24/2020 9:15:00 PM 3.05 37.49 0.025 6.74 65.52 12.95
12/24/2020 9:30:00 PM 3.13 37.634 0.025 6.74 74.07 12.92
12/24/2020 9:45:00 PM 3.2 37.76 0.025 6.73 59.58 12.9
12/24/2020 10:00:00 PM 3.26 37.868 0.025 6.72 72.61 12.88
12/24/2020 10:15:00 PM 3.3 37.94 0.025 6.72 56.31 12.86
12/24/2020 10:30:00 PM 3.39 38.102 0.025 6.72 468.55 12.82
12/24/2020 10:45:00 PM 3.46 38.228 0.025 6.71 57.37 12.8
12/24/2020 11:00:00 PM 3.52 38.336 0.025 6.71 60.68 12.77
12/24/2020 11:15:00 PM 3.58 38.444 0.025 6.7 51.64 12.74
12/24/2020 11:30:00 PM 3.64 38.552 0.025 6.71 50.63 12.72
12/24/2020 11:45:00 PM 3.7 38.66 0.025 6.7 56.35 12.69
12/25/2020 12:00:00 AM 3.75 38.75 0.025 6.7 44.21 12.67
12/25/2020 12:15:00 AM 3.8 38.84 0.025 6.7 65.56 12.65
12/25/2020 12:30:00 AM 3.85 38.93 0.025 6.69 52.05 12.62
12/25/2020 12:45:00 AM 3.91 39.038 0.025 6.69 54.47 12.6
12/25/2020 1:00:00 AM 3.95 39.11 0.025 6.69 46.65 12.59
12/25/2020 1:15:00 AM 4 39.2 0.025 6.7 56.05 12.58
12/25/2020 1:30:00 AM 4.04 39.272 0.025 6.68 59 12.57
12/25/2020 1:45:00 AM 4.07 39.326 0.024 6.68 52.63 12.57
12/25/2020 2:00:00 AM 4.09 39.362 0.024 6.68 57.63 12.55
12/25/2020 2:15:00 AM 4.11 39.398 0.024 6.68 74.16 12.55
12/25/2020 2:30:00 AM 4.12 39.416 0.024 6.64 66.94 12.55
12/25/2020 2:45:00 AM 4.12 39.416 0.024 6.65 62.11 12.55
12/25/2020 3:00:00 AM 4.14 39.452 0.024 6.65 70.32 12.54
12/25/2020 3:15:00 AM 4.15 39.47 0.024 6.63 69.05 12.55
12/25/2020 3:30:00 AM 4.14 39.452 0.024 6.64 69.51 12.55
12/25/2020 3:45:00 AM 4.11 39.398 0.024 6.63 75.97 12.55
12/25/2020 4:00:00 AM 4.11 39.398 0.024 6.62 76.81 12.56
12/25/2020 4:15:00 AM 4.11 39.398 0.024 6.62 79.78 12.57
12/25/2020 4:30:00 AM 4.12 39.416 0.024 6.61 82.19 12.57
12/25/2020 4:45:00 AM 4.13 39.434 0.024 6.61 91.27 12.56
12/25/2020 5:00:00 AM 4.15 39.47 0.024 6.61 77.39 12.56
12/25/2020 5:15:00 AM 4.17 39.506 0.024 6.6 119.62 12.56
12/25/2020 5:30:00 AM 4.2 39.56 0.024 6.61 53.89 12.55
12/25/2020 5:45:00 AM 4.22 39.596 0.024 6.6 57.22 12.55
12/25/2020 6:00:00 AM 4.25 39.65 0.024 6.62 73.87 12.54
12/25/2020 6:15:00 AM 4.26 39.668 0.024 6.61 55.8 12.53
12/25/2020 6:30:00 AM 4.28 39.704 0.024 6.61 40.57 12.53
12/25/2020 6:45:00 AM 4.3 39.74 0.024 6.61 40.46 12.53
12/25/2020 7:00:00 AM 4.33 39.794 0.024 6.61 42.76 12.52
12/25/2020 7:15:00 AM 4.34 39.812 0.024 6.61 40.4 12.52
12/25/2020 7:30:00 AM 4.36 39.848 0.024 6.62 33.61 12.51
12/25/2020 7:45:00 AM 4.39 39.902 0.024 6.63 32.05 12.51
12/25/2020 8:00:00 AM 4.41 39.938 0.024 6.62 31.37 12.5
12/25/2020 8:15:00 AM 4.43 39.974 0.024 6.63 31.13 12.49
12/25/2020 8:30:00 AM 4.44 39.992 0.024 6.62 34.65 12.49
12/25/2020 8:45:00 AM 4.46 40.028 0.024 6.63 26.22 12.49
12/25/2020 9:00:00 AM 4.46 40.028 0.024 6.63 33.69 12.48
12/25/2020 9:15:00 AM 4.47 40.046 0.024 6.63 26.46 12.48
12/25/2020 9:30:00 AM 4.48 40.064 0.025 6.63 21.32 12.48
12/25/2020 9:45:00 AM 4.49 40.082 0.025 6.63 20.35 12.48
12/25/2020 10:00:00 AM 4.51 40.118 0.025 6.64 26.4 12.48
12/25/2020 10:15:00 AM 4.53 40.154 0.025 6.64 22.63 12.48
12/25/2020 10:30:00 AM 4.54 40.172 0.025 6.65 21.63 12.47
12/25/2020 10:45:00 AM 4.57 40.226 0.025 6.65 19.12 12.46
12/25/2020 11:00:00 AM 4.58 40.244 0.025 6.65 21.21 12.46
12/25/2020 11:15:00 AM 4.59 40.262 0.025 6.65 18.75 12.46
12/25/2020 11:30:00 AM 4.6 40.28 0.025 6.65 17.49 12.45
12/25/2020 11:45:00 AM 4.62 40.316 0.025 6.66 22.16 12.45
12/25/2020 12:00:00 PM 4.63 40.334 0.025 6.66 16.94 12.44
12/25/2020 12:15:00 PM 4.64 40.352 0.025 6.66 19.42 12.43
12/25/2020 12:30:00 PM 4.65 40.37 0.025 6.66 19 12.43
12/25/2020 12:45:00 PM 4.67 40.406 0.025 6.67 18.11 12.43
12/25/2020 1:00:00 PM 4.68 40.424 0.025 6.67 17.8 12.42
12/25/2020 1:15:00 PM 4.68 40.424 0.025 6.66 17.02 12.42
12/25/2020 1:30:00 PM 4.69 40.442 0.025 6.67 15.68 12.42
12/25/2020 1:45:00 PM 4.7 40.46 0.025 6.67 25.73 12.42
12/25/2020 2:00:00 PM 4.72 40.496 0.025 6.67 23.43 12.42
12/25/2020 2:15:00 PM 4.71 40.478 0.025 6.67 16.32 12.42
12/25/2020 2:30:00 PM 4.71 40.478 0.025 6.67 16.02 12.42
12/25/2020 2:45:00 PM 4.71 40.478 0.025 6.67 15.58 12.41
12/25/2020 3:00:00 PM 4.71 40.478 0.025 6.67 16.15 12.41
12/25/2020 3:15:00 PM 4.7 40.46 0.025 6.67 15.14 12.41
12/25/2020 3:30:00 PM 4.69 40.442 0.025 6.67 14.26 12.42
12/25/2020 3:45:00 PM 4.67 40.406 0.025 6.66 14.23 12.42
12/25/2020 4:00:00 PM 4.65 40.37 0.025 6.67 14.25 12.43
12/25/2020 4:15:00 PM 4.63 40.334 0.026 6.66 13.61 12.44
12/25/2020 4:30:00 PM 4.61 40.298 0.026 6.66 13.52 12.45
12/25/2020 4:45:00 PM 4.6 40.28 0.026 6.66 13.33 12.45
12/25/2020 5:00:00 PM 4.58 40.244 0.026 6.67 13.07 12.46
12/25/2020 5:15:00 PM 4.56 40.208 0.026 6.67 12.49 12.47
12/25/2020 5:30:00 PM 4.54 40.172 0.026 6.66 12.94 12.48
12/25/2020 5:45:00 PM 4.52 40.136 0.026 6.67 12.56 12.5
12/25/2020 6:00:00 PM 4.5 40.1 0.026 6.67 12.29 12.5
12/25/2020 6:15:00 PM 4.47 40.046 0.026 6.67 12.35 12.52
12/25/2020 6:30:00 PM 4.45 40.01 0.026 6.67 12.23 12.53
12/25/2020 6:45:00 PM 4.42 39.956 0.026 6.66 12.05 12.54
12/25/2020 7:00:00 PM 4.39 39.902 0.026 6.66 11.62 12.56
12/25/2020 7:15:00 PM 4.37 39.866 0.026 6.67 11.44 12.57
12/25/2020 7:30:00 PM 4.35 39.83 0.026 6.68 11.99 12.58
12/25/2020 7:45:00 PM 4.32 39.776 0.026 6.68 11.37 12.59
12/25/2020 8:00:00 PM 4.3 39.74 0.026 6.68 10.93 12.6
12/25/2020 8:15:00 PM 4.28 39.704 0.026 6.67 11.01 12.61
12/25/2020 8:30:00 PM 4.25 39.65 0.026 6.67 11.08 12.62
12/25/2020 8:45:00 PM 4.23 39.614 0.026 6.68 10.86 12.63
12/25/2020 9:00:00 PM 4.2 39.56 0.026 6.68 10.65 12.65
12/25/2020 9:15:00 PM 4.17 39.506 0.026 6.68 10.23 12.66
12/25/2020 9:30:00 PM 4.14 39.452 0.026 6.68 10.69 12.67
12/25/2020 9:45:00 PM 4.11 39.398 0.026 6.68 10.16 12.68
12/25/2020 10:00:00 PM 4.09 39.362 0.026 6.68 9.61 12.69
12/25/2020 10:15:00 PM 4.06 39.308 0.026 6.68 10.25 12.7
12/25/2020 10:30:00 PM 4.04 39.272 0.026 6.67 9.61 12.71
12/25/2020 10:45:00 PM 4.01 39.218 0.026 6.68 9.73 12.71
12/25/2020 11:00:00 PM 3.99 39.182 0.026 6.68 9.18 12.72
12/25/2020 11:15:00 PM 3.97 39.146 0.026 6.68 9.51 12.73
12/25/2020 11:30:00 PM 3.95 39.11 0.026 6.68 9.09 12.74
12/25/2020 11:45:00 PM 3.93 39.074 0.026 6.67 8.77 12.75
12/26/2020 12:00:00 AM 3.9 39.02 0.026 6.67 9 12.76
12/26/2020 12:15:00 AM 3.88 38.984 0.026 6.68 9.33 12.76
12/26/2020 12:30:00 AM 3.85 38.93 0.026 6.68 8.36 12.77
12/26/2020 12:45:00 AM 3.83 38.894 0.026 6.67 8.69 12.78
12/26/2020 1:00:00 AM 3.81 38.858 0.026 6.68 8.73 12.79
12/26/2020 1:15:00 AM 3.79 38.822 0.026 6.68 8.65 12.8
12/26/2020 1:30:00 AM 3.76 38.768 0.026 6.68 8.25 12.81
12/26/2020 1:45:00 AM 3.74 38.732 0.026 6.68 8.18 12.81
12/26/2020 2:00:00 AM 3.71 38.678 0.026 6.68 8.24 12.83
12/26/2020 2:15:00 AM 3.7 38.66 0.026 6.68 8.04 12.84
12/26/2020 2:30:00 AM 3.69 38.642 0.026 6.67 8.36 12.84
12/26/2020 2:45:00 AM 3.67 38.606 0.026 6.67 7.69 12.85
12/26/2020 3:00:00 AM 3.66 38.588 0.026 6.68 8.34 12.86
12/26/2020 3:15:00 AM 3.65 38.57 0.026 6.68 8.01 12.86
12/26/2020 3:30:00 AM 3.64 38.552 0.026 6.68 7.87 12.87
12/26/2020 3:45:00 AM 3.63 38.534 0.026 6.67 7.56 12.87
12/26/2020 4:00:00 AM 3.61 38.498 0.026 6.68 7.62 12.88
12/26/2020 4:15:00 AM 3.6 38.48 0.026 6.69 7.6 12.88
12/26/2020 4:30:00 AM 3.59 38.462 0.026 6.67 7.52 12.89
12/26/2020 4:45:00 AM 3.57 38.426 0.026 6.68 7.7 12.9
12/26/2020 5:00:00 AM 3.55 38.39 0.026 6.68 7.42 12.9
12/26/2020 5:15:00 AM 3.53 38.354 0.026 6.68 7.02 12.91
12/26/2020 5:30:00 AM 3.51 38.318 0.026 6.68 7.43 12.92
12/26/2020 5:45:00 AM 3.49 38.282 0.026 6.68 7.02 12.93
12/26/2020 6:00:00 AM 3.47 38.246 0.026 6.67 6.97 12.94
12/26/2020 6:15:00 AM 3.46 38.228 0.026 6.68 7.59 12.94
12/26/2020 6:30:00 AM 3.45 38.21 0.026 6.68 7.25 12.95
12/26/2020 6:45:00 AM 3.44 38.192 0.026 6.67 7.03 12.96
12/26/2020 7:00:00 AM 3.42 38.156 0.026 6.67 6.93 12.97
12/26/2020 7:15:00 AM 3.4 38.12 0.026 6.68 6.75 12.97
12/26/2020 7:30:00 AM 3.38 38.084 0.026 6.68 6.48 12.98
12/26/2020 7:45:00 AM 3.37 38.066 0.026 6.67 6.67 12.99
12/26/2020 8:00:00 AM 3.36 38.048 0.026 6.68 6.79 13
12/26/2020 8:15:00 AM 3.35 38.03 0.026 6.68 6.29 13.01
12/26/2020 8:30:00 AM 3.34 38.012 0.026 6.68 6.46 13.02
12/26/2020 8:45:00 AM 3.33 37.994 0.026 6.68 6.21 13.02
12/26/2020 9:00:00 AM 3.33 37.994 0.026 6.69 6.3 13.03
12/26/2020 9:15:00 AM 3.33 37.994 0.026 6.69 6.19 13.04
12/26/2020 9:30:00 AM 3.33 37.994 0.026 6.69 6.24 13.04
12/26/2020 9:45:00 AM 3.34 38.012 0.026 6.7 5.93 13.04
12/26/2020 10:00:00 AM 3.35 38.03 0.026 6.69 6.28 13.04
12/26/2020 10:15:00 AM 3.36 38.048 0.026 6.7 5.83 13.04
12/26/2020 10:30:00 AM 3.37 38.066 0.026 6.7 5.9 13.04
12/26/2020 10:45:00 AM 3.38 38.084 0.026 6.71 6.07 13.04
12/26/2020 11:00:00 AM 3.39 38.102 0.026 6.71 5.8 13.04
12/26/2020 11:15:00 AM 3.4 38.12 0.026 6.71 6.02 13.04
12/26/2020 11:30:00 AM 3.41 38.138 0.026 6.7 5.79 13.03
12/26/2020 11:45:00 AM 3.42 38.156 0.026 6.71 5.72 13.03
12/26/2020 12:00:00 PM 3.44 38.192 0.026 6.71 7.2 13.02
12/26/2020 12:15:00 PM 3.46 38.228 0.026 6.7 6.24 13.01
12/26/2020 12:30:00 PM 3.48 38.264 0.026 6.7 10.62 13
12/26/2020 12:45:00 PM 3.49 38.282 0.026 6.7 5.96 13
12/26/2020 1:00:00 PM 3.51 38.318 0.026 6.7 5.67 12.99
12/26/2020 1:15:00 PM 3.53 38.354 0.026 6.7 6.03 12.98
12/26/2020 1:30:00 PM 3.54 38.372 0.026 6.7 6.07 12.97
12/26/2020 1:45:00 PM 3.55 38.39 0.026 6.69 5.38 12.97
12/26/2020 2:00:00 PM 3.57 38.426 0.026 6.7 5.76 12.96
12/26/2020 2:15:00 PM 3.57 38.426 0.026 6.7 5.59 12.96
12/26/2020 2:30:00 PM 3.57 38.426 0.026 6.7 5.46 12.95
12/26/2020 2:45:00 PM 3.57 38.426 0.026 6.7 5.42 12.95
12/26/2020 3:00:00 PM 3.57 38.426 0.026 6.7 5.34 12.95
12/26/2020 3:15:00 PM 3.57 38.426 0.026 6.7 5.7 12.95
12/26/2020 3:30:00 PM 3.57 38.426 0.026 6.69 5.31 12.95
12/26/2020 3:45:00 PM 3.57 38.426 0.026 6.69 5.19 12.94
12/26/2020 4:00:00 PM 3.58 38.444 0.026 6.7 5.37 12.94
12/26/2020 4:15:00 PM 3.57 38.426 0.026 6.69 5.55 12.94
12/26/2020 4:30:00 PM 3.56 38.408 0.026 6.69 5.23 12.94
12/26/2020 4:45:00 PM 3.55 38.39 0.026 6.69 5.36 12.94
12/26/2020 5:00:00 PM 3.54 38.372 0.026 6.69 5.27 12.94
12/26/2020 5:15:00 PM 3.53 38.354 0.026 6.69 5.34 12.95
12/26/2020 5:30:00 PM 3.51 38.318 0.026 6.7 5.1 12.95
12/26/2020 5:45:00 PM 3.5 38.3 0.026 6.69 5.15 12.96
12/26/2020 6:00:00 PM 3.48 38.264 0.026 6.69 5.24 12.96
12/26/2020 6:15:00 PM 3.47 38.246 0.026 6.69 5.29 12.98
12/26/2020 6:30:00 PM 3.46 38.228 0.026 6.69 5.48 12.98
12/26/2020 6:45:00 PM 3.46 38.228 0.026 6.69 5.26 12.99
12/26/2020 7:00:00 PM 3.45 38.21 0.026 6.69 4.99 12.99
12/26/2020 7:15:00 PM 3.44 38.192 0.026 6.7 5.23 13
12/26/2020 7:30:00 PM 3.44 38.192 0.026 6.69 4.96 13
12/26/2020 7:45:00 PM 3.43 38.174 0.026 6.7 5.19 13.01
12/26/2020 8:00:00 PM 3.42 38.156 0.026 6.69 5.04 13.01
12/26/2020 8:15:00 PM 3.42 38.156 0.026 6.7 5.1 13.02
12/26/2020 8:30:00 PM 3.42 38.156 0.026 6.69 8.64 13.02
12/26/2020 8:45:00 PM 3.41 38.138 0.026 6.7 5.15 13.02
12/26/2020 9:00:00 PM 3.41 38.138 0.026 6.7 5.02 13.03
12/26/2020 9:15:00 PM 3.4 38.12 0.026 6.69 4.92 13.03
12/26/2020 9:30:00 PM 3.4 38.12 0.026 6.69 4.76 13.03
12/26/2020 9:45:00 PM 3.4 38.12 0.026 6.69 4.79 13.03
12/26/2020 10:00:00 PM 3.4 38.12 0.026 6.69 4.69 13.03
12/26/2020 10:15:00 PM 3.4 38.12 0.026 6.7 4.7 13.03
12/26/2020 10:30:00 PM 3.4 38.12 0.026 6.7 4.72 13.04
12/26/2020 10:45:00 PM 3.4 38.12 0.026 6.68 4.69 13.04
12/26/2020 11:00:00 PM 3.4 38.12 0.026 6.7 4.93 13.04
12/26/2020 11:15:00 PM 3.4 38.12 0.027 6.7 4.7 13.04
12/26/2020 11:30:00 PM 3.4 38.12 0.027 6.69 4.64 13.04
12/26/2020 11:45:00 PM 3.4 38.12 0.027 6.69 4.75 13.04
12/27/2020 12:00:00 AM 3.4 38.12 0.027 6.7 4.64 13.04
12/27/2020 12:15:00 AM 3.4 38.12 0.027 6.68 4.79 13.04
12/27/2020 12:30:00 AM 3.4 38.12 0.027 6.7 4.63 13.04
12/27/2020 12:45:00 AM 3.4 38.12 0.027 6.7 4.62 13.04
12/27/2020 1:00:00 AM 3.4 38.12 0.027 6.7 4.64 13.04
12/27/2020 1:15:00 AM 3.4 38.12 0.027 6.7 4.44 13.04
12/27/2020 1:30:00 AM 3.4 38.12 0.027 6.7 4.59 13.04
12/27/2020 1:45:00 AM 3.4 38.12 0.027 6.7 4.47 13.05
12/27/2020 2:00:00 AM 3.4 38.12 0.027 6.7 4.41 13.05
12/27/2020 2:15:00 AM 3.4 38.12 0.027 6.7 4.57 13.05
12/27/2020 2:30:00 AM 3.41 38.138 0.027 6.7 4.46 13.05
12/27/2020 2:45:00 AM 3.41 38.138 0.027 6.7 4.48 13.05
12/27/2020 3:00:00 AM 3.41 38.138 0.027 6.7 4.34 13.05
12/27/2020 3:15:00 AM 3.41 38.138 0.027 6.7 4.66 13.06
12/27/2020 3:30:00 AM 3.42 38.156 0.027 6.7 4.41 13.06
12/27/2020 3:45:00 AM 3.42 38.156 0.027 6.7 4.34 13.05
12/27/2020 4:00:00 AM 3.42 38.156 0.027 6.7 4.4 13.05
12/27/2020 4:15:00 AM 3.42 38.156 0.027 6.7 4.31 13.05
12/27/2020 4:30:00 AM 3.43 38.174 0.027 6.7 4.24 13.06
12/27/2020 4:45:00 AM 3.43 38.174 0.027 6.69 4.16 13.05
12/27/2020 5:00:00 AM 3.43 38.174 0.027 6.7 4.25 13.06
12/27/2020 5:15:00 AM 3.44 38.192 0.027 6.7 4.18 13.06
12/27/2020 5:30:00 AM 3.44 38.192 0.027 6.7 4.26 13.06
12/27/2020 5:45:00 AM 3.44 38.192 0.027 6.7 4.07 13.06
12/27/2020 6:00:00 AM 3.45 38.21 0.027 6.7 4.17 13.06
12/27/2020 6:15:00 AM 3.45 38.21 0.027 6.71 4.22 13.06
12/27/2020 6:30:00 AM 3.46 38.228 0.027 6.71 4.16 13.06
12/27/2020 6:45:00 AM 3.46 38.228 0.027 6.7 4.24 13.06
12/27/2020 7:00:00 AM 3.47 38.246 0.027 6.7 4.16 13.06
12/27/2020 7:15:00 AM 3.47 38.246 0.027 6.7 3.93 13.06
12/27/2020 7:30:00 AM 3.46 38.228 0.027 6.7 4.16 13.06
12/27/2020 7:45:00 AM 3.44 38.192 0.027 6.7 4.02 13.07
12/27/2020 8:00:00 AM 3.44 38.192 0.027 6.7 3.98 13.08
12/27/2020 8:15:00 AM 3.44 38.192 0.027 6.71 3.97 13.09
12/27/2020 8:30:00 AM 3.44 38.192 0.027 6.7 3.91 13.09
12/27/2020 8:45:00 AM 3.44 38.192 0.027 6.71 3.87 13.1
12/27/2020 9:00:00 AM 3.45 38.21 0.027 6.71 4 13.11
12/27/2020 9:15:00 AM 3.45 38.21 0.027 6.71 3.82 13.11
12/27/2020 9:30:00 AM 3.46 38.228 0.027 6.71 4.04 13.11
12/27/2020 9:45:00 AM 3.48 38.264 0.027 6.71 3.84 13.11
12/27/2020 10:00:00 AM 3.51 38.318 0.027 6.72 3.7 13.1
12/27/2020 10:15:00 AM 3.54 38.372 0.027 6.72 3.93 13.1
12/27/2020 10:30:00 AM 3.58 38.444 0.027 6.72 3.81 13.08
12/27/2020 10:45:00 AM 3.62 38.516 0.027 6.72 3.74 13.07
12/27/2020 11:00:00 AM 3.67 38.606 0.027 6.72 3.93 13.06
12/27/2020 11:15:00 AM 3.71 38.678 0.027 6.72 3.73 13.04
12/27/2020 11:30:00 AM 3.75 38.75 0.027 6.72 3.76 13.02
12/27/2020 11:45:00 AM 3.8 38.84 0.027 6.72 8.23 13.01
12/27/2020 12:00:00 PM 3.87 38.966 0.027 6.72 3.88 12.98
12/27/2020 12:15:00 PM 3.92 39.056 0.027 6.73 3.73 12.96
12/27/2020 12:30:00 PM 3.99 39.182 0.027 6.72 3.81 12.94
12/27/2020 12:45:00 PM 4.05 39.29 0.027 6.72 3.82 12.91
12/27/2020 1:00:00 PM 4.09 39.362 0.027 6.72 3.85 12.89
12/27/2020 1:15:00 PM 4.15 39.47 0.027 6.73 3.77 12.87
12/27/2020 1:30:00 PM 4.2 39.56 0.027 6.72 3.65 12.84
12/27/2020 1:45:00 PM 4.24 39.632 0.027 6.73 3.84 12.83
12/27/2020 2:00:00 PM 4.29 39.722 0.027 6.73 3.8 12.81
12/27/2020 2:15:00 PM 4.33 39.794 0.027 6.73 3.8 12.79
12/27/2020 2:30:00 PM 4.35 39.83 0.027 6.73 4.63 12.78
12/27/2020 2:45:00 PM 4.36 39.848 0.027 6.73 3.85 12.77
12/27/2020 3:00:00 PM 4.38 39.884 0.027 6.74 3.65 12.76
12/27/2020 3:15:00 PM 4.38 39.884 0.027 6.73 4.14 12.75
12/27/2020 3:30:00 PM 4.38 39.884 0.027 6.74 3.63 12.74
12/27/2020 3:45:00 PM 4.39 39.902 0.027 6.73 3.69 12.73
12/27/2020 4:00:00 PM 4.4 39.92 0.027 6.73 3.77 12.72
12/27/2020 4:15:00 PM 4.4 39.92 0.027 6.73 3.6 12.72
12/27/2020 4:30:00 PM 4.39 39.902 0.027 6.73 3.76 12.71
12/27/2020 4:45:00 PM 4.38 39.884 0.027 6.72 3.68 12.7
12/27/2020 5:00:00 PM 4.36 39.848 0.027 6.73 3.77 12.7
12/27/2020 5:15:00 PM 4.34 39.812 0.027 6.72 3.66 12.7
12/27/2020 5:30:00 PM 4.32 39.776 0.027 6.72 3.73 12.71
12/27/2020 5:45:00 PM 4.3 39.74 0.027 6.72 3.65 12.71
12/27/2020 6:00:00 PM 4.27 39.686 0.027 6.72 4.98 12.72
12/27/2020 6:15:00 PM 4.25 39.65 0.027 6.72 3.76 12.73
12/27/2020 6:30:00 PM 4.22 39.596 0.027 6.71 3.69 12.74
12/27/2020 6:45:00 PM 4.2 39.56 0.027 6.72 3.39 12.75
12/27/2020 7:00:00 PM 4.17 39.506 0.027 6.72 3.55 12.76
12/27/2020 7:15:00 PM 4.15 39.47 0.027 6.72 3.76 12.77
12/27/2020 7:30:00 PM 4.13 39.434 0.027 6.72 3.64 12.77
12/27/2020 7:45:00 PM 4.1 39.38 0.027 6.72 3.92 12.78
12/27/2020 8:00:00 PM 4.08 39.344 0.027 6.72 3.49 12.79
12/27/2020 8:15:00 PM 4.06 39.308 0.027 6.71 4.29 12.79
12/27/2020 8:30:00 PM 4.05 39.29 0.027 6.72 3.83 12.8
12/27/2020 8:45:00 PM 4.03 39.254 0.027 6.72 3.93 12.8
12/27/2020 9:00:00 PM 4.01 39.218 0.027 6.72 3.99 12.81
12/27/2020 9:15:00 PM 3.99 39.182 0.027 6.72 4.13 12.82
12/27/2020 9:30:00 PM 3.98 39.164 0.027 6.72 3.89 12.82
12/27/2020 9:45:00 PM 3.96 39.128 0.027 6.71 3.74 12.83
12/27/2020 10:00:00 PM 3.95 39.11 0.027 6.72 3.89 12.83
12/27/2020 10:15:00 PM 3.94 39.092 0.027 6.72 3.79 12.83
12/27/2020 10:30:00 PM 3.93 39.074 0.027 6.72 3.83 12.84
12/27/2020 10:45:00 PM 3.92 39.056 0.027 6.72 3.84 12.84
12/27/2020 11:00:00 PM 3.91 39.038 0.027 6.72 4.01 12.84
12/27/2020 11:15:00 PM 3.89 39.002 0.027 6.7 4.47 12.85
12/27/2020 11:30:00 PM 3.88 38.984 0.027 6.72 3.75 12.85
12/27/2020 11:45:00 PM 3.87 38.966 0.027 6.73 3.89 12.85
12/28/2020 12:00:00 AM 3.86 38.948 0.027 6.72 3.89 12.85
12/28/2020 12:15:00 AM 3.85 38.93 0.027 6.72 3.76 12.85
12/28/2020 12:30:00 AM 3.85 38.93 0.027 6.72 3.88 12.85
12/28/2020 12:45:00 AM 3.84 38.912 0.027 6.71 3.78 12.85
12/28/2020 1:00:00 AM 3.83 38.894 0.027 6.72 3.76 12.84
12/28/2020 1:15:00 AM 3.82 38.876 0.027 6.72 3.71 12.84
12/28/2020 1:30:00 AM 3.82 38.876 0.027 6.72 3.65 12.84
12/28/2020 1:45:00 AM 3.82 38.876 0.027 6.72 3.73 12.84
12/28/2020 2:00:00 AM 3.81 38.858 0.027 6.72 3.75 12.84
12/28/2020 2:15:00 AM 3.81 38.858 0.027 6.72 3.97 12.84
12/28/2020 2:30:00 AM 3.81 38.858 0.027 6.72 3.6 12.84
12/28/2020 2:45:00 AM 3.82 38.876 0.027 6.72 3.56 12.84
12/28/2020 3:00:00 AM 3.82 38.876 0.027 6.71 3.74 12.84
12/28/2020 3:15:00 AM 3.83 38.894 0.027 6.72 3.81 12.83
12/28/2020 3:30:00 AM 3.83 38.894 0.027 6.72 3.8 12.83
12/28/2020 3:45:00 AM 3.85 38.93 0.027 6.71 3.64 12.82
12/28/2020 4:00:00 AM 3.86 38.948 0.027 6.72 3.81 12.82
12/28/2020 4:15:00 AM 3.82 38.876 0.027 6.72 3.68 12.82
12/28/2020 4:30:00 AM 3.79 38.822 0.027 6.7 3.49 12.82
12/28/2020 4:45:00 AM 3.75 38.75 0.027 6.72 3.69 12.82
12/28/2020 5:00:00 AM 3.78 38.804 0.027 6.73 3.16 12.83
12/28/2020 5:15:00 AM 3.8 38.84 0.027 6.72 3.29 12.82
12/28/2020 5:30:00 AM 3.81 38.858 0.027 6.73 3.31 12.82
12/28/2020 5:45:00 AM 3.83 38.894 0.027 6.72 3.03 12.82
12/28/2020 6:00:00 AM 3.85 38.93 0.027 6.72 3.15 12.81
12/28/2020 6:15:00 AM 3.87 38.966 0.027 6.72 3.23 12.8
12/28/2020 6:30:00 AM 3.89 39.002 0.027 6.72 3.22 12.8
12/28/2020 6:45:00 AM 3.91 39.038 0.027 6.72 3.2 12.79
12/28/2020 7:00:00 AM 3.93 39.074 0.027 6.72 3.19 12.78
12/28/2020 7:15:00 AM 3.95 39.11 0.027 6.72 3.21 12.78
12/28/2020 7:30:00 AM 3.97 39.146 0.027 6.72 3.35 12.77
12/28/2020 7:45:00 AM 3.98 39.164 0.027 6.73 3.08 12.77
12/28/2020 8:00:00 AM 4 39.2 0.027 6.73 3.05 12.77
12/28/2020 8:15:00 AM 4.02 39.236 0.027 6.73 3.08 12.76
12/28/2020 8:30:00 AM 4.03 39.254 0.027 6.72 3.19 12.75
12/28/2020 8:45:00 AM 4.05 39.29 0.027 6.73 3.05 12.75
12/28/2020 9:00:00 AM 4.08 39.344 0.027 6.73 3.16 12.75
12/28/2020 9:15:00 AM 4.11